<?xml version='1.0' encoding='UTF-8'?><gpx version="1.1" creator="JPX - https://github.com/jenetics/jpx" xmlns="http://www.topografix.com/GPX/1/1"><trk><trkseg><trkpt lat="40.01886964750058" lon="9.678248677983847"><ele>403.0</ele><time>2026-03-22T09:35:50Z</time></trkpt><trkpt lat="40.018992447356275" lon="9.678297923416272"><ele>403.0</ele><time>2026-03-22T09:35:53Z</time></trkpt><trkpt lat="40.019074632834275" lon="9.678316825687977"><ele>403.0</ele><time>2026-03-22T09:35:54Z</time></trkpt><trkpt lat="40.01916013632381" lon="9.678338866198983"><ele>403.0</ele><time>2026-03-22T09:35:55Z</time></trkpt><trkpt lat="40.01924686579038" lon="9.678363336550225"><ele>403.0</ele><time>2026-03-22T09:35:56Z</time></trkpt><trkpt lat="40.01933738396154" lon="9.678401834123685"><ele>403.79999999999995</ele><time>2026-03-22T09:35:57Z</time></trkpt><trkpt lat="40.01942821465041" lon="9.678442369259624"><ele>404.6</ele><time>2026-03-22T09:35:58Z</time></trkpt><trkpt lat="40.01951674599056" lon="9.678449924348795"><ele>405.4</ele><time>2026-03-22T09:35:59Z</time></trkpt><trkpt lat="40.01961931629865" lon="9.678455168377097"><ele>406.20000000000005</ele><time>2026-03-22T09:36:00Z</time></trkpt><trkpt lat="40.01973970401417" lon="9.678383288058432"><ele>407.0</ele><time>2026-03-22T09:36:01Z</time></trkpt><trkpt lat="40.01981304535338" lon="9.678215469061643"><ele>407.0</ele><time>2026-03-22T09:36:02Z</time></trkpt><trkpt lat="40.01989161534884" lon="9.678035419930863"><ele>407.0</ele><time>2026-03-22T09:36:03Z</time></trkpt><trkpt lat="40.01996004485324" lon="9.677895642789355"><ele>407.0</ele><time>2026-03-22T09:36:04Z</time></trkpt><trkpt lat="40.020052562028845" lon="9.677779160418018"><ele>407.0</ele><time>2026-03-22T09:36:05Z</time></trkpt><trkpt lat="40.02017762462937" lon="9.677712106385306"><ele>404.5</ele><time>2026-03-22T09:36:06Z</time></trkpt><trkpt lat="40.02027292651662" lon="9.677596843841574"><ele>402.0</ele><time>2026-03-22T09:36:07Z</time></trkpt><trkpt lat="40.02031435008339" lon="9.677421822836836"><ele>399.5</ele><time>2026-03-22T09:36:08Z</time></trkpt><trkpt lat="40.02034096804065" lon="9.67723442849392"><ele>397.0</ele><time>2026-03-22T09:36:09Z</time></trkpt><trkpt lat="40.02036981975304" lon="9.677055847369257"><ele>394.0</ele><time>2026-03-22T09:36:10Z</time></trkpt><trkpt lat="40.02036117074136" lon="9.676898831425301"><ele>391.0</ele><time>2026-03-22T09:36:11Z</time></trkpt><trkpt lat="40.02038266390122" lon="9.676761586730139"><ele>388.0</ele><time>2026-03-22T09:36:12Z</time></trkpt><trkpt lat="40.02045018951673" lon="9.676664349759514"><ele>385.0</ele><time>2026-03-22T09:36:13Z</time></trkpt><trkpt lat="40.02050123775079" lon="9.676533405546182"><ele>382.0</ele><time>2026-03-22T09:36:14Z</time></trkpt><trkpt lat="40.02053252857024" lon="9.67638561631219"><ele>382.0</ele><time>2026-03-22T09:36:15Z</time></trkpt><trkpt lat="40.02056106229749" lon="9.676239018561285"><ele>382.0</ele><time>2026-03-22T09:36:16Z</time></trkpt><trkpt lat="40.020592318071" lon="9.676081995532625"><ele>382.0</ele><time>2026-03-22T09:36:17Z</time></trkpt><trkpt lat="40.02062590191911" lon="9.675907887194386"><ele>382.0</ele><time>2026-03-22T09:36:18Z</time></trkpt><trkpt lat="40.02065652644501" lon="9.675750277950787"><ele>381.0</ele><time>2026-03-22T09:36:19Z</time></trkpt><trkpt lat="40.02068789279793" lon="9.675588679945916"><ele>380.0</ele><time>2026-03-22T09:36:20Z</time></trkpt><trkpt lat="40.02072455530885" lon="9.675404191969362"><ele>379.0</ele><time>2026-03-22T09:36:21Z</time></trkpt><trkpt lat="40.02076161089661" lon="9.675225439237495"><ele>378.0</ele><time>2026-03-22T09:36:22Z</time></trkpt><trkpt lat="40.020814793337244" lon="9.675048885882614"><ele>384.0</ele><time>2026-03-22T09:36:23Z</time></trkpt><trkpt lat="40.02087932795396" lon="9.67487411478075"><ele>390.0</ele><time>2026-03-22T09:36:24Z</time></trkpt><trkpt lat="40.02096531983244" lon="9.674736757797293"><ele>396.0</ele><time>2026-03-22T09:36:25Z</time></trkpt><trkpt lat="40.02104733157245" lon="9.67457179485557"><ele>402.0</ele><time>2026-03-22T09:36:26Z</time></trkpt><trkpt lat="40.02114269607721" lon="9.674413532285978"><ele>402.0</ele><time>2026-03-22T09:36:26.999Z</time></trkpt><trkpt lat="40.021244663185456" lon="9.67426935971415"><ele>402.0</ele><time>2026-03-22T09:36:27.999Z</time></trkpt><trkpt lat="40.02135572958295" lon="9.674128891434997"><ele>402.0</ele><time>2026-03-22T09:36:28.999Z</time></trkpt><trkpt lat="40.0214554745308" lon="9.674000973602901"><ele>402.0</ele><time>2026-03-22T09:36:29.999Z</time></trkpt><trkpt lat="40.021547912464776" lon="9.673880811508923"><ele>402.0</ele><time>2026-03-22T09:36:30.999Z</time></trkpt><trkpt lat="40.02164488713701" lon="9.673747715061488"><ele>402.0</ele><time>2026-03-22T09:36:31.999Z</time></trkpt><trkpt lat="40.02175672345976" lon="9.673641372757803"><ele>402.0</ele><time>2026-03-22T09:36:32.999Z</time></trkpt><trkpt lat="40.02186217778361" lon="9.673510083094607"><ele>402.0</ele><time>2026-03-22T09:36:33.999Z</time></trkpt><trkpt lat="40.02193648150166" lon="9.673357325623481"><ele>403.25</ele><time>2026-03-22T09:36:34.999Z</time></trkpt><trkpt lat="40.02201611869686" lon="9.673201135608693"><ele>404.5</ele><time>2026-03-22T09:36:35.999Z</time></trkpt><trkpt lat="40.02209267161905" lon="9.673053212866478"><ele>405.75</ele><time>2026-03-22T09:36:36.999Z</time></trkpt><trkpt lat="40.022202760813215" lon="9.672926972558153"><ele>407.0</ele><time>2026-03-22T09:36:37.999Z</time></trkpt><trkpt lat="40.022314577493184" lon="9.672805018633717"><ele>411.75</ele><time>2026-03-22T09:36:38.999Z</time></trkpt><trkpt lat="40.02242199953163" lon="9.672697340098201"><ele>416.5</ele><time>2026-03-22T09:36:39.999Z</time></trkpt><trkpt lat="40.022533398558906" lon="9.67258349578591"><ele>421.25</ele><time>2026-03-22T09:36:40.999Z</time></trkpt><trkpt lat="40.02264694531274" lon="9.672468507024094"><ele>426.0</ele><time>2026-03-22T09:36:41.999Z</time></trkpt><trkpt lat="40.02276039556579" lon="9.6723498824397"><ele>426.0</ele><time>2026-03-22T09:36:42.999Z</time></trkpt><trkpt lat="40.02286449487225" lon="9.672212569835912"><ele>426.0</ele><time>2026-03-22T09:36:43.999Z</time></trkpt><trkpt lat="40.02294490539756" lon="9.672047821858463"><ele>426.0</ele><time>2026-03-22T09:36:44.999Z</time></trkpt><trkpt lat="40.023027946155445" lon="9.671878694230516"><ele>430.66666666666663</ele><time>2026-03-22T09:36:45.999Z</time></trkpt><trkpt lat="40.02311235762121" lon="9.671709466951599"><ele>435.3333333333333</ele><time>2026-03-22T09:36:46.999Z</time></trkpt><trkpt lat="40.02321148226913" lon="9.671562229181596"><ele>440.0</ele><time>2026-03-22T09:36:47.999Z</time></trkpt><trkpt lat="40.02333160585624" lon="9.671426725686644"><ele>440.0</ele><time>2026-03-22T09:36:48.999Z</time></trkpt><trkpt lat="40.02345378075774" lon="9.671293543321347"><ele>440.0</ele><time>2026-03-22T09:36:49.999Z</time></trkpt><trkpt lat="40.02357524915858" lon="9.671157894663748"><ele>440.0</ele><time>2026-03-22T09:36:50.999Z</time></trkpt><trkpt lat="40.0237034228009" lon="9.671035467513525"><ele>431.0</ele><time>2026-03-22T09:36:51.999Z</time></trkpt><trkpt lat="40.02383663584487" lon="9.670937376120733"><ele>422.0</ele><time>2026-03-22T09:36:52.999Z</time></trkpt><trkpt lat="40.02398547743361" lon="9.670877775878974"><ele>413.0</ele><time>2026-03-22T09:36:53.999Z</time></trkpt><trkpt lat="40.02413606294907" lon="9.670861262323934"><ele>420.66666666666663</ele><time>2026-03-22T09:36:54.999Z</time></trkpt><trkpt lat="40.02429498830419" lon="9.670858621833041"><ele>428.33333333333337</ele><time>2026-03-22T09:36:55.999Z</time></trkpt><trkpt lat="40.024450936766634" lon="9.670859992610495"><ele>436.0</ele><time>2026-03-22T09:36:56.999Z</time></trkpt><trkpt lat="40.024595742167854" lon="9.670799506405507"><ele>436.0</ele><time>2026-03-22T09:36:57.999Z</time></trkpt><trkpt lat="40.02473161212984" lon="9.670703893674597"><ele>436.0</ele><time>2026-03-22T09:36:58.999Z</time></trkpt><trkpt lat="40.02484792576395" lon="9.670587947148114"><ele>436.0</ele><time>2026-03-22T09:36:59.999Z</time></trkpt><trkpt lat="40.02493518636707" lon="9.670423183867463"><ele>437.0</ele><time>2026-03-22T09:37:00.999Z</time></trkpt><trkpt lat="40.02501358746378" lon="9.670234651974035"><ele>438.0</ele><time>2026-03-22T09:37:01.999Z</time></trkpt><trkpt lat="40.02509865732418" lon="9.670039498335681"><ele>439.0</ele><time>2026-03-22T09:37:02.999Z</time></trkpt><trkpt lat="40.025185055391745" lon="9.66988203666554"><ele>439.0</ele><time>2026-03-22T09:37:03.999Z</time></trkpt><trkpt lat="40.0253049220154" lon="9.669765180107932"><ele>439.0</ele><time>2026-03-22T09:37:04.999Z</time></trkpt><trkpt lat="40.02543822291454" lon="9.669658370482074"><ele>439.0</ele><time>2026-03-22T09:37:05.999Z</time></trkpt><trkpt lat="40.02556583408697" lon="9.669578882113465"><ele>439.0</ele><time>2026-03-22T09:37:06.999Z</time></trkpt><trkpt lat="40.02568239126025" lon="9.669537644343615"><ele>439.0</ele><time>2026-03-22T09:37:07.999Z</time></trkpt><trkpt lat="40.02579527903612" lon="9.669504197358082"><ele>439.0</ele><time>2026-03-22T09:37:08.999Z</time></trkpt><trkpt lat="40.025888385731776" lon="9.669428517041768"><ele>439.0</ele><time>2026-03-22T09:37:09.999Z</time></trkpt><trkpt lat="40.025971616486956" lon="9.669363341936341"><ele>439.0</ele><time>2026-03-22T09:37:10.999Z</time></trkpt><trkpt lat="40.02603737949267" lon="9.669277410148789"><ele>439.0</ele><time>2026-03-22T09:37:11.999Z</time></trkpt><trkpt lat="40.02610201809864" lon="9.669208879806819"><ele>440.33333333333337</ele><time>2026-03-22T09:37:12.999Z</time></trkpt><trkpt lat="40.026131060518935" lon="9.66911534376477"><ele>441.6666666666667</ele><time>2026-03-22T09:37:13.999Z</time></trkpt><trkpt lat="40.02618590270288" lon="9.669038043736885"><ele>443.0</ele><time>2026-03-22T09:37:14.999Z</time></trkpt><trkpt lat="40.026207400120455" lon="9.668921051810173"><ele>444.33333333333337</ele><time>2026-03-22T09:37:15.999Z</time></trkpt><trkpt lat="40.026252526517645" lon="9.668816232899797"><ele>445.6666666666667</ele><time>2026-03-22T09:37:16.999Z</time></trkpt><trkpt lat="40.02630589116352" lon="9.668712783519611"><ele>447.0</ele><time>2026-03-22T09:37:17.999Z</time></trkpt><trkpt lat="40.026362726775034" lon="9.668614859401684"><ele>449.20000000000005</ele><time>2026-03-22T09:37:18.999Z</time></trkpt><trkpt lat="40.026420714666386" lon="9.668505035370558"><ele>451.40000000000003</ele><time>2026-03-22T09:37:19.999Z</time></trkpt><trkpt lat="40.02648586384459" lon="9.668393756858984"><ele>453.59999999999997</ele><time>2026-03-22T09:37:20.999Z</time></trkpt><trkpt lat="40.02657472396829" lon="9.668301697573801"><ele>455.79999999999995</ele><time>2026-03-22T09:37:21.999Z</time></trkpt><trkpt lat="40.02666333749448" lon="9.668201832319946"><ele>458.0</ele><time>2026-03-22T09:37:22.999Z</time></trkpt><trkpt lat="40.02674793331646" lon="9.668093579343383"><ele>458.0</ele><time>2026-03-22T09:37:23.999Z</time></trkpt><trkpt lat="40.02683599551363" lon="9.667976396261302"><ele>458.0</ele><time>2026-03-22T09:37:24.999Z</time></trkpt><trkpt lat="40.026916029834155" lon="9.667846572582"><ele>458.0</ele><time>2026-03-22T09:37:25.999Z</time></trkpt><trkpt lat="40.026987441254164" lon="9.66772747223123"><ele>458.0</ele><time>2026-03-22T09:37:26.999Z</time></trkpt><trkpt lat="40.02705591309608" lon="9.667609287506169"><ele>454.4</ele><time>2026-03-22T09:37:27.999Z</time></trkpt><trkpt lat="40.027134872781296" lon="9.667511289860258"><ele>450.79999999999995</ele><time>2026-03-22T09:37:28.999Z</time></trkpt><trkpt lat="40.02722004546079" lon="9.667422808660906"><ele>447.2</ele><time>2026-03-22T09:37:29.999Z</time></trkpt><trkpt lat="40.02730233472001" lon="9.667333419259872"><ele>443.6</ele><time>2026-03-22T09:37:31Z</time></trkpt><trkpt lat="40.02738726453295" lon="9.667230939437701"><ele>440.0</ele><time>2026-03-22T09:37:32Z</time></trkpt><trkpt lat="40.02747114774925" lon="9.66712641303645"><ele>440.8</ele><time>2026-03-22T09:37:33Z</time></trkpt><trkpt lat="40.027549814414456" lon="9.66703152122046"><ele>441.6</ele><time>2026-03-22T09:37:34Z</time></trkpt><trkpt lat="40.02762877849271" lon="9.666930812524052"><ele>442.4</ele><time>2026-03-22T09:37:35Z</time></trkpt><trkpt lat="40.027732831632235" lon="9.666915722562692"><ele>443.2</ele><time>2026-03-22T09:37:36Z</time></trkpt><trkpt lat="40.027842212083435" lon="9.66688815355639"><ele>444.0</ele><time>2026-03-22T09:37:37Z</time></trkpt><trkpt lat="40.02795395056502" lon="9.666856425436775"><ele>444.0</ele><time>2026-03-22T09:37:38Z</time></trkpt><trkpt lat="40.02806577141525" lon="9.666830347486396"><ele>444.0</ele><time>2026-03-22T09:37:39Z</time></trkpt><trkpt lat="40.028157044018975" lon="9.666813372571283"><ele>444.0</ele><time>2026-03-22T09:37:40Z</time></trkpt><trkpt lat="40.028288226174254" lon="9.666769011903416"><ele>444.0</ele><time>2026-03-22T09:37:41Z</time></trkpt><trkpt lat="40.02838361772375" lon="9.666727110907171"><ele>444.0</ele><time>2026-03-22T09:37:42Z</time></trkpt><trkpt lat="40.02850014599807" lon="9.666693023079544"><ele>450.0</ele><time>2026-03-22T09:37:43Z</time></trkpt><trkpt lat="40.028608475990566" lon="9.666624096695054"><ele>456.0</ele><time>2026-03-22T09:37:44Z</time></trkpt><trkpt lat="40.028693059160545" lon="9.666550748623033"><ele>462.0</ele><time>2026-03-22T09:37:45Z</time></trkpt><trkpt lat="40.02877714252582" lon="9.66642652949944"><ele>468.0</ele><time>2026-03-22T09:37:46Z</time></trkpt><trkpt lat="40.02885813139494" lon="9.666311826563064"><ele>468.0</ele><time>2026-03-22T09:37:47Z</time></trkpt><trkpt lat="40.02894563621536" lon="9.666215898655722"><ele>467.99999999999994</ele><time>2026-03-22T09:37:48Z</time></trkpt><trkpt lat="40.02903435321027" lon="9.666145339444329"><ele>467.99999999999994</ele><time>2026-03-22T09:37:49Z</time></trkpt><trkpt lat="40.029125978118614" lon="9.666087261758834"><ele>468.0</ele><time>2026-03-22T09:37:50Z</time></trkpt><trkpt lat="40.02922677553609" lon="9.666018766499151"><ele>468.0</ele><time>2026-03-22T09:37:51Z</time></trkpt><trkpt lat="40.02931831593585" lon="9.665948305692869"><ele>469.25</ele><time>2026-03-22T09:37:52Z</time></trkpt><trkpt lat="40.02940478237077" lon="9.665840136032905"><ele>470.5</ele><time>2026-03-22T09:37:53Z</time></trkpt><trkpt lat="40.02948654648693" lon="9.665732084843938"><ele>471.75</ele><time>2026-03-22T09:37:54Z</time></trkpt><trkpt lat="40.02955681279402" lon="9.665599099310336"><ele>473.0</ele><time>2026-03-22T09:37:55Z</time></trkpt><trkpt lat="40.02963702403958" lon="9.665499542083493"><ele>473.0</ele><time>2026-03-22T09:37:56Z</time></trkpt><trkpt lat="40.02970309696963" lon="9.66537819162895"><ele>473.0</ele><time>2026-03-22T09:37:57Z</time></trkpt><trkpt lat="40.02976021490105" lon="9.665242894318023"><ele>473.0</ele><time>2026-03-22T09:37:58Z</time></trkpt><trkpt lat="40.02982642536082" lon="9.665115115805834"><ele>473.0</ele><time>2026-03-22T09:37:59Z</time></trkpt><trkpt lat="40.02989284203501" lon="9.665000432376981"><ele>474.79999999999995</ele><time>2026-03-22T09:38:00Z</time></trkpt><trkpt lat="40.02995695719684" lon="9.664887639177309"><ele>476.59999999999997</ele><time>2026-03-22T09:38:01Z</time></trkpt><trkpt lat="40.030030046526996" lon="9.664793083647098"><ele>478.40000000000003</ele><time>2026-03-22T09:38:02Z</time></trkpt><trkpt lat="40.030115660505544" lon="9.664733455962171"><ele>480.20000000000005</ele><time>2026-03-22T09:38:03Z</time></trkpt><trkpt lat="40.03018284511106" lon="9.664637181234038"><ele>482.0</ele><time>2026-03-22T09:38:04Z</time></trkpt><trkpt lat="40.030280543482625" lon="9.66457367500314"><ele>482.0</ele><time>2026-03-22T09:38:05Z</time></trkpt><trkpt lat="40.03037495846264" lon="9.664498139620184"><ele>482.00000000000006</ele><time>2026-03-22T09:38:06Z</time></trkpt><trkpt lat="40.03047026339562" lon="9.664431937067675"><ele>482.00000000000006</ele><time>2026-03-22T09:38:07Z</time></trkpt><trkpt lat="40.03056564943432" lon="9.664368722143532"><ele>482.0</ele><time>2026-03-22T09:38:08Z</time></trkpt><trkpt lat="40.03065601311951" lon="9.664318821053099"><ele>482.0</ele><time>2026-03-22T09:38:09Z</time></trkpt><trkpt lat="40.030742762987636" lon="9.664283589844578"><ele>481.8</ele><time>2026-03-22T09:38:10Z</time></trkpt><trkpt lat="40.03085701250194" lon="9.664300799568732"><ele>481.6</ele><time>2026-03-22T09:38:11Z</time></trkpt><trkpt lat="40.03095079671086" lon="9.66425242604415"><ele>481.40000000000003</ele><time>2026-03-22T09:38:12Z</time></trkpt><trkpt lat="40.03103240006547" lon="9.664202599361673"><ele>481.20000000000005</ele><time>2026-03-22T09:38:13Z</time></trkpt><trkpt lat="40.031111959760025" lon="9.66410220455425"><ele>481.0</ele><time>2026-03-22T09:38:14Z</time></trkpt><trkpt lat="40.03119405941319" lon="9.66400641926729"><ele>481.0</ele><time>2026-03-22T09:38:15Z</time></trkpt><trkpt lat="40.03123847056479" lon="9.663892939732772"><ele>481.0</ele><time>2026-03-22T09:38:16Z</time></trkpt><trkpt lat="40.03130741008597" lon="9.663788446745098"><ele>481.0</ele><time>2026-03-22T09:38:17Z</time></trkpt><trkpt lat="40.03138196773317" lon="9.663693957432528"><ele>481.0</ele><time>2026-03-22T09:38:18Z</time></trkpt><trkpt lat="40.03144167968799" lon="9.663600529677753"><ele>481.0</ele><time>2026-03-22T09:38:19Z</time></trkpt><trkpt lat="40.03149437548632" lon="9.66351329875871"><ele>481.20000000000005</ele><time>2026-03-22T09:38:20Z</time></trkpt><trkpt lat="40.03154374388203" lon="9.663426681303385"><ele>481.40000000000003</ele><time>2026-03-22T09:38:21Z</time></trkpt><trkpt lat="40.031635843746244" lon="9.663451807145437"><ele>481.6</ele><time>2026-03-22T09:38:22Z</time></trkpt><trkpt lat="40.0317153187353" lon="9.663389492108026"><ele>481.8</ele><time>2026-03-22T09:38:23Z</time></trkpt><trkpt lat="40.03179913169232" lon="9.663325097261156"><ele>482.0</ele><time>2026-03-22T09:38:24Z</time></trkpt><trkpt lat="40.03187302284927" lon="9.663267532129995"><ele>482.0</ele><time>2026-03-22T09:38:25Z</time></trkpt><trkpt lat="40.03195548542089" lon="9.663200922531775"><ele>482.00000000000006</ele><time>2026-03-22T09:38:26Z</time></trkpt><trkpt lat="40.032034871606896" lon="9.663146366359165"><ele>482.00000000000006</ele><time>2026-03-22T09:38:27Z</time></trkpt><trkpt lat="40.03209773639333" lon="9.662967113152284"><ele>482.0</ele><time>2026-03-22T09:38:28Z</time></trkpt><trkpt lat="40.032175210950456" lon="9.662867720705915"><ele>482.0</ele><time>2026-03-22T09:38:29Z</time></trkpt><trkpt lat="40.0322372668156" lon="9.662756486929274"><ele>482.49999999999994</ele><time>2026-03-22T09:38:30Z</time></trkpt><trkpt lat="40.032305415779554" lon="9.662668467363464"><ele>483.0</ele><time>2026-03-22T09:38:31Z</time></trkpt><trkpt lat="40.0323677828458" lon="9.66259050135234"><ele>483.5</ele><time>2026-03-22T09:38:32Z</time></trkpt><trkpt lat="40.03242367354975" lon="9.662519169978225"><ele>484.0</ele><time>2026-03-22T09:38:32.999Z</time></trkpt><trkpt lat="40.03248622368607" lon="9.662448904456864"><ele>484.49999999999994</ele><time>2026-03-22T09:38:33.999Z</time></trkpt><trkpt lat="40.03255502768674" lon="9.662356949685083"><ele>485.0</ele><time>2026-03-22T09:38:34.999Z</time></trkpt><trkpt lat="40.032617818122965" lon="9.662247639203349"><ele>485.0</ele><time>2026-03-22T09:38:35.999Z</time></trkpt><trkpt lat="40.032675764627356" lon="9.662152294520517"><ele>485.0</ele><time>2026-03-22T09:38:36.999Z</time></trkpt><trkpt lat="40.03273367443228" lon="9.662049405503227"><ele>485.0</ele><time>2026-03-22T09:38:37.999Z</time></trkpt><trkpt lat="40.032791429135074" lon="9.661943888377174"><ele>485.0</ele><time>2026-03-22T09:38:38.999Z</time></trkpt><trkpt lat="40.03287624751021" lon="9.661847651508017"><ele>485.0</ele><time>2026-03-22T09:38:39.999Z</time></trkpt><trkpt lat="40.03294025234774" lon="9.661724619477459"><ele>485.6</ele><time>2026-03-22T09:38:40.999Z</time></trkpt><trkpt lat="40.033034579543944" lon="9.661633414591202"><ele>486.2</ele><time>2026-03-22T09:38:41.999Z</time></trkpt><trkpt lat="40.03312456769008" lon="9.661553278883712"><ele>486.79999999999995</ele><time>2026-03-22T09:38:42.999Z</time></trkpt><trkpt lat="40.033209117100775" lon="9.661496720838041"><ele>487.4</ele><time>2026-03-22T09:38:43.999Z</time></trkpt><trkpt lat="40.03328174087821" lon="9.661441935853537"><ele>488.0</ele><time>2026-03-22T09:38:44.999Z</time></trkpt><trkpt lat="40.03334573013018" lon="9.661400472392147"><ele>488.0</ele><time>2026-03-22T09:38:45.999Z</time></trkpt><trkpt lat="40.03344712504315" lon="9.661358944156124"><ele>488.0</ele><time>2026-03-22T09:38:47.999Z</time></trkpt></trkseg><trkseg><trkpt lat="40.045074305233165" lon="9.652764416375092"><ele>491.0</ele><time>2026-03-22T09:41:54Z</time></trkpt><trkpt lat="40.045137982796035" lon="9.652631514159086"><ele>491.0</ele><time>2026-03-22T09:41:55Z</time></trkpt><trkpt lat="40.04520165131097" lon="9.652491774183277"><ele>491.0</ele><time>2026-03-22T09:41:56Z</time></trkpt><trkpt lat="40.04526563115685" lon="9.652341860595026"><ele>491.0</ele><time>2026-03-22T09:41:57Z</time></trkpt><trkpt lat="40.04533063886498" lon="9.652175238123158"><ele>491.0</ele><time>2026-03-22T09:41:58Z</time></trkpt><trkpt lat="40.04538514107668" lon="9.651994000212284"><ele>491.0</ele><time>2026-03-22T09:41:59Z</time></trkpt><trkpt lat="40.04546309444746" lon="9.651828120205193"><ele>491.0</ele><time>2026-03-22T09:42:00Z</time></trkpt><trkpt lat="40.045536944247615" lon="9.651643358880987"><ele>485.3333333333333</ele><time>2026-03-22T09:42:01Z</time></trkpt><trkpt lat="40.04562306442432" lon="9.651470765095873"><ele>479.66666666666663</ele><time>2026-03-22T09:42:02Z</time></trkpt><trkpt lat="40.04572296952476" lon="9.651302064217942"><ele>474.0</ele><time>2026-03-22T09:42:03Z</time></trkpt><trkpt lat="40.04584123808108" lon="9.651156716922307"><ele>480.66666666666663</ele><time>2026-03-22T09:42:04Z</time></trkpt><trkpt lat="40.04595104394757" lon="9.650994295261151"><ele>487.3333333333333</ele><time>2026-03-22T09:42:05Z</time></trkpt><trkpt lat="40.04606028193794" lon="9.650832713586777"><ele>494.0</ele><time>2026-03-22T09:42:06Z</time></trkpt><trkpt lat="40.04615801351774" lon="9.650659591858387"><ele>494.0</ele><time>2026-03-22T09:42:07Z</time></trkpt><trkpt lat="40.0462668176321" lon="9.650506441273256"><ele>494.0</ele><time>2026-03-22T09:42:08Z</time></trkpt><trkpt lat="40.04638963375872" lon="9.65036573373118"><ele>494.0</ele><time>2026-03-22T09:42:09Z</time></trkpt><trkpt lat="40.04650112954646" lon="9.650205120558057"><ele>487.3333333333333</ele><time>2026-03-22T09:42:10Z</time></trkpt><trkpt lat="40.04661058055778" lon="9.650046472068745"><ele>480.66666666666663</ele><time>2026-03-22T09:42:11Z</time></trkpt><trkpt lat="40.04672141291185" lon="9.649881522338273"><ele>474.0</ele><time>2026-03-22T09:42:12Z</time></trkpt><trkpt lat="40.04682868666301" lon="9.649721247686973"><ele>478.0</ele><time>2026-03-22T09:42:13Z</time></trkpt><trkpt lat="40.04693669103091" lon="9.649568446222911"><ele>482.0</ele><time>2026-03-22T09:42:14Z</time></trkpt><trkpt lat="40.04705619522755" lon="9.649427529978595"><ele>486.0</ele><time>2026-03-22T09:42:15Z</time></trkpt><trkpt lat="40.04717400641547" lon="9.649290897705654"><ele>486.0</ele><time>2026-03-22T09:42:16Z</time></trkpt><trkpt lat="40.04730400221458" lon="9.649189283635314"><ele>486.0</ele><time>2026-03-22T09:42:17Z</time></trkpt><trkpt lat="40.04744334319775" lon="9.649108675052592"><ele>486.0</ele><time>2026-03-22T09:42:18Z</time></trkpt><trkpt lat="40.04757906595486" lon="9.649020333804124"><ele>488.33333333333337</ele><time>2026-03-22T09:42:19Z</time></trkpt><trkpt lat="40.047695512545026" lon="9.648885297878788"><ele>490.6666666666667</ele><time>2026-03-22T09:42:20Z</time></trkpt><trkpt lat="40.04777776322341" lon="9.648707991586512"><ele>493.0</ele><time>2026-03-22T09:42:21Z</time></trkpt><trkpt lat="40.04785089761758" lon="9.648524097930336"><ele>493.0</ele><time>2026-03-22T09:42:22Z</time></trkpt><trkpt lat="40.0479032405185" lon="9.648317704483341"><ele>493.0</ele><time>2026-03-22T09:42:23Z</time></trkpt><trkpt lat="40.047942880028856" lon="9.648115585755011"><ele>493.0</ele><time>2026-03-22T09:42:24Z</time></trkpt><trkpt lat="40.047982800139984" lon="9.647914570554294"><ele>487.0</ele><time>2026-03-22T09:42:25Z</time></trkpt><trkpt lat="40.048023968148094" lon="9.64771027716528"><ele>481.0</ele><time>2026-03-22T09:42:26Z</time></trkpt><trkpt lat="40.04807054969649" lon="9.6475102129976"><ele>475.0</ele><time>2026-03-22T09:42:27Z</time></trkpt><trkpt lat="40.04814288927769" lon="9.647338971898042"><ele>475.0</ele><time>2026-03-22T09:42:28Z</time></trkpt><trkpt lat="40.04823778894172" lon="9.647171079104492"><ele>475.0</ele><time>2026-03-22T09:42:29Z</time></trkpt><trkpt lat="40.048332131329296" lon="9.647002745616765"><ele>475.0</ele><time>2026-03-22T09:42:30Z</time></trkpt><trkpt lat="40.04842310632791" lon="9.646829754946225"><ele>489.0</ele><time>2026-03-22T09:42:31Z</time></trkpt><trkpt lat="40.048514481632765" lon="9.646655839636121"><ele>503.0</ele><time>2026-03-22T09:42:32Z</time></trkpt><trkpt lat="40.0486034186721" lon="9.646483323209678"><ele>517.0</ele><time>2026-03-22T09:42:33Z</time></trkpt><trkpt lat="40.04869453722448" lon="9.646307514696241"><ele>517.0</ele><time>2026-03-22T09:42:34Z</time></trkpt><trkpt lat="40.04878884386964" lon="9.646131298747585"><ele>517.0</ele><time>2026-03-22T09:42:35Z</time></trkpt><trkpt lat="40.04888285845928" lon="9.645955822794955"><ele>517.0</ele><time>2026-03-22T09:42:36Z</time></trkpt><trkpt lat="40.04897880061786" lon="9.645781943358829"><ele>516.3333333333334</ele><time>2026-03-22T09:42:37Z</time></trkpt><trkpt lat="40.04907734934835" lon="9.64560546035084"><ele>515.6666666666666</ele><time>2026-03-22T09:42:38Z</time></trkpt><trkpt lat="40.04917690909815" lon="9.645429942335825"><ele>515.0</ele><time>2026-03-22T09:42:39Z</time></trkpt><trkpt lat="40.04928101893235" lon="9.645254650370191"><ele>515.0</ele><time>2026-03-22T09:42:40Z</time></trkpt><trkpt lat="40.049386870731574" lon="9.645080786244117"><ele>515.0</ele><time>2026-03-22T09:42:41Z</time></trkpt><trkpt lat="40.04949121750036" lon="9.64490742070405"><ele>515.0</ele><time>2026-03-22T09:42:42Z</time></trkpt><trkpt lat="40.04959193659354" lon="9.644727072058982"><ele>515.0</ele><time>2026-03-22T09:42:43Z</time></trkpt><trkpt lat="40.049687589768524" lon="9.644547294193965"><ele>515.0</ele><time>2026-03-22T09:42:44Z</time></trkpt><trkpt lat="40.0497825097536" lon="9.644369653120634"><ele>515.0</ele><time>2026-03-22T09:42:45Z</time></trkpt><trkpt lat="40.04987951216671" lon="9.644196062366829"><ele>523.6666666666666</ele><time>2026-03-22T09:42:46Z</time></trkpt><trkpt lat="40.04998148399767" lon="9.6440265886512"><ele>532.3333333333334</ele><time>2026-03-22T09:42:47Z</time></trkpt><trkpt lat="40.05009173976595" lon="9.643874967759205"><ele>541.0</ele><time>2026-03-22T09:42:48Z</time></trkpt><trkpt lat="40.0501936559812" lon="9.64370427230828"><ele>535.0</ele><time>2026-03-22T09:42:49Z</time></trkpt><trkpt lat="40.05026145532049" lon="9.643505953626992"><ele>529.0</ele><time>2026-03-22T09:42:50Z</time></trkpt><trkpt lat="40.05031467291004" lon="9.643317778458638"><ele>523.0</ele><time>2026-03-22T09:42:50.999Z</time></trkpt><trkpt lat="40.050360060220534" lon="9.64314281542404"><ele>523.0</ele><time>2026-03-22T09:42:51.999Z</time></trkpt><trkpt lat="40.050398178953714" lon="9.642988740093308"><ele>523.0</ele><time>2026-03-22T09:42:52.999Z</time></trkpt><trkpt lat="40.05043372870067" lon="9.642842330920937"><ele>523.0</ele><time>2026-03-22T09:42:53.999Z</time></trkpt><trkpt lat="40.05046711866709" lon="9.642712788209877"><ele>523.0</ele><time>2026-03-22T09:42:54.999Z</time></trkpt><trkpt lat="40.05050524583698" lon="9.642593325957652"><ele>523.0</ele><time>2026-03-22T09:42:55.999Z</time></trkpt><trkpt lat="40.050540710048566" lon="9.642483245763124"><ele>520.3333333333334</ele><time>2026-03-22T09:42:56.999Z</time></trkpt><trkpt lat="40.05057213450072" lon="9.64238330999431"><ele>517.6666666666667</ele><time>2026-03-22T09:42:57.999Z</time></trkpt><trkpt lat="40.050583276507375" lon="9.642281584326133"><ele>515.0</ele><time>2026-03-22T09:42:58.999Z</time></trkpt><trkpt lat="40.05059959332007" lon="9.642195027608432"><ele>512.3333333333334</ele><time>2026-03-22T09:42:59.999Z</time></trkpt><trkpt lat="40.05062402192281" lon="9.642116298297827"><ele>509.6666666666667</ele><time>2026-03-22T09:43:00.999Z</time></trkpt><trkpt lat="40.05063412365798" lon="9.641975606579832"><ele>507.0</ele><time>2026-03-22T09:43:02.999Z</time></trkpt><trkpt lat="40.05064062234375" lon="9.64183459047433"><ele>505.40000000000003</ele><time>2026-03-22T09:43:04.999Z</time></trkpt><trkpt lat="40.05064506020577" lon="9.641738292418813"><ele>503.80000000000007</ele><time>2026-03-22T09:43:05.999Z</time></trkpt><trkpt lat="40.0506509521488" lon="9.641623816453286"><ele>502.2</ele><time>2026-03-22T09:43:06.999Z</time></trkpt><trkpt lat="40.0506574767527" lon="9.641498320409031"><ele>500.6</ele><time>2026-03-22T09:43:07.999Z</time></trkpt><trkpt lat="40.05066534341696" lon="9.641347099316842"><ele>499.0</ele><time>2026-03-22T09:43:08.999Z</time></trkpt><trkpt lat="40.05067426240095" lon="9.641176076339507"><ele>497.5</ele><time>2026-03-22T09:43:09.999Z</time></trkpt><trkpt lat="40.05068381727832" lon="9.640992950086355"><ele>496.0</ele><time>2026-03-22T09:43:10.999Z</time></trkpt><trkpt lat="40.050682972002946" lon="9.64082944445616"><ele>494.5</ele><time>2026-03-22T09:43:11.999Z</time></trkpt><trkpt lat="40.05069738923675" lon="9.64064487738224"><ele>493.0</ele><time>2026-03-22T09:43:12.999Z</time></trkpt><trkpt lat="40.050706513687416" lon="9.640458225904778"><ele>492.6666666666667</ele><time>2026-03-22T09:43:13.999Z</time></trkpt><trkpt lat="40.05071867106048" lon="9.640262095067092"><ele>492.33333333333337</ele><time>2026-03-22T09:43:14.999Z</time></trkpt><trkpt lat="40.050738111136084" lon="9.640067168486377"><ele>492.0</ele><time>2026-03-22T09:43:15.999Z</time></trkpt><trkpt lat="40.05073377804241" lon="9.639865058931928"><ele>492.0</ele><time>2026-03-22T09:43:16.999Z</time></trkpt><trkpt lat="40.050741487359964" lon="9.63966703653747"><ele>492.0</ele><time>2026-03-22T09:43:17.999Z</time></trkpt><trkpt lat="40.05076115621796" lon="9.639471103725468"><ele>492.0</ele><time>2026-03-22T09:43:18.999Z</time></trkpt><trkpt lat="40.05080605436696" lon="9.639281902250575"><ele>508.66666666666663</ele><time>2026-03-22T09:43:19.999Z</time></trkpt><trkpt lat="40.0508805405402" lon="9.6390958117889"><ele>525.3333333333333</ele><time>2026-03-22T09:43:20.999Z</time></trkpt><trkpt lat="40.050949171455784" lon="9.638921283973302"><ele>542.0</ele><time>2026-03-22T09:43:21.999Z</time></trkpt><trkpt lat="40.0510136334547" lon="9.638739991141033"><ele>535.75</ele><time>2026-03-22T09:43:22.999Z</time></trkpt><trkpt lat="40.051075633828134" lon="9.638570506657542"><ele>529.5</ele><time>2026-03-22T09:43:23.999Z</time></trkpt><trkpt lat="40.05113715825618" lon="9.638393601166856"><ele>523.25</ele><time>2026-03-22T09:43:24.999Z</time></trkpt><trkpt lat="40.051202459565324" lon="9.638222070158307"><ele>517.0</ele><time>2026-03-22T09:43:25.999Z</time></trkpt><trkpt lat="40.05128893883185" lon="9.638054876256849"><ele>517.0</ele><time>2026-03-22T09:43:26.999Z</time></trkpt><trkpt lat="40.05140246684106" lon="9.637918949214761"><ele>517.0</ele><time>2026-03-22T09:43:27.999Z</time></trkpt><trkpt lat="40.051518477727036" lon="9.637803886258341"><ele>517.0</ele><time>2026-03-22T09:43:28.999Z</time></trkpt><trkpt lat="40.051610259673666" lon="9.637653325276606"><ele>517.0</ele><time>2026-03-22T09:43:29.999Z</time></trkpt><trkpt lat="40.05168681198298" lon="9.637480651437324"><ele>522.75</ele><time>2026-03-22T09:43:30.999Z</time></trkpt><trkpt lat="40.051730409597525" lon="9.637311033781105"><ele>528.5</ele><time>2026-03-22T09:43:31.999Z</time></trkpt><trkpt lat="40.05174769911521" lon="9.63710873171189"><ele>534.25</ele><time>2026-03-22T09:43:32.999Z</time></trkpt><trkpt lat="40.05177011856919" lon="9.636912369731178"><ele>540.0</ele><time>2026-03-22T09:43:33.999Z</time></trkpt><trkpt lat="40.051846118523756" lon="9.636729855103885"><ele>540.0</ele><time>2026-03-22T09:43:34.999Z</time></trkpt><trkpt lat="40.05191237099066" lon="9.6365354167373"><ele>540.0</ele><time>2026-03-22T09:43:35.999Z</time></trkpt><trkpt lat="40.05199318091084" lon="9.636391584037074"><ele>540.0</ele><time>2026-03-22T09:43:36.999Z</time></trkpt><trkpt lat="40.05207879565096" lon="9.636282940071323"><ele>540.0</ele><time>2026-03-22T09:43:37.999Z</time></trkpt><trkpt lat="40.05213972608094" lon="9.636160637478616"><ele>538.75</ele><time>2026-03-22T09:43:38.999Z</time></trkpt><trkpt lat="40.05214943106242" lon="9.636030862931149"><ele>537.5</ele><time>2026-03-22T09:43:39.999Z</time></trkpt><trkpt lat="40.05211266156627" lon="9.635895329856837"><ele>536.25</ele><time>2026-03-22T09:43:40.999Z</time></trkpt><trkpt lat="40.05202949014531" lon="9.635784532408938"><ele>535.0</ele><time>2026-03-22T09:43:41.999Z</time></trkpt><trkpt lat="40.05194775109288" lon="9.63566472312133"><ele>535.0</ele><time>2026-03-22T09:43:42.999Z</time></trkpt><trkpt lat="40.051890188854586" lon="9.63553131124967"><ele>535.0</ele><time>2026-03-22T09:43:43.999Z</time></trkpt><trkpt lat="40.0518614458932" lon="9.635391170194904"><ele>535.0</ele><time>2026-03-22T09:43:44.999Z</time></trkpt><trkpt lat="40.051888193549146" lon="9.635268958442074"><ele>535.0</ele><time>2026-03-22T09:43:45.999Z</time></trkpt><trkpt lat="40.05196455457299" lon="9.635188139687303"><ele>535.0</ele><time>2026-03-22T09:43:46.999Z</time></trkpt><trkpt lat="40.05206182872483" lon="9.635130508659788"><ele>535.6</ele><time>2026-03-22T09:43:47.999Z</time></trkpt><trkpt lat="40.05215697757322" lon="9.635062322475685"><ele>536.2</ele><time>2026-03-22T09:43:49Z</time></trkpt><trkpt lat="40.05219364525592" lon="9.634956917935959"><ele>536.8</ele><time>2026-03-22T09:43:50Z</time></trkpt><trkpt lat="40.052193414189226" lon="9.634817867379425"><ele>537.4</ele><time>2026-03-22T09:43:51Z</time></trkpt><trkpt lat="40.05212272665207" lon="9.634676587732743"><ele>538.0</ele><time>2026-03-22T09:43:52Z</time></trkpt><trkpt lat="40.052082111285735" lon="9.634555541378951"><ele>541.0</ele><time>2026-03-22T09:43:53Z</time></trkpt><trkpt lat="40.05204654655629" lon="9.634429558370927"><ele>544.0</ele><time>2026-03-22T09:43:54Z</time></trkpt><trkpt lat="40.05197976618794" lon="9.634264386391923"><ele>547.0</ele><time>2026-03-22T09:43:55Z</time></trkpt><trkpt lat="40.0519390208296" lon="9.63407612901867"><ele>550.0</ele><time>2026-03-22T09:43:56Z</time></trkpt><trkpt lat="40.05191991363405" lon="9.63388253902755"><ele>550.0</ele><time>2026-03-22T09:43:57Z</time></trkpt><trkpt lat="40.05196136967702" lon="9.633683124846776"><ele>550.0</ele><time>2026-03-22T09:43:58Z</time></trkpt><trkpt lat="40.052003231466365" lon="9.633495521687218"><ele>550.0</ele><time>2026-03-22T09:43:59Z</time></trkpt><trkpt lat="40.052081095427994" lon="9.633293215784796"><ele>550.0</ele><time>2026-03-22T09:44:00Z</time></trkpt><trkpt lat="40.05216443477208" lon="9.633098639604496"><ele>550.0</ele><time>2026-03-22T09:44:01Z</time></trkpt><trkpt lat="40.052261373587555" lon="9.63293580510006"><ele>550.0</ele><time>2026-03-22T09:44:02Z</time></trkpt><trkpt lat="40.05238145512124" lon="9.632791374568402"><ele>554.0</ele><time>2026-03-22T09:44:03Z</time></trkpt><trkpt lat="40.052490296037085" lon="9.632651223457085"><ele>558.0</ele><time>2026-03-22T09:44:04Z</time></trkpt><trkpt lat="40.05260398337801" lon="9.632499316124726"><ele>562.0</ele><time>2026-03-22T09:44:05Z</time></trkpt><trkpt lat="40.05271645330739" lon="9.632352789394576"><ele>562.0</ele><time>2026-03-22T09:44:06Z</time></trkpt><trkpt lat="40.05282613389135" lon="9.632186024864637"><ele>562.0</ele><time>2026-03-22T09:44:07Z</time></trkpt><trkpt lat="40.0529286227335" lon="9.63202608503176"><ele>562.0</ele><time>2026-03-22T09:44:08Z</time></trkpt><trkpt lat="40.05301238143007" lon="9.631845217045585"><ele>553.0</ele><time>2026-03-22T09:44:09Z</time></trkpt><trkpt lat="40.05307708217626" lon="9.63165087341564"><ele>544.0</ele><time>2026-03-22T09:44:10Z</time></trkpt><trkpt lat="40.05314390739432" lon="9.631454976807825"><ele>535.0</ele><time>2026-03-22T09:44:11Z</time></trkpt><trkpt lat="40.05319262249418" lon="9.631262877146778"><ele>531.75</ele><time>2026-03-22T09:44:12Z</time></trkpt><trkpt lat="40.05324558052185" lon="9.631100023074563"><ele>528.5</ele><time>2026-03-22T09:44:13Z</time></trkpt><trkpt lat="40.05332314886456" lon="9.630958910375934"><ele>525.25</ele><time>2026-03-22T09:44:14Z</time></trkpt><trkpt lat="40.05341915533739" lon="9.630841258184242"><ele>522.0</ele><time>2026-03-22T09:44:15Z</time></trkpt><trkpt lat="40.05349512504528" lon="9.630712296157256"><ele>530.0</ele><time>2026-03-22T09:44:16Z</time></trkpt><trkpt lat="40.05353653848088" lon="9.63054525717241"><ele>538.0</ele><time>2026-03-22T09:44:17Z</time></trkpt><trkpt lat="40.053557761177444" lon="9.63036288566894"><ele>546.0</ele><time>2026-03-22T09:44:18Z</time></trkpt><trkpt lat="40.05357090418329" lon="9.63016943667887"><ele>554.0</ele><time>2026-03-22T09:44:19Z</time></trkpt><trkpt lat="40.05359285011356" lon="9.629989049439802"><ele>554.0</ele><time>2026-03-22T09:44:20Z</time></trkpt><trkpt lat="40.05364230192052" lon="9.62980962109458"><ele>554.0</ele><time>2026-03-22T09:44:21Z</time></trkpt><trkpt lat="40.05368349262216" lon="9.629630241573922"><ele>554.0</ele><time>2026-03-22T09:44:22Z</time></trkpt><trkpt lat="40.053721009827804" lon="9.629431457581777"><ele>554.0</ele><time>2026-03-22T09:44:23Z</time></trkpt><trkpt lat="40.05373680880903" lon="9.629238489377407"><ele>553.5</ele><time>2026-03-22T09:44:24Z</time></trkpt><trkpt lat="40.0537408335845" lon="9.629048270118881"><ele>553.0</ele><time>2026-03-22T09:44:25Z</time></trkpt><trkpt lat="40.053681468052815" lon="9.628858804263652"><ele>552.5</ele><time>2026-03-22T09:44:26Z</time></trkpt><trkpt lat="40.05364895818644" lon="9.628688873800844"><ele>552.0</ele><time>2026-03-22T09:44:27Z</time></trkpt><trkpt lat="40.053621250105664" lon="9.628542857253885"><ele>552.0</ele><time>2026-03-22T09:44:28Z</time></trkpt><trkpt lat="40.05363142375552" lon="9.628414827877332"><ele>552.0</ele><time>2026-03-22T09:44:29Z</time></trkpt><trkpt lat="40.05370414405033" lon="9.628294495904816"><ele>552.0</ele><time>2026-03-22T09:44:30Z</time></trkpt><trkpt lat="40.053808100319344" lon="9.628202047645349"><ele>552.0</ele><time>2026-03-22T09:44:31Z</time></trkpt><trkpt lat="40.05393615725254" lon="9.628150149648542"><ele>552.0</ele><time>2026-03-22T09:44:32Z</time></trkpt><trkpt lat="40.05404769670165" lon="9.628037495499813"><ele>552.0</ele><time>2026-03-22T09:44:33Z</time></trkpt><trkpt lat="40.05415253653476" lon="9.627898566545417"><ele>552.0</ele><time>2026-03-22T09:44:34Z</time></trkpt><trkpt lat="40.0542445114777" lon="9.627737044183833"><ele>552.0</ele><time>2026-03-22T09:44:35Z</time></trkpt><trkpt lat="40.05431055108151" lon="9.627571719401757"><ele>556.0</ele><time>2026-03-22T09:44:36Z</time></trkpt><trkpt lat="40.054360982135584" lon="9.627383034621326"><ele>560.0</ele><time>2026-03-22T09:44:37Z</time></trkpt><trkpt lat="40.054420884475476" lon="9.627204970869107"><ele>564.0</ele><time>2026-03-22T09:44:38Z</time></trkpt><trkpt lat="40.05443610595247" lon="9.627034158295313"><ele>568.0</ele><time>2026-03-22T09:44:39Z</time></trkpt><trkpt lat="40.05438889652396" lon="9.626874686617803"><ele>568.0</ele><time>2026-03-22T09:44:40Z</time></trkpt><trkpt lat="40.0543431187803" lon="9.6267231779671"><ele>568.0</ele><time>2026-03-22T09:44:41Z</time></trkpt><trkpt lat="40.05432109445783" lon="9.626561639715177"><ele>568.0</ele><time>2026-03-22T09:44:42Z</time></trkpt><trkpt lat="40.05433169317578" lon="9.626396951819284"><ele>568.0</ele><time>2026-03-22T09:44:43Z</time></trkpt><trkpt lat="40.05436727945252" lon="9.626244474211825"><ele>569.0</ele><time>2026-03-22T09:44:44Z</time></trkpt><trkpt lat="40.054398990570604" lon="9.626099582571111"><ele>570.0</ele><time>2026-03-22T09:44:45Z</time></trkpt><trkpt lat="40.054432186905466" lon="9.625980001585626"><ele>571.0</ele><time>2026-03-22T09:44:46Z</time></trkpt><trkpt lat="40.05445844736453" lon="9.625880126275495"><ele>572.0</ele><time>2026-03-22T09:44:47Z</time></trkpt><trkpt lat="40.05448458246879" lon="9.625791188006147"><ele>573.0</ele><time>2026-03-22T09:44:48Z</time></trkpt><trkpt lat="40.05450386646642" lon="9.625642513657665"><ele>573.0</ele><time>2026-03-22T09:44:50Z</time></trkpt><trkpt lat="40.05455932915429" lon="9.625569910802067"><ele>573.0</ele><time>2026-03-22T09:44:52Z</time></trkpt><trkpt lat="40.054581219327105" lon="9.625489255012473"><ele>573.0</ele><time>2026-03-22T09:44:53.999Z</time></trkpt><trkpt lat="40.05461523841012" lon="9.62539960478508"><ele>573.0</ele><time>2026-03-22T09:44:55.999Z</time></trkpt><trkpt lat="40.05465692009102" lon="9.62527732446901"><ele>573.0</ele><time>2026-03-22T09:44:58.999Z</time></trkpt><trkpt lat="40.05421116520348" lon="9.624789353552302"><ele>574.6</ele><time>2026-03-22T09:45:01.999Z</time></trkpt><trkpt lat="40.05417823616868" lon="9.624681667397256"><ele>576.1999999999999</ele><time>2026-03-22T09:45:02.999Z</time></trkpt><trkpt lat="40.05414374579319" lon="9.624567274351616"><ele>577.8</ele><time>2026-03-22T09:45:03.999Z</time></trkpt><trkpt lat="40.054100484906655" lon="9.624454107030758"><ele>579.4</ele><time>2026-03-22T09:45:04.999Z</time></trkpt><trkpt lat="40.05404084562716" lon="9.62435918389311"><ele>581.0</ele><time>2026-03-22T09:45:05.999Z</time></trkpt><trkpt lat="40.053963595150414" lon="9.624255701517717"><ele>578.1666666666666</ele><time>2026-03-22T09:45:06.999Z</time></trkpt><trkpt lat="40.053915075799" lon="9.624182383745072"><ele>575.3333333333333</ele><time>2026-03-22T09:45:07.999Z</time></trkpt><trkpt lat="40.05387384700482" lon="9.624104208062574"><ele>572.5</ele><time>2026-03-22T09:45:08.999Z</time></trkpt><trkpt lat="40.053821918316366" lon="9.624029534373166"><ele>569.6666666666666</ele><time>2026-03-22T09:45:09.999Z</time></trkpt><trkpt lat="40.053758699133205" lon="9.62395482580431"><ele>566.8333333333334</ele><time>2026-03-22T09:45:10.999Z</time></trkpt><trkpt lat="40.05369132624135" lon="9.623884713951625"><ele>564.0</ele><time>2026-03-22T09:45:11.999Z</time></trkpt><trkpt lat="40.053621555230286" lon="9.623800444015103"><ele>564.0</ele><time>2026-03-22T09:45:12.999Z</time></trkpt><trkpt lat="40.053538944438955" lon="9.623712944160168"><ele>564.0</ele><time>2026-03-22T09:45:13.999Z</time></trkpt><trkpt lat="40.053465474032144" lon="9.623631456147425"><ele>564.0</ele><time>2026-03-22T09:45:14.999Z</time></trkpt><trkpt lat="40.0533967218369" lon="9.623543136623354"><ele>564.0</ele><time>2026-03-22T09:45:15.999Z</time></trkpt><trkpt lat="40.05336070960729" lon="9.623456961923079"><ele>564.0</ele><time>2026-03-22T09:45:16.999Z</time></trkpt><trkpt lat="40.05335347754907" lon="9.623347962039404"><ele>566.2</ele><time>2026-03-22T09:45:18.999Z</time></trkpt><trkpt lat="40.05339552371479" lon="9.623236727808475"><ele>568.4</ele><time>2026-03-22T09:45:20.999Z</time></trkpt><trkpt lat="40.05351990653407" lon="9.623130531058628"><ele>570.6</ele><time>2026-03-22T09:45:22.999Z</time></trkpt><trkpt lat="40.05357466265658" lon="9.623082453488879"><ele>572.8</ele><time>2026-03-22T09:45:23.999Z</time></trkpt><trkpt lat="40.053662677533104" lon="9.622983110760261"><ele>575.0</ele><time>2026-03-22T09:45:25.999Z</time></trkpt><trkpt lat="40.05370999632597" lon="9.622895758137275"><ele>575.0</ele><time>2026-03-22T09:45:26.999Z</time></trkpt><trkpt lat="40.05375232649425" lon="9.622822872909996"><ele>575.0</ele><time>2026-03-22T09:45:27.999Z</time></trkpt><trkpt lat="40.053788858034245" lon="9.622742250966143"><ele>575.0</ele><time>2026-03-22T09:45:28.999Z</time></trkpt><trkpt lat="40.05382425355991" lon="9.622657209516408"><ele>575.0</ele><time>2026-03-22T09:45:29.999Z</time></trkpt><trkpt lat="40.05386021398471" lon="9.622556679357448"><ele>575.0</ele><time>2026-03-22T09:45:30.999Z</time></trkpt><trkpt lat="40.05389907689903" lon="9.622472249266238"><ele>575.0</ele><time>2026-03-22T09:45:31.999Z</time></trkpt><trkpt lat="40.0539290702044" lon="9.62236663816405"><ele>572.5</ele><time>2026-03-22T09:45:32.999Z</time></trkpt><trkpt lat="40.05395551219559" lon="9.622254532332507"><ele>570.0</ele><time>2026-03-22T09:45:33.999Z</time></trkpt><trkpt lat="40.05398169866325" lon="9.622138624059836"><ele>567.5</ele><time>2026-03-22T09:45:34.999Z</time></trkpt><trkpt lat="40.05399847585718" lon="9.622024540506601"><ele>565.0</ele><time>2026-03-22T09:45:35.999Z</time></trkpt><trkpt lat="40.05402070140022" lon="9.621908518053127"><ele>562.5</ele><time>2026-03-22T09:45:36.999Z</time></trkpt><trkpt lat="40.054044631954696" lon="9.621800690868183"><ele>560.0</ele><time>2026-03-22T09:45:37.999Z</time></trkpt><trkpt lat="40.05406786301816" lon="9.621693995523493"><ele>557.5</ele><time>2026-03-22T09:45:38.999Z</time></trkpt><trkpt lat="40.05409530793171" lon="9.621589653111723"><ele>555.0</ele><time>2026-03-22T09:45:39.999Z</time></trkpt><trkpt lat="40.05409010029725" lon="9.621485498455531"><ele>552.5</ele><time>2026-03-22T09:45:40.999Z</time></trkpt><trkpt lat="40.0540878704135" lon="9.621371008942473"><ele>550.0</ele><time>2026-03-22T09:45:41.999Z</time></trkpt><trkpt lat="40.0540817009864" lon="9.621274233312263"><ele>547.5</ele><time>2026-03-22T09:45:42.999Z</time></trkpt><trkpt lat="40.05407005693099" lon="9.621140336637076"><ele>545.0</ele><time>2026-03-22T09:45:44.999Z</time></trkpt><trkpt lat="40.05411218558955" lon="9.620987865087686"><ele>552.8333333333333</ele><time>2026-03-22T09:45:46.999Z</time></trkpt><trkpt lat="40.05413425919054" lon="9.620888538624234"><ele>560.6666666666666</ele><time>2026-03-22T09:45:47.999Z</time></trkpt><trkpt lat="40.05415530478625" lon="9.620783436033971"><ele>568.5</ele><time>2026-03-22T09:45:48.999Z</time></trkpt><trkpt lat="40.054175864895385" lon="9.620676148058804"><ele>576.3333333333334</ele><time>2026-03-22T09:45:49.999Z</time></trkpt><trkpt lat="40.05418897546798" lon="9.620566488464924"><ele>584.1666666666667</ele><time>2026-03-22T09:45:50.999Z</time></trkpt><trkpt lat="40.054192597476174" lon="9.620458563589173"><ele>592.0</ele><time>2026-03-22T09:45:51.999Z</time></trkpt><trkpt lat="40.05418503612929" lon="9.620351142082075"><ele>593.0</ele><time>2026-03-22T09:45:52.999Z</time></trkpt><trkpt lat="40.05418941663818" lon="9.620252983932593"><ele>594.0</ele><time>2026-03-22T09:45:53.999Z</time></trkpt><trkpt lat="40.05420013982313" lon="9.620096956204955"><ele>595.0</ele><time>2026-03-22T09:45:56Z</time></trkpt><trkpt lat="40.0542077891717" lon="9.620012832417101"><ele>596.0</ele><time>2026-03-22T09:45:57Z</time></trkpt><trkpt lat="40.05419254860556" lon="9.619921629076178"><ele>597.0</ele><time>2026-03-22T09:45:58Z</time></trkpt><trkpt lat="40.05417483906904" lon="9.619821232682991"><ele>598.0</ele><time>2026-03-22T09:45:59Z</time></trkpt><trkpt lat="40.05415120439854" lon="9.619722652716565"><ele>596.7142857142857</ele><time>2026-03-22T09:46:00Z</time></trkpt><trkpt lat="40.054116745123395" lon="9.619635532519949"><ele>595.4285714285714</ele><time>2026-03-22T09:46:01Z</time></trkpt><trkpt lat="40.05407659419063" lon="9.619560259603414"><ele>594.1428571428571</ele><time>2026-03-22T09:46:02Z</time></trkpt><trkpt lat="40.054026562874306" lon="9.619486250744695"><ele>592.8571428571429</ele><time>2026-03-22T09:46:03Z</time></trkpt><trkpt lat="40.05397349918379" lon="9.619418301326462"><ele>591.5714285714286</ele><time>2026-03-22T09:46:04Z</time></trkpt><trkpt lat="40.053912893256786" lon="9.619362055641579"><ele>590.2857142857142</ele><time>2026-03-22T09:46:05Z</time></trkpt><trkpt lat="40.05384720277151" lon="9.619317554823855"><ele>589.0</ele><time>2026-03-22T09:46:06Z</time></trkpt><trkpt lat="40.053764996179325" lon="9.619276902565984"><ele>589.0</ele><time>2026-03-22T09:46:07Z</time></trkpt><trkpt lat="40.05367900424673" lon="9.619243706616453"><ele>589.0</ele><time>2026-03-22T09:46:08Z</time></trkpt><trkpt lat="40.053600711955546" lon="9.619217625477626"><ele>589.0</ele><time>2026-03-22T09:46:09Z</time></trkpt><trkpt lat="40.05352721919307" lon="9.619189703856136"><ele>589.0</ele><time>2026-03-22T09:46:10Z</time></trkpt><trkpt lat="40.05343908637715" lon="9.619144164224716"><ele>589.0</ele><time>2026-03-22T09:46:12Z</time></trkpt><trkpt lat="40.05339270725494" lon="9.618999714806021"><ele>589.0</ele><time>2026-03-22T09:46:14Z</time></trkpt><trkpt lat="40.05336203151112" lon="9.618879923585864"><ele>589.0</ele><time>2026-03-22T09:46:15Z</time></trkpt><trkpt lat="40.05333551898786" lon="9.618787156356623"><ele>589.0</ele><time>2026-03-22T09:46:16Z</time></trkpt><trkpt lat="40.05330742965066" lon="9.618707923524397"><ele>589.0</ele><time>2026-03-22T09:46:17Z</time></trkpt><trkpt lat="40.053269034870915" lon="9.61863276715993"><ele>589.0</ele><time>2026-03-22T09:46:18Z</time></trkpt><trkpt lat="40.05321823787722" lon="9.618554301135253"><ele>589.0</ele><time>2026-03-22T09:46:19Z</time></trkpt><trkpt lat="40.05313948163575" lon="9.618474907433031"><ele>587.2</ele><time>2026-03-22T09:46:20Z</time></trkpt><trkpt lat="40.05306505857681" lon="9.618400406264142"><ele>585.4</ele><time>2026-03-22T09:46:21Z</time></trkpt><trkpt lat="40.052993074615664" lon="9.618293939893857"><ele>583.6</ele><time>2026-03-22T09:46:22Z</time></trkpt><trkpt lat="40.05293299807714" lon="9.618209620874438"><ele>581.8</ele><time>2026-03-22T09:46:23Z</time></trkpt><trkpt lat="40.05289494844883" lon="9.618095258439352"><ele>580.0</ele><time>2026-03-22T09:46:24Z</time></trkpt><trkpt lat="40.05286414645752" lon="9.618005338587354"><ele>580.0</ele><time>2026-03-22T09:46:25Z</time></trkpt><trkpt lat="40.05285186015904" lon="9.617876357952003"><ele>580.0</ele><time>2026-03-22T09:46:27Z</time></trkpt><trkpt lat="40.052802424099305" lon="9.617749990675794"><ele>580.0</ele><time>2026-03-22T09:46:29Z</time></trkpt><trkpt lat="40.05269839580847" lon="9.617729609889953"><ele>580.0</ele><time>2026-03-22T09:46:31Z</time></trkpt><trkpt lat="40.052599384478924" lon="9.617779321570975"><ele>580.0</ele><time>2026-03-22T09:46:33Z</time></trkpt><trkpt lat="40.05250092837278" lon="9.617825894315295"><ele>580.0</ele><time>2026-03-22T09:46:35Z</time></trkpt><trkpt lat="40.05240021666566" lon="9.617861573372776"><ele>580.0</ele><time>2026-03-22T09:46:37Z</time></trkpt><trkpt lat="40.052319776761074" lon="9.617859851119992"><ele>580.0</ele><time>2026-03-22T09:46:39Z</time></trkpt><trkpt lat="40.052248832613245" lon="9.617834913570622"><ele>580.0</ele><time>2026-03-22T09:46:41Z</time></trkpt><trkpt lat="40.05214357015397" lon="9.617747419914728"><ele>580.0</ele><time>2026-03-22T09:46:43Z</time></trkpt><trkpt lat="40.05209722972062" lon="9.617680216717794"><ele>580.0</ele><time>2026-03-22T09:46:44Z</time></trkpt><trkpt lat="40.052050938596196" lon="9.617613064835892"><ele>580.0</ele><time>2026-03-22T09:46:45Z</time></trkpt><trkpt lat="40.052007371738334" lon="9.617538688285457"><ele>580.0</ele><time>2026-03-22T09:46:46Z</time></trkpt><trkpt lat="40.05197941015657" lon="9.617452050244516"><ele>580.0</ele><time>2026-03-22T09:46:47Z</time></trkpt><trkpt lat="40.051956983509044" lon="9.61732236803337"><ele>580.0</ele><time>2026-03-22T09:46:49Z</time></trkpt><trkpt lat="40.05189921898877" lon="9.617272193900394"><ele>580.0</ele><time>2026-03-22T09:46:51Z</time></trkpt><trkpt lat="40.05182906443189" lon="9.617273640982548"><ele>580.0</ele><time>2026-03-22T09:46:53Z</time></trkpt><trkpt lat="40.05172816516347" lon="9.617288755041848"><ele>580.0</ele><time>2026-03-22T09:46:55Z</time></trkpt><trkpt lat="40.05162041637462" lon="9.6173202930768"><ele>580.0</ele><time>2026-03-22T09:46:57Z</time></trkpt><trkpt lat="40.05151158724378" lon="9.617368340350879"><ele>580.0</ele><time>2026-03-22T09:46:59Z</time></trkpt><trkpt lat="40.051415408619405" lon="9.617409235202695"><ele>580.0</ele><time>2026-03-22T09:47:01Z</time></trkpt><trkpt lat="40.051335201458436" lon="9.617447984405594"><ele>576.8333333333334</ele><time>2026-03-22T09:47:02.999Z</time></trkpt><trkpt lat="40.05125449135759" lon="9.617487552729475"><ele>573.6666666666667</ele><time>2026-03-22T09:47:04.999Z</time></trkpt><trkpt lat="40.05114392035811" lon="9.617515237750728"><ele>570.5</ele><time>2026-03-22T09:47:07.999Z</time></trkpt><trkpt lat="40.05107345373816" lon="9.61747774087409"><ele>567.3333333333334</ele><time>2026-03-22T09:47:09.999Z</time></trkpt><trkpt lat="40.05100725200985" lon="9.617412252658953"><ele>564.1666666666666</ele><time>2026-03-22T09:47:11.999Z</time></trkpt><trkpt lat="40.05095131900135" lon="9.61732531865232"><ele>561.0</ele><time>2026-03-22T09:47:13.999Z</time></trkpt><trkpt lat="40.05088930584529" lon="9.617268089811546"><ele>561.0</ele><time>2026-03-22T09:47:23.999Z</time></trkpt><trkpt lat="40.05086338146674" lon="9.617182685995457"><ele>561.0</ele><time>2026-03-22T09:47:24.999Z</time></trkpt><trkpt lat="40.05083346216929" lon="9.617094363935099"><ele>561.0</ele><time>2026-03-22T09:47:25.999Z</time></trkpt><trkpt lat="40.05080303874167" lon="9.617017427393437"><ele>561.0</ele><time>2026-03-22T09:47:26.999Z</time></trkpt><trkpt lat="40.050775839977454" lon="9.616935648815357"><ele>561.0</ele><time>2026-03-22T09:47:27.999Z</time></trkpt><trkpt lat="40.0507496578933" lon="9.616853659781528"><ele>561.0</ele><time>2026-03-22T09:47:28.999Z</time></trkpt><trkpt lat="40.05074014373579" lon="9.616772245059591"><ele>561.0</ele><time>2026-03-22T09:47:29.999Z</time></trkpt><trkpt lat="40.05073529328779" lon="9.61668359098676"><ele>562.0</ele><time>2026-03-22T09:47:30.999Z</time></trkpt><trkpt lat="40.05073037770985" lon="9.616530037754417"><ele>563.0</ele><time>2026-03-22T09:47:32.999Z</time></trkpt><trkpt lat="40.05068320154387" lon="9.616418595630225"><ele>564.0</ele><time>2026-03-22T09:47:34.999Z</time></trkpt><trkpt lat="40.05057547625418" lon="9.616377839404457"><ele>565.0</ele><time>2026-03-22T09:47:36.999Z</time></trkpt><trkpt lat="40.0504690577453" lon="9.616398284887408"><ele>566.0</ele><time>2026-03-22T09:47:38.999Z</time></trkpt><trkpt lat="40.05040844061302" lon="9.616426106427923"><ele>566.0</ele><time>2026-03-22T09:47:39.999Z</time></trkpt><trkpt lat="40.05035568191664" lon="9.616478748262507"><ele>566.0</ele><time>2026-03-22T09:47:40.999Z</time></trkpt><trkpt lat="40.05030271881428" lon="9.616528492654597"><ele>566.0</ele><time>2026-03-22T09:47:41.999Z</time></trkpt><trkpt lat="40.05024446777074" lon="9.616608583400076"><ele>566.0</ele><time>2026-03-22T09:47:42.999Z</time></trkpt><trkpt lat="40.05016712736199" lon="9.61665623827989"><ele>566.0</ele><time>2026-03-22T09:47:43.999Z</time></trkpt><trkpt lat="40.05008568279264" lon="9.616704424677904"><ele>566.0</ele><time>2026-03-22T09:47:44.999Z</time></trkpt><trkpt lat="40.050009851215094" lon="9.61674481266091"><ele>563.8333333333333</ele><time>2026-03-22T09:47:45.999Z</time></trkpt><trkpt lat="40.049942733126144" lon="9.616767663246625"><ele>561.6666666666666</ele><time>2026-03-22T09:47:46.999Z</time></trkpt><trkpt lat="40.04987730270018" lon="9.616781613913297"><ele>559.5</ele><time>2026-03-22T09:47:47.999Z</time></trkpt><trkpt lat="40.049814189184296" lon="9.616830091779098"><ele>557.3333333333334</ele><time>2026-03-22T09:47:48.999Z</time></trkpt><trkpt lat="40.049757734228685" lon="9.616904268319928"><ele>555.1666666666667</ele><time>2026-03-22T09:47:49.999Z</time></trkpt><trkpt lat="40.049715048946474" lon="9.616991913088373"><ele>553.0</ele><time>2026-03-22T09:47:50.999Z</time></trkpt><trkpt lat="40.049689429640544" lon="9.617094259410745"><ele>553.0</ele><time>2026-03-22T09:47:51.999Z</time></trkpt><trkpt lat="40.04964066568519" lon="9.617187587091053"><ele>553.0</ele><time>2026-03-22T09:47:52.999Z</time></trkpt><trkpt lat="40.04958768057677" lon="9.617268024207478"><ele>553.0</ele><time>2026-03-22T09:47:53.999Z</time></trkpt><trkpt lat="40.04952511721079" lon="9.617369476459526"><ele>553.0</ele><time>2026-03-22T09:47:55.999Z</time></trkpt><trkpt lat="40.049421933160204" lon="9.617495894931066"><ele>553.0</ele><time>2026-03-22T09:47:57.999Z</time></trkpt><trkpt lat="40.049361577326245" lon="9.617530377094724"><ele>553.0</ele><time>2026-03-22T09:47:58.999Z</time></trkpt><trkpt lat="40.04924167430131" lon="9.617527066909828"><ele>553.0</ele><time>2026-03-22T09:48:01Z</time></trkpt><trkpt lat="40.049169383847165" lon="9.617505589774687"><ele>553.0</ele><time>2026-03-22T09:48:02Z</time></trkpt><trkpt lat="40.04909147703014" lon="9.617473779831467"><ele>553.0</ele><time>2026-03-22T09:48:03Z</time></trkpt><trkpt lat="40.04902558888921" lon="9.617437887551935"><ele>553.0</ele><time>2026-03-22T09:48:04Z</time></trkpt><trkpt lat="40.048945811785515" lon="9.6173991514044"><ele>553.0</ele><time>2026-03-22T09:48:05Z</time></trkpt><trkpt lat="40.048879434869235" lon="9.617380565720874"><ele>552.4285714285714</ele><time>2026-03-22T09:48:06Z</time></trkpt><trkpt lat="40.04880903868695" lon="9.617370696636344"><ele>551.8571428571429</ele><time>2026-03-22T09:48:07Z</time></trkpt><trkpt lat="40.04873962867139" lon="9.61737200993382"><ele>551.2857142857142</ele><time>2026-03-22T09:48:08Z</time></trkpt><trkpt lat="40.04866082379968" lon="9.617380759592027"><ele>550.7142857142858</ele><time>2026-03-22T09:48:09Z</time></trkpt><trkpt lat="40.04858161803282" lon="9.617390098359486"><ele>550.1428571428571</ele><time>2026-03-22T09:48:10Z</time></trkpt><trkpt lat="40.048508369428106" lon="9.61739929889335"><ele>549.5714285714286</ele><time>2026-03-22T09:48:11Z</time></trkpt><trkpt lat="40.04843860102266" lon="9.617408175539717"><ele>549.0</ele><time>2026-03-22T09:48:12Z</time></trkpt><trkpt lat="40.04837297337712" lon="9.617425567654177"><ele>549.0</ele><time>2026-03-22T09:48:13Z</time></trkpt><trkpt lat="40.04831009037803" lon="9.617439905477259"><ele>549.0</ele><time>2026-03-22T09:48:14Z</time></trkpt><trkpt lat="40.0481797867434" lon="9.617467767869954"><ele>549.0</ele><time>2026-03-22T09:48:16Z</time></trkpt><trkpt lat="40.04810527704033" lon="9.617470995137834"><ele>549.0</ele><time>2026-03-22T09:48:17Z</time></trkpt><trkpt lat="40.04803071242602" lon="9.61746873145679"><ele>549.0</ele><time>2026-03-22T09:48:18Z</time></trkpt><trkpt lat="40.047954513797976" lon="9.617460311331584"><ele>549.0</ele><time>2026-03-22T09:48:19Z</time></trkpt><trkpt lat="40.04789189362123" lon="9.617440999752917"><ele>546.3333333333334</ele><time>2026-03-22T09:48:20Z</time></trkpt><trkpt lat="40.04777624638008" lon="9.617368363449836"><ele>543.6666666666666</ele><time>2026-03-22T09:48:22Z</time></trkpt><trkpt lat="40.04771124632581" lon="9.617302435681445"><ele>541.0</ele><time>2026-03-22T09:48:23Z</time></trkpt><trkpt lat="40.04765837669948" lon="9.617233713823635"><ele>538.3333333333333</ele><time>2026-03-22T09:48:24Z</time></trkpt><trkpt lat="40.047611246240805" lon="9.617162188568955"><ele>535.6666666666666</ele><time>2026-03-22T09:48:25Z</time></trkpt><trkpt lat="40.04756418832807" lon="9.617100379416055"><ele>533.0</ele><time>2026-03-22T09:48:26Z</time></trkpt><trkpt lat="40.04751224548592" lon="9.617038583575951"><ele>534.1666666666666</ele><time>2026-03-22T09:48:27Z</time></trkpt><trkpt lat="40.047464061677964" lon="9.616970138096383"><ele>535.3333333333333</ele><time>2026-03-22T09:48:28Z</time></trkpt><trkpt lat="40.04741823641346" lon="9.616902839402593"><ele>536.5</ele><time>2026-03-22T09:48:29Z</time></trkpt><trkpt lat="40.04737210379614" lon="9.616839615002656"><ele>537.6666666666666</ele><time>2026-03-22T09:48:30Z</time></trkpt><trkpt lat="40.04732449685939" lon="9.616771785303678"><ele>538.8333333333334</ele><time>2026-03-22T09:48:31Z</time></trkpt><trkpt lat="40.04725412705423" lon="9.61664658192804"><ele>540.0</ele><time>2026-03-22T09:48:33Z</time></trkpt><trkpt lat="40.047214308242886" lon="9.616573774737416"><ele>540.0</ele><time>2026-03-22T09:48:34Z</time></trkpt><trkpt lat="40.047181827140754" lon="9.616495288991775"><ele>540.0</ele><time>2026-03-22T09:48:35Z</time></trkpt><trkpt lat="40.04716290012043" lon="9.61641572274469"><ele>540.0</ele><time>2026-03-22T09:48:36Z</time></trkpt><trkpt lat="40.04715741062585" lon="9.61627613024948"><ele>540.0</ele><time>2026-03-22T09:48:38Z</time></trkpt><trkpt lat="40.04708135264067" lon="9.61621061690816"><ele>540.0</ele><time>2026-03-22T09:48:40Z</time></trkpt><trkpt lat="40.046992138673254" lon="9.616265945194902"><ele>540.0</ele><time>2026-03-22T09:48:42Z</time></trkpt><trkpt lat="40.046939200039944" lon="9.616330893754133"><ele>540.0</ele><time>2026-03-22T09:48:43Z</time></trkpt><trkpt lat="40.04688542898617" lon="9.616400359522343"><ele>540.0</ele><time>2026-03-22T09:48:44Z</time></trkpt><trkpt lat="40.04683312397843" lon="9.616450046903708"><ele>540.0</ele><time>2026-03-22T09:48:45Z</time></trkpt><trkpt lat="40.04674280373273" lon="9.616531889622154"><ele>540.0</ele><time>2026-03-22T09:48:47Z</time></trkpt><trkpt lat="40.04666339502085" lon="9.616610237643231"><ele>540.0</ele><time>2026-03-22T09:48:49Z</time></trkpt><trkpt lat="40.04657301449596" lon="9.616682910008276"><ele>542.0</ele><time>2026-03-22T09:48:51Z</time></trkpt><trkpt lat="40.04650103992948" lon="9.616774244740705"><ele>544.0</ele><time>2026-03-22T09:48:53Z</time></trkpt><trkpt lat="40.04641888780374" lon="9.616824666150883"><ele>546.0</ele><time>2026-03-22T09:48:55Z</time></trkpt><trkpt lat="40.04635372265002" lon="9.61686798949264"><ele>548.0</ele><time>2026-03-22T09:48:56Z</time></trkpt><trkpt lat="40.046290911300275" lon="9.616917349650247"><ele>550.0</ele><time>2026-03-22T09:48:57Z</time></trkpt><trkpt lat="40.046213184775745" lon="9.616974481917358"><ele>552.0</ele><time>2026-03-22T09:48:58Z</time></trkpt><trkpt lat="40.04614736160812" lon="9.617029135915791"><ele>548.6666666666666</ele><time>2026-03-22T09:48:59Z</time></trkpt><trkpt lat="40.04607110443243" lon="9.61707631515632"><ele>545.3333333333334</ele><time>2026-03-22T09:49:00Z</time></trkpt><trkpt lat="40.04600134402739" lon="9.61711978634717"><ele>542.0</ele><time>2026-03-22T09:49:01Z</time></trkpt><trkpt lat="40.04593087232857" lon="9.61715673192412"><ele>538.6666666666667</ele><time>2026-03-22T09:49:02Z</time></trkpt><trkpt lat="40.04586370225461" lon="9.617201267841295"><ele>535.3333333333334</ele><time>2026-03-22T09:49:03Z</time></trkpt><trkpt lat="40.045796654787026" lon="9.617253189021584"><ele>532.0</ele><time>2026-03-22T09:49:04Z</time></trkpt><trkpt lat="40.045731869504834" lon="9.617299514153084"><ele>532.0</ele><time>2026-03-22T09:49:04.999Z</time></trkpt><trkpt lat="40.045669790083195" lon="9.617337722597892"><ele>532.0</ele><time>2026-03-22T09:49:05.999Z</time></trkpt><trkpt lat="40.04560804150844" lon="9.617373662462203"><ele>532.0</ele><time>2026-03-22T09:49:06.999Z</time></trkpt><trkpt lat="40.045495165606" lon="9.61746623624551"><ele>532.0</ele><time>2026-03-22T09:49:08.999Z</time></trkpt><trkpt lat="40.045389381551395" lon="9.617535861038093"><ele>532.0</ele><time>2026-03-22T09:49:10.999Z</time></trkpt><trkpt lat="40.0452865899867" lon="9.617587989453254"><ele>532.0</ele><time>2026-03-22T09:49:12.999Z</time></trkpt><trkpt lat="40.04522820278654" lon="9.617629686118626"><ele>532.0</ele><time>2026-03-22T09:49:13.999Z</time></trkpt><trkpt lat="40.04516631075916" lon="9.617664116906521"><ele>532.0</ele><time>2026-03-22T09:49:14.999Z</time></trkpt><trkpt lat="40.04510400471286" lon="9.617697101861395"><ele>532.0</ele><time>2026-03-22T09:49:15.999Z</time></trkpt><trkpt lat="40.04504248912007" lon="9.617726270733419"><ele>532.0</ele><time>2026-03-22T09:49:16.999Z</time></trkpt><trkpt lat="40.04491301375229" lon="9.617772542656297"><ele>532.0</ele><time>2026-03-22T09:49:18.999Z</time></trkpt><trkpt lat="40.04483048019316" lon="9.617805873459021"><ele>527.4</ele><time>2026-03-22T09:49:19.999Z</time></trkpt><trkpt lat="40.044739495203515" lon="9.61783648545358"><ele>522.8000000000001</ele><time>2026-03-22T09:49:20.999Z</time></trkpt><trkpt lat="40.04464676018678" lon="9.617870948367072"><ele>518.2</ele><time>2026-03-22T09:49:21.999Z</time></trkpt><trkpt lat="40.04454755143486" lon="9.617906028387392"><ele>513.6</ele><time>2026-03-22T09:49:22.999Z</time></trkpt><trkpt lat="40.04444852711267" lon="9.61794173513776"><ele>509.0</ele><time>2026-03-22T09:49:23.999Z</time></trkpt><trkpt lat="40.04435359486399" lon="9.617976063910888"><ele>508.99999999999994</ele><time>2026-03-22T09:49:24.999Z</time></trkpt><trkpt lat="40.04426095276761" lon="9.618025506446527"><ele>509.0</ele><time>2026-03-22T09:49:25.999Z</time></trkpt><trkpt lat="40.044185386154226" lon="9.618063035536913"><ele>509.0</ele><time>2026-03-22T09:49:26.999Z</time></trkpt><trkpt lat="40.04410347769289" lon="9.618106129960227"><ele>509.0</ele><time>2026-03-22T09:49:27.999Z</time></trkpt><trkpt lat="40.044029422950494" lon="9.61814000604911"><ele>508.99999999999994</ele><time>2026-03-22T09:49:28.999Z</time></trkpt><trkpt lat="40.04395102399145" lon="9.618171525365463"><ele>509.0</ele><time>2026-03-22T09:49:29.999Z</time></trkpt><trkpt lat="40.04388046475046" lon="9.61819199865057"><ele>508.1428571428571</ele><time>2026-03-22T09:49:30.999Z</time></trkpt><trkpt lat="40.04380191671611" lon="9.618208171007906"><ele>507.2857142857143</ele><time>2026-03-22T09:49:31.999Z</time></trkpt><trkpt lat="40.04373475342598" lon="9.618240087718645"><ele>506.42857142857144</ele><time>2026-03-22T09:49:32.999Z</time></trkpt><trkpt lat="40.04366331285327" lon="9.618255927768743"><ele>505.57142857142856</ele><time>2026-03-22T09:49:33.999Z</time></trkpt><trkpt lat="40.04358046061107" lon="9.618269926674136"><ele>504.7142857142858</ele><time>2026-03-22T09:49:34.999Z</time></trkpt><trkpt lat="40.04351125104041" lon="9.618284223665743"><ele>503.8571428571429</ele><time>2026-03-22T09:49:35.999Z</time></trkpt><trkpt lat="40.04344176821761" lon="9.618277866124235"><ele>503.0</ele><time>2026-03-22T09:49:36.999Z</time></trkpt><trkpt lat="40.043370028054134" lon="9.618267766439445"><ele>502.99999999999994</ele><time>2026-03-22T09:49:37.999Z</time></trkpt><trkpt lat="40.043299141659034" lon="9.618298575581548"><ele>503.0</ele><time>2026-03-22T09:49:39.999Z</time></trkpt><trkpt lat="40.04331106656063" lon="9.618401898552673"><ele>503.0</ele><time>2026-03-22T09:49:41.999Z</time></trkpt><trkpt lat="40.04337659925665" lon="9.618446404325955"><ele>503.0</ele><time>2026-03-22T09:49:43.999Z</time></trkpt><trkpt lat="40.04348624439617" lon="9.618485626828607"><ele>502.99999999999994</ele><time>2026-03-22T09:49:45.999Z</time></trkpt><trkpt lat="40.04355376519699" lon="9.618511943083577"><ele>503.0</ele><time>2026-03-22T09:49:46.999Z</time></trkpt><trkpt lat="40.04364187039743" lon="9.618524529163022"><ele>502.99999999999994</ele><time>2026-03-22T09:49:47.999Z</time></trkpt><trkpt lat="40.043724792268996" lon="9.618540991909564"><ele>503.0</ele><time>2026-03-22T09:49:48.999Z</time></trkpt><trkpt lat="40.043810150019674" lon="9.618549631454524"><ele>503.0</ele><time>2026-03-22T09:49:49.999Z</time></trkpt><trkpt lat="40.04387526489707" lon="9.618540470076438"><ele>503.0</ele><time>2026-03-22T09:49:50.999Z</time></trkpt><trkpt lat="40.04395862278382" lon="9.618511047611136"><ele>502.99999999999994</ele><time>2026-03-22T09:49:52.999Z</time></trkpt><trkpt lat="40.043982015472466" lon="9.618593330109995"><ele>503.0</ele><time>2026-03-22T09:49:55.999Z</time></trkpt><trkpt lat="40.0439398275126" lon="9.618657843249848"><ele>498.0</ele><time>2026-03-22T09:49:57.999Z</time></trkpt><trkpt lat="40.04383560464348" lon="9.618680968188473"><ele>493.0</ele><time>2026-03-22T09:49:59.999Z</time></trkpt><trkpt lat="40.04372590135876" lon="9.618726115353974"><ele>488.0</ele><time>2026-03-22T09:50:01.999Z</time></trkpt><trkpt lat="40.04361762297667" lon="9.618791666572216"><ele>483.0</ele><time>2026-03-22T09:50:03.999Z</time></trkpt><trkpt lat="40.04350139613661" lon="9.618852339908274"><ele>483.0</ele><time>2026-03-22T09:50:05.999Z</time></trkpt><trkpt lat="40.043437028759264" lon="9.618883173503034"><ele>483.0</ele><time>2026-03-22T09:50:07Z</time></trkpt><trkpt lat="40.043374557584706" lon="9.618916729743754"><ele>483.0</ele><time>2026-03-22T09:50:08Z</time></trkpt><trkpt lat="40.04330830216495" lon="9.618951710418171"><ele>483.0</ele><time>2026-03-22T09:50:09Z</time></trkpt><trkpt lat="40.04323526087819" lon="9.618981849109517"><ele>483.0</ele><time>2026-03-22T09:50:10Z</time></trkpt><trkpt lat="40.043166474371176" lon="9.619015521629276"><ele>483.0</ele><time>2026-03-22T09:50:11Z</time></trkpt><trkpt lat="40.043094211385885" lon="9.619054711506465"><ele>483.0</ele><time>2026-03-22T09:50:12Z</time></trkpt><trkpt lat="40.04302091962433" lon="9.6191008267346"><ele>482.0</ele><time>2026-03-22T09:50:13Z</time></trkpt><trkpt lat="40.04294923119507" lon="9.619126597785334"><ele>481.0</ele><time>2026-03-22T09:50:14Z</time></trkpt><trkpt lat="40.042876840161625" lon="9.619154147077316"><ele>480.0</ele><time>2026-03-22T09:50:15Z</time></trkpt><trkpt lat="40.04280991610681" lon="9.619180707351417"><ele>479.0</ele><time>2026-03-22T09:50:16Z</time></trkpt><trkpt lat="40.04273717857767" lon="9.619207433815868"><ele>478.0</ele><time>2026-03-22T09:50:17Z</time></trkpt><trkpt lat="40.04265960791865" lon="9.619230619726546"><ele>477.0</ele><time>2026-03-22T09:50:18Z</time></trkpt><trkpt lat="40.04258319206841" lon="9.619258313991832"><ele>477.0</ele><time>2026-03-22T09:50:19Z</time></trkpt><trkpt lat="40.04251018388392" lon="9.619282846161735"><ele>477.0</ele><time>2026-03-22T09:50:20Z</time></trkpt><trkpt lat="40.04244841824692" lon="9.619314040200099"><ele>477.0</ele><time>2026-03-22T09:50:21Z</time></trkpt><trkpt lat="40.04235508037289" lon="9.61935708730204"><ele>477.0</ele><time>2026-03-22T09:50:23Z</time></trkpt><trkpt lat="40.042355074032386" lon="9.619452744496119"><ele>477.0</ele><time>2026-03-22T09:50:26Z</time></trkpt><trkpt lat="40.04242742348889" lon="9.619474010781765"><ele>477.0</ele><time>2026-03-22T09:50:28Z</time></trkpt><trkpt lat="40.04249281100813" lon="9.61945028742046"><ele>477.0</ele><time>2026-03-22T09:50:29Z</time></trkpt><trkpt lat="40.042557312723524" lon="9.619427483615832"><ele>477.00000000000006</ele><time>2026-03-22T09:50:30Z</time></trkpt><trkpt lat="40.04263085188024" lon="9.619435387210155"><ele>477.00000000000006</ele><time>2026-03-22T09:50:31Z</time></trkpt><trkpt lat="40.04272930385162" lon="9.619452996957621"><ele>477.0</ele><time>2026-03-22T09:50:32Z</time></trkpt><trkpt lat="40.042856933284405" lon="9.619472665885436"><ele>477.0</ele><time>2026-03-22T09:50:33Z</time></trkpt><trkpt lat="40.04298268232826" lon="9.619473905833448"><ele>477.0</ele><time>2026-03-22T09:50:34Z</time></trkpt><trkpt lat="40.04309365662537" lon="9.619473972837824"><ele>477.00000000000006</ele><time>2026-03-22T09:50:35Z</time></trkpt><trkpt lat="40.04318957985326" lon="9.619463083786806"><ele>477.00000000000006</ele><time>2026-03-22T09:50:36Z</time></trkpt><trkpt lat="40.04327483369867" lon="9.619468547814382"><ele>477.0</ele><time>2026-03-22T09:50:37Z</time></trkpt><trkpt lat="40.04335939337359" lon="9.619463156313099"><ele>477.0</ele><time>2026-03-22T09:50:38Z</time></trkpt><trkpt lat="40.04344104438364" lon="9.619470942074765"><ele>478.0</ele><time>2026-03-22T09:50:39Z</time></trkpt><trkpt lat="40.04352387402069" lon="9.619484798229543"><ele>479.0</ele><time>2026-03-22T09:50:40Z</time></trkpt><trkpt lat="40.04360848892123" lon="9.619458669118051"><ele>480.0</ele><time>2026-03-22T09:50:42Z</time></trkpt><trkpt lat="40.043631277854516" lon="9.61954163552393"><ele>481.0</ele><time>2026-03-22T09:50:46Z</time></trkpt><trkpt lat="40.04355717138342" lon="9.619590499420951"><ele>482.0</ele><time>2026-03-22T09:50:48Z</time></trkpt><trkpt lat="40.043473438821" lon="9.61959861794"><ele>483.0</ele><time>2026-03-22T09:50:49Z</time></trkpt><trkpt lat="40.043399888193306" lon="9.619623162576113"><ele>479.0</ele><time>2026-03-22T09:50:50Z</time></trkpt><trkpt lat="40.04332759359153" lon="9.619664672108973"><ele>475.0</ele><time>2026-03-22T09:50:51Z</time></trkpt><trkpt lat="40.04325836676777" lon="9.619698346659934"><ele>471.0</ele><time>2026-03-22T09:50:52Z</time></trkpt><trkpt lat="40.04319225354635" lon="9.619736242905486"><ele>467.0</ele><time>2026-03-22T09:50:53Z</time></trkpt><trkpt lat="40.04312430581416" lon="9.619769570581887"><ele>463.0</ele><time>2026-03-22T09:50:54Z</time></trkpt><trkpt lat="40.0430609393995" lon="9.619795024988852"><ele>459.0</ele><time>2026-03-22T09:50:55Z</time></trkpt><trkpt lat="40.04299909705619" lon="9.619818421880076"><ele>455.0</ele><time>2026-03-22T09:50:56Z</time></trkpt><trkpt lat="40.04293740176396" lon="9.619843801404006"><ele>455.0</ele><time>2026-03-22T09:50:57Z</time></trkpt><trkpt lat="40.042817007547114" lon="9.61989866431082"><ele>455.0</ele><time>2026-03-22T09:50:59Z</time></trkpt><trkpt lat="40.04273512167997" lon="9.619909435466063"><ele>455.0</ele><time>2026-03-22T09:51:00Z</time></trkpt><trkpt lat="40.04265738543301" lon="9.619914602991864"><ele>455.0</ele><time>2026-03-22T09:51:01Z</time></trkpt><trkpt lat="40.042588821402745" lon="9.619933990243544"><ele>455.0</ele><time>2026-03-22T09:51:02Z</time></trkpt><trkpt lat="40.04249397006254" lon="9.620015086637759"><ele>456.0</ele><time>2026-03-22T09:51:04Z</time></trkpt><trkpt lat="40.04241406851314" lon="9.620111749485144"><ele>457.0</ele><time>2026-03-22T09:51:06Z</time></trkpt><trkpt lat="40.04231817732698" lon="9.62019066038819"><ele>458.0</ele><time>2026-03-22T09:51:08Z</time></trkpt><trkpt lat="40.04222305189854" lon="9.62026020353926"><ele>459.0</ele><time>2026-03-22T09:51:10Z</time></trkpt><trkpt lat="40.0421552486294" lon="9.62030700014383"><ele>460.0</ele><time>2026-03-22T09:51:11Z</time></trkpt><trkpt lat="40.0420694895959" lon="9.620352855416549"><ele>456.50000000000006</ele><time>2026-03-22T09:51:12Z</time></trkpt><trkpt lat="40.04199683471761" lon="9.620416069961466"><ele>453.0</ele><time>2026-03-22T09:51:13Z</time></trkpt><trkpt lat="40.04192313977565" lon="9.620483787907462"><ele>449.5</ele><time>2026-03-22T09:51:14Z</time></trkpt><trkpt lat="40.04185951503836" lon="9.62054024930017"><ele>446.0</ele><time>2026-03-22T09:51:15Z</time></trkpt><trkpt lat="40.04180341448101" lon="9.620614670776366"><ele>442.50000000000006</ele><time>2026-03-22T09:51:15.999Z</time></trkpt><trkpt lat="40.04174850791625" lon="9.620670443261849"><ele>439.0</ele><time>2026-03-22T09:51:16.999Z</time></trkpt><trkpt lat="40.041676894283185" lon="9.620743860027073"><ele>440.50000000000006</ele><time>2026-03-22T09:51:17.999Z</time></trkpt><trkpt lat="40.041613020291294" lon="9.620818291889627"><ele>442.0</ele><time>2026-03-22T09:51:18.999Z</time></trkpt><trkpt lat="40.04156582200539" lon="9.620889998824373"><ele>443.5</ele><time>2026-03-22T09:51:19.999Z</time></trkpt><trkpt lat="40.041515368174764" lon="9.6209447204449"><ele>445.0</ele><time>2026-03-22T09:51:20.999Z</time></trkpt><trkpt lat="40.04146366199833" lon="9.621006231251096"><ele>446.50000000000006</ele><time>2026-03-22T09:51:21.999Z</time></trkpt><trkpt lat="40.04139671526852" lon="9.6210599332822"><ele>448.0</ele><time>2026-03-22T09:51:22.999Z</time></trkpt><trkpt lat="40.04132350310697" lon="9.621120339011926"><ele>445.2</ele><time>2026-03-22T09:51:23.999Z</time></trkpt><trkpt lat="40.04124776787496" lon="9.621172203825072"><ele>442.4</ele><time>2026-03-22T09:51:24.999Z</time></trkpt><trkpt lat="40.041184760870216" lon="9.621231340940495"><ele>439.59999999999997</ele><time>2026-03-22T09:51:25.999Z</time></trkpt><trkpt lat="40.0410831806783" lon="9.621346915694144"><ele>436.79999999999995</ele><time>2026-03-22T09:51:27.999Z</time></trkpt><trkpt lat="40.041035879095595" lon="9.621417039444529"><ele>434.0</ele><time>2026-03-22T09:51:28.999Z</time></trkpt><trkpt lat="40.04098488805739" lon="9.621498896540965"><ele>433.99999999999994</ele><time>2026-03-22T09:51:29.999Z</time></trkpt><trkpt lat="40.04093060113515" lon="9.621593471272789"><ele>434.0</ele><time>2026-03-22T09:51:30.999Z</time></trkpt><trkpt lat="40.04087794561386" lon="9.62168554609578"><ele>434.0</ele><time>2026-03-22T09:51:31.999Z</time></trkpt><trkpt lat="40.04083570818587" lon="9.62177765685481"><ele>434.0</ele><time>2026-03-22T09:51:32.999Z</time></trkpt><trkpt lat="40.040800368132736" lon="9.621866080219604"><ele>433.99999999999994</ele><time>2026-03-22T09:51:33.999Z</time></trkpt><trkpt lat="40.04074200374392" lon="9.621943960632104"><ele>434.0</ele><time>2026-03-22T09:51:34.999Z</time></trkpt><trkpt lat="40.04069467371515" lon="9.622017288847143"><ele>428.2</ele><time>2026-03-22T09:51:35.999Z</time></trkpt><trkpt lat="40.040648716206945" lon="9.622095118230115"><ele>422.4</ele><time>2026-03-22T09:51:36.999Z</time></trkpt><trkpt lat="40.040578374656576" lon="9.622204124263105"><ele>416.6</ele><time>2026-03-22T09:51:38.999Z</time></trkpt><trkpt lat="40.04048426207728" lon="9.62224333440562"><ele>410.8</ele><time>2026-03-22T09:51:40.999Z</time></trkpt><trkpt lat="40.04038159968085" lon="9.622215565662865"><ele>405.0</ele><time>2026-03-22T09:51:42.999Z</time></trkpt><trkpt lat="40.04030969327944" lon="9.622175121827953"><ele>405.0</ele><time>2026-03-22T09:51:43.999Z</time></trkpt><trkpt lat="40.040230364356844" lon="9.622123297543526"><ele>405.0</ele><time>2026-03-22T09:51:44.999Z</time></trkpt><trkpt lat="40.040148840741146" lon="9.622072862997221"><ele>405.0</ele><time>2026-03-22T09:51:45.999Z</time></trkpt><trkpt lat="40.040074756414285" lon="9.62204118565958"><ele>405.0</ele><time>2026-03-22T09:51:46.999Z</time></trkpt><trkpt lat="40.040010208759035" lon="9.622021366996828"><ele>405.0</ele><time>2026-03-22T09:51:47.999Z</time></trkpt><trkpt lat="40.03994536486052" lon="9.622002987134428"><ele>405.0</ele><time>2026-03-22T09:51:48.999Z</time></trkpt><trkpt lat="40.03988198857963" lon="9.621982259979442"><ele>401.57142857142856</ele><time>2026-03-22T09:51:49.999Z</time></trkpt><trkpt lat="40.03981603437566" lon="9.62196507925878"><ele>398.1428571428571</ele><time>2026-03-22T09:51:50.999Z</time></trkpt><trkpt lat="40.03974966525196" lon="9.621943927358144"><ele>394.71428571428567</ele><time>2026-03-22T09:51:51.999Z</time></trkpt><trkpt lat="40.039676988925834" lon="9.621881427434555"><ele>391.2857142857143</ele><time>2026-03-22T09:51:53.999Z</time></trkpt><trkpt lat="40.03968913270925" lon="9.621762068638164"><ele>387.8571428571429</ele><time>2026-03-22T09:51:55.999Z</time></trkpt><trkpt lat="40.03970828866652" lon="9.621683235869769"><ele>384.4285714285714</ele><time>2026-03-22T09:51:56.999Z</time></trkpt><trkpt lat="40.03970884859124" lon="9.621593420544551"><ele>381.0</ele><time>2026-03-22T09:51:57.999Z</time></trkpt><trkpt lat="40.0396917518149" lon="9.621497198811856"><ele>381.0</ele><time>2026-03-22T09:51:58.999Z</time></trkpt><trkpt lat="40.03970257151762" lon="9.62135531198447"><ele>381.0</ele><time>2026-03-22T09:52:00.999Z</time></trkpt><trkpt lat="40.03972848814491" lon="9.621242132068351"><ele>381.0</ele><time>2026-03-22T09:52:02.999Z</time></trkpt><trkpt lat="40.03975604500635" lon="9.621080253928875"><ele>381.0</ele><time>2026-03-22T09:52:04.999Z</time></trkpt><trkpt lat="40.039778559660164" lon="9.621002787947202"><ele>381.0</ele><time>2026-03-22T09:52:05.999Z</time></trkpt><trkpt lat="40.03981861693297" lon="9.620863234711381"><ele>378.20000000000005</ele><time>2026-03-22T09:52:07.999Z</time></trkpt><trkpt lat="40.039868885134744" lon="9.620725124338072"><ele>375.40000000000003</ele><time>2026-03-22T09:52:09.999Z</time></trkpt><trkpt lat="40.03993354724559" lon="9.620592169462032"><ele>372.6</ele><time>2026-03-22T09:52:11.999Z</time></trkpt><trkpt lat="40.03996961490412" lon="9.62052314467464"><ele>369.8</ele><time>2026-03-22T09:52:13Z</time></trkpt><trkpt lat="40.04002482632675" lon="9.620378995888272"><ele>367.0</ele><time>2026-03-22T09:52:15Z</time></trkpt><trkpt lat="40.040053584558" lon="9.620302014067567"><ele>372.6</ele><time>2026-03-22T09:52:16Z</time></trkpt><trkpt lat="40.04007584001438" lon="9.620180111209457"><ele>378.20000000000005</ele><time>2026-03-22T09:52:18Z</time></trkpt><trkpt lat="40.0401274621743" lon="9.620059085311892"><ele>383.8</ele><time>2026-03-22T09:52:20Z</time></trkpt><trkpt lat="40.04017768047596" lon="9.61999859304932"><ele>389.4</ele><time>2026-03-22T09:52:21Z</time></trkpt><trkpt lat="40.04022582813041" lon="9.619942368370452"><ele>395.0</ele><time>2026-03-22T09:52:22Z</time></trkpt><trkpt lat="40.040300566031746" lon="9.619817807169818"><ele>394.99999999999994</ele><time>2026-03-22T09:52:24Z</time></trkpt><trkpt lat="40.0403341507345" lon="9.619746583016864"><ele>395.0</ele><time>2026-03-22T09:52:25Z</time></trkpt><trkpt lat="40.04040146408156" lon="9.619606917213689"><ele>395.0</ele><time>2026-03-22T09:52:27Z</time></trkpt><trkpt lat="40.04043277520331" lon="9.619532802891749"><ele>395.0</ele><time>2026-03-22T09:52:28Z</time></trkpt><trkpt lat="40.04047266048924" lon="9.619451116153495"><ele>394.99999999999994</ele><time>2026-03-22T09:52:29Z</time></trkpt><trkpt lat="40.04050882171751" lon="9.619375907245418"><ele>395.0</ele><time>2026-03-22T09:52:30Z</time></trkpt><trkpt lat="40.04054219502675" lon="9.619298744158133"><ele>390.4285714285714</ele><time>2026-03-22T09:52:31Z</time></trkpt><trkpt lat="40.04057029430658" lon="9.619221062795416"><ele>385.8571428571429</ele><time>2026-03-22T09:52:32Z</time></trkpt><trkpt lat="40.04059849392236" lon="9.619134652320527"><ele>381.2857142857143</ele><time>2026-03-22T09:52:33Z</time></trkpt><trkpt lat="40.04062860332559" lon="9.619041509170003"><ele>376.71428571428567</ele><time>2026-03-22T09:52:34Z</time></trkpt><trkpt lat="40.04066865195289" lon="9.618947042985399"><ele>372.1428571428571</ele><time>2026-03-22T09:52:35Z</time></trkpt><trkpt lat="40.04070478686009" lon="9.618866570660835"><ele>367.57142857142856</ele><time>2026-03-22T09:52:36Z</time></trkpt><trkpt lat="40.04073492006139" lon="9.618792338518912"><ele>363.0</ele><time>2026-03-22T09:52:37Z</time></trkpt><trkpt lat="40.040771535616955" lon="9.61869322659607"><ele>366.3333333333333</ele><time>2026-03-22T09:52:38Z</time></trkpt><trkpt lat="40.04080698156589" lon="9.618578554623003"><ele>369.6666666666667</ele><time>2026-03-22T09:52:39Z</time></trkpt><trkpt lat="40.0408450019479" lon="9.618475403805462"><ele>373.0</ele><time>2026-03-22T09:52:40Z</time></trkpt><trkpt lat="40.04087556198642" lon="9.618386305569178"><ele>376.33333333333337</ele><time>2026-03-22T09:52:41Z</time></trkpt><trkpt lat="40.04090587560736" lon="9.618304660743487"><ele>379.6666666666667</ele><time>2026-03-22T09:52:42Z</time></trkpt><trkpt lat="40.04093970398972" lon="9.618224149422609"><ele>383.0</ele><time>2026-03-22T09:52:43Z</time></trkpt><trkpt lat="40.04097427364721" lon="9.618148658710284"><ele>383.0</ele><time>2026-03-22T09:52:44Z</time></trkpt><trkpt lat="40.04100677099653" lon="9.618075848484683"><ele>383.0</ele><time>2026-03-22T09:52:45Z</time></trkpt><trkpt lat="40.04107888249797" lon="9.617936155350337"><ele>383.0</ele><time>2026-03-22T09:52:47Z</time></trkpt><trkpt lat="40.04112843098252" lon="9.617858765614033"><ele>383.0</ele><time>2026-03-22T09:52:48Z</time></trkpt><trkpt lat="40.041178869606334" lon="9.617784550952157"><ele>383.0</ele><time>2026-03-22T09:52:49Z</time></trkpt><trkpt lat="40.04122771069434" lon="9.617720230924649"><ele>383.0</ele><time>2026-03-22T09:52:50Z</time></trkpt><trkpt lat="40.04129600995887" lon="9.61760116941304"><ele>379.2</ele><time>2026-03-22T09:52:52Z</time></trkpt><trkpt lat="40.04124979243013" lon="9.617454036076168"><ele>375.4</ele><time>2026-03-22T09:52:54Z</time></trkpt><trkpt lat="40.041212014232144" lon="9.617368615695268"><ele>371.59999999999997</ele><time>2026-03-22T09:52:55Z</time></trkpt><trkpt lat="40.04119919477862" lon="9.6172738172865"><ele>367.79999999999995</ele><time>2026-03-22T09:52:56Z</time></trkpt><trkpt lat="40.04117522873761" lon="9.617191621057827"><ele>364.0</ele><time>2026-03-22T09:52:57Z</time></trkpt><trkpt lat="40.04109150363328" lon="9.61708348099372"><ele>363.2</ele><time>2026-03-22T09:52:59Z</time></trkpt><trkpt lat="40.04103560326443" lon="9.616963631888837"><ele>362.4</ele><time>2026-03-22T09:53:01Z</time></trkpt><trkpt lat="40.04099060689146" lon="9.616846070419424"><ele>361.6</ele><time>2026-03-22T09:53:03Z</time></trkpt><trkpt lat="40.04096120144623" lon="9.61667885365174"><ele>360.8</ele><time>2026-03-22T09:53:05Z</time></trkpt><trkpt lat="40.04095133699752" lon="9.616596309164292"><ele>360.0</ele><time>2026-03-22T09:53:06Z</time></trkpt><trkpt lat="40.04095296736607" lon="9.616445082790186"><ele>360.0</ele><time>2026-03-22T09:53:08Z</time></trkpt><trkpt lat="40.04094949501176" lon="9.61630810003601"><ele>360.0</ele><time>2026-03-22T09:53:10Z</time></trkpt><trkpt lat="40.04098660174639" lon="9.61617518673745"><ele>360.0</ele><time>2026-03-22T09:53:12Z</time></trkpt><trkpt lat="40.04103404262757" lon="9.616033675694668"><ele>360.0</ele><time>2026-03-22T09:53:14Z</time></trkpt><trkpt lat="40.04105349392345" lon="9.61590226648517"><ele>360.0</ele><time>2026-03-22T09:53:16Z</time></trkpt><trkpt lat="40.041079389159435" lon="9.615770218640769"><ele>358.2</ele><time>2026-03-22T09:53:18Z</time></trkpt><trkpt lat="40.04111268566626" lon="9.615615895950686"><ele>356.4</ele><time>2026-03-22T09:53:20Z</time></trkpt><trkpt lat="40.04112210840126" lon="9.615522505727562"><ele>354.6</ele><time>2026-03-22T09:53:20.999Z</time></trkpt><trkpt lat="40.04112286112986" lon="9.615422351596898"><ele>352.8</ele><time>2026-03-22T09:53:21.999Z</time></trkpt><trkpt lat="40.04111539644072" lon="9.615331201678911"><ele>351.0</ele><time>2026-03-22T09:53:22.999Z</time></trkpt><trkpt lat="40.04112364408362" lon="9.615176121120546"><ele>348.75</ele><time>2026-03-22T09:53:24.999Z</time></trkpt><trkpt lat="40.041151961803216" lon="9.615020618340942"><ele>346.5</ele><time>2026-03-22T09:53:26.999Z</time></trkpt><trkpt lat="40.04122936011568" lon="9.614905097629276"><ele>344.25</ele><time>2026-03-22T09:53:28.999Z</time></trkpt><trkpt lat="40.041340190586666" lon="9.614809253238516"><ele>342.0</ele><time>2026-03-22T09:53:30.999Z</time></trkpt><trkpt lat="40.041408516965255" lon="9.614761522258355"><ele>342.0</ele><time>2026-03-22T09:53:31.999Z</time></trkpt><trkpt lat="40.04147529445251" lon="9.614727023920377"><ele>342.0</ele><time>2026-03-22T09:53:32.999Z</time></trkpt><trkpt lat="40.04160355358603" lon="9.614703249240756"><ele>342.0</ele><time>2026-03-22T09:53:34.999Z</time></trkpt><trkpt lat="40.04167063684199" lon="9.614710917846232"><ele>342.0</ele><time>2026-03-22T09:53:35.999Z</time></trkpt><trkpt lat="40.04173666908155" lon="9.614732866894554"><ele>342.0</ele><time>2026-03-22T09:53:36.999Z</time></trkpt><trkpt lat="40.04180763163895" lon="9.614753068061537"><ele>342.0</ele><time>2026-03-22T09:53:37.999Z</time></trkpt><trkpt lat="40.04187948146244" lon="9.614760541528117"><ele>342.6666666666667</ele><time>2026-03-22T09:53:38.999Z</time></trkpt><trkpt lat="40.04194744842598" lon="9.614768061424476"><ele>343.3333333333333</ele><time>2026-03-22T09:53:39.999Z</time></trkpt><trkpt lat="40.04205455965678" lon="9.614743158538134"><ele>344.0</ele><time>2026-03-22T09:53:41.999Z</time></trkpt><trkpt lat="40.042119324246954" lon="9.614698118898517"><ele>344.66666666666663</ele><time>2026-03-22T09:53:43.999Z</time></trkpt><trkpt lat="40.04214976213131" lon="9.614610079107406"><ele>345.3333333333333</ele><time>2026-03-22T09:53:45.999Z</time></trkpt><trkpt lat="40.042113028784065" lon="9.614455390735152"><ele>346.0</ele><time>2026-03-22T09:53:47.999Z</time></trkpt><trkpt lat="40.04208013690668" lon="9.61437256295299"><ele>346.0</ele><time>2026-03-22T09:53:48.999Z</time></trkpt><trkpt lat="40.04203513866632" lon="9.614283196568422"><ele>346.0</ele><time>2026-03-22T09:53:49.999Z</time></trkpt><trkpt lat="40.041994157340554" lon="9.614175610453858"><ele>346.0</ele><time>2026-03-22T09:53:50.999Z</time></trkpt><trkpt lat="40.04195102954955" lon="9.614082732096696"><ele>346.0</ele><time>2026-03-22T09:53:51.999Z</time></trkpt><trkpt lat="40.041910007121615" lon="9.613984057667102"><ele>346.0</ele><time>2026-03-22T09:53:52.999Z</time></trkpt><trkpt lat="40.04187562515526" lon="9.613872539389217"><ele>346.0</ele><time>2026-03-22T09:53:53.999Z</time></trkpt><trkpt lat="40.04183751476659" lon="9.613749223240191"><ele>344.66666666666663</ele><time>2026-03-22T09:53:54.999Z</time></trkpt><trkpt lat="40.041808426444" lon="9.613637987072405"><ele>343.3333333333333</ele><time>2026-03-22T09:53:55.999Z</time></trkpt><trkpt lat="40.04178455297071" lon="9.613538947230648"><ele>342.0</ele><time>2026-03-22T09:53:56.999Z</time></trkpt><trkpt lat="40.04176860470541" lon="9.613451545713579"><ele>340.6666666666667</ele><time>2026-03-22T09:53:57.999Z</time></trkpt><trkpt lat="40.04174743764425" lon="9.613365083602528"><ele>339.33333333333337</ele><time>2026-03-22T09:53:58.999Z</time></trkpt><trkpt lat="40.041732809800045" lon="9.613280842464894"><ele>338.0</ele><time>2026-03-22T09:53:59.999Z</time></trkpt><trkpt lat="40.04171933313667" lon="9.613176725359295"><ele>338.0</ele><time>2026-03-22T09:54:00.999Z</time></trkpt><trkpt lat="40.04171720857396" lon="9.613066583791188"><ele>338.0</ele><time>2026-03-22T09:54:01.999Z</time></trkpt><trkpt lat="40.0417285378933" lon="9.612918078907166"><ele>338.0</ele><time>2026-03-22T09:54:02.999Z</time></trkpt><trkpt lat="40.04172852645873" lon="9.61277140958767"><ele>338.0</ele><time>2026-03-22T09:54:03.999Z</time></trkpt><trkpt lat="40.04173547228617" lon="9.612641382099042"><ele>338.0</ele><time>2026-03-22T09:54:04.999Z</time></trkpt><trkpt lat="40.04175303074973" lon="9.612539556728331"><ele>337.33333333333337</ele><time>2026-03-22T09:54:05.999Z</time></trkpt><trkpt lat="40.04175368090434" lon="9.612456230693125"><ele>336.6666666666667</ele><time>2026-03-22T09:54:06.999Z</time></trkpt><trkpt lat="40.04176209226718" lon="9.612358517986186"><ele>336.0</ele><time>2026-03-22T09:54:08.999Z</time></trkpt><trkpt lat="40.04181803450234" lon="9.61223088341605"><ele>335.3333333333333</ele><time>2026-03-22T09:54:10.999Z</time></trkpt><trkpt lat="40.04186648324027" lon="9.612153901435667"><ele>334.66666666666663</ele><time>2026-03-22T09:54:11.999Z</time></trkpt><trkpt lat="40.0419681441888" lon="9.612073572743965"><ele>334.0</ele><time>2026-03-22T09:54:13.999Z</time></trkpt><trkpt lat="40.0420481237021" lon="9.612023908574695"><ele>331.4</ele><time>2026-03-22T09:54:14.999Z</time></trkpt><trkpt lat="40.042130994226056" lon="9.61198952475224"><ele>328.79999999999995</ele><time>2026-03-22T09:54:15.999Z</time></trkpt><trkpt lat="40.04221626374364" lon="9.611970677715155"><ele>326.20000000000005</ele><time>2026-03-22T09:54:16.999Z</time></trkpt><trkpt lat="40.04229757347804" lon="9.611943913818559"><ele>323.6</ele><time>2026-03-22T09:54:17.999Z</time></trkpt><trkpt lat="40.04237267619048" lon="9.611948734003324"><ele>321.0</ele><time>2026-03-22T09:54:19Z</time></trkpt><trkpt lat="40.0424852204451" lon="9.612003750972063"><ele>324.0</ele><time>2026-03-22T09:54:21Z</time></trkpt><trkpt lat="40.04254838491583" lon="9.61199440728974"><ele>327.0</ele><time>2026-03-22T09:54:22Z</time></trkpt><trkpt lat="40.04260390596889" lon="9.61194424054847"><ele>330.0</ele><time>2026-03-22T09:54:23Z</time></trkpt><trkpt lat="40.042641134926015" lon="9.611873780356273"><ele>333.0</ele><time>2026-03-22T09:54:24Z</time></trkpt><trkpt lat="40.0426652735116" lon="9.611794758027148"><ele>336.0</ele><time>2026-03-22T09:54:25Z</time></trkpt><trkpt lat="40.04267588269291" lon="9.611635934182189"><ele>339.0</ele><time>2026-03-22T09:54:27Z</time></trkpt><trkpt lat="40.04266950098829" lon="9.61148835274977"><ele>339.0</ele><time>2026-03-22T09:54:29Z</time></trkpt><trkpt lat="40.042643286205035" lon="9.611345614662934"><ele>339.0</ele><time>2026-03-22T09:54:31Z</time></trkpt><trkpt lat="40.04258464424404" lon="9.611221072935493"><ele>339.0</ele><time>2026-03-22T09:54:33Z</time></trkpt><trkpt lat="40.04255038965916" lon="9.611110723981282"><ele>339.0</ele><time>2026-03-22T09:54:35Z</time></trkpt><trkpt lat="40.042577190860115" lon="9.610966391806652"><ele>339.0</ele><time>2026-03-22T09:54:37Z</time></trkpt><trkpt lat="40.04262076511128" lon="9.610904942850473"><ele>335.4</ele><time>2026-03-22T09:54:38Z</time></trkpt><trkpt lat="40.042669466191455" lon="9.610849195166905"><ele>331.79999999999995</ele><time>2026-03-22T09:54:39Z</time></trkpt><trkpt lat="40.04276457123711" lon="9.610751160501511"><ele>328.20000000000005</ele><time>2026-03-22T09:54:41Z</time></trkpt><trkpt lat="40.042824691242814" lon="9.610665350303162"><ele>324.6</ele><time>2026-03-22T09:54:43Z</time></trkpt><trkpt lat="40.04281690724019" lon="9.610562827973215"><ele>321.0</ele><time>2026-03-22T09:54:46Z</time></trkpt><trkpt lat="40.0427484676946" lon="9.61047433135304"><ele>321.0</ele><time>2026-03-22T09:54:48Z</time></trkpt><trkpt lat="40.04262552804729" lon="9.610443753743324"><ele>321.0</ele><time>2026-03-22T09:54:50Z</time></trkpt><trkpt lat="40.04256142642848" lon="9.610372446999651"><ele>321.0</ele><time>2026-03-22T09:54:52Z</time></trkpt><trkpt lat="40.04252281179732" lon="9.610226900392487"><ele>321.0</ele><time>2026-03-22T09:54:54Z</time></trkpt><trkpt lat="40.04250564592818" lon="9.610122626585287"><ele>321.0</ele><time>2026-03-22T09:54:55Z</time></trkpt><trkpt lat="40.04247270423428" lon="9.610007783920999"><ele>318.75</ele><time>2026-03-22T09:54:56Z</time></trkpt><trkpt lat="40.042416618386305" lon="9.609880891444334"><ele>316.5</ele><time>2026-03-22T09:54:57Z</time></trkpt><trkpt lat="40.04234935279558" lon="9.609753589178968"><ele>314.25</ele><time>2026-03-22T09:54:58Z</time></trkpt><trkpt lat="40.042269348804545" lon="9.60960198693725"><ele>312.0</ele><time>2026-03-22T09:54:59Z</time></trkpt><trkpt lat="40.04218904161642" lon="9.609445687077665"><ele>312.0</ele><time>2026-03-22T09:55:00Z</time></trkpt><trkpt lat="40.04212326917615" lon="9.609293259210213"><ele>312.0</ele><time>2026-03-22T09:55:01Z</time></trkpt><trkpt lat="40.04205969066185" lon="9.609176129190823"><ele>312.0</ele><time>2026-03-22T09:55:02Z</time></trkpt><trkpt lat="40.0420087051065" lon="9.609062435127084"><ele>312.0</ele><time>2026-03-22T09:55:03Z</time></trkpt><trkpt lat="40.04196614594065" lon="9.608969863240464"><ele>312.0</ele><time>2026-03-22T09:55:04Z</time></trkpt><trkpt lat="40.04191064240433" lon="9.608900266321433"><ele>312.0</ele><time>2026-03-22T09:55:05Z</time></trkpt><trkpt lat="40.0418523169277" lon="9.608805060524123"><ele>312.0</ele><time>2026-03-22T09:55:06Z</time></trkpt><trkpt lat="40.041794706125465" lon="9.60872277473807"><ele>312.0</ele><time>2026-03-22T09:55:07Z</time></trkpt><trkpt lat="40.04175579125954" lon="9.608633966345032"><ele>312.0</ele><time>2026-03-22T09:55:08Z</time></trkpt><trkpt lat="40.0417441625716" lon="9.608548778662124"><ele>312.0</ele><time>2026-03-22T09:55:09Z</time></trkpt><trkpt lat="40.04174066987435" lon="9.608447533279513"><ele>312.0</ele><time>2026-03-22T09:55:10Z</time></trkpt><trkpt lat="40.04173337329236" lon="9.60832616946831"><ele>314.4</ele><time>2026-03-22T09:55:11Z</time></trkpt><trkpt lat="40.04170419994842" lon="9.608203096554544"><ele>316.79999999999995</ele><time>2026-03-22T09:55:12Z</time></trkpt><trkpt lat="40.04165519167095" lon="9.608067104771607"><ele>319.2</ele><time>2026-03-22T09:55:13Z</time></trkpt><trkpt lat="40.0415991739421" lon="9.607942509173483"><ele>321.59999999999997</ele><time>2026-03-22T09:55:14Z</time></trkpt><trkpt lat="40.041565662523304" lon="9.607833680610648"><ele>324.0</ele><time>2026-03-22T09:55:15Z</time></trkpt><trkpt lat="40.04153576830891" lon="9.607705614886678"><ele>319.2</ele><time>2026-03-22T09:55:16Z</time></trkpt><trkpt lat="40.04150239548838" lon="9.607572017137295"><ele>314.4</ele><time>2026-03-22T09:55:17Z</time></trkpt><trkpt lat="40.04147405858071" lon="9.60744878859815"><ele>309.6</ele><time>2026-03-22T09:55:18Z</time></trkpt><trkpt lat="40.041449896237694" lon="9.607315893564742"><ele>304.8</ele><time>2026-03-22T09:55:19Z</time></trkpt><trkpt lat="40.041453366932274" lon="9.607179094448407"><ele>300.0</ele><time>2026-03-22T09:55:20Z</time></trkpt><trkpt lat="40.04142947711892" lon="9.60703554843853"><ele>302.6666666666667</ele><time>2026-03-22T09:55:21Z</time></trkpt><trkpt lat="40.04142634389568" lon="9.606907468906108"><ele>305.3333333333333</ele><time>2026-03-22T09:55:21.999Z</time></trkpt><trkpt lat="40.04142583013693" lon="9.606795881147491"><ele>308.0</ele><time>2026-03-22T09:55:22.999Z</time></trkpt><trkpt lat="40.04141020474427" lon="9.606705889789305"><ele>310.66666666666663</ele><time>2026-03-22T09:55:23.999Z</time></trkpt><trkpt lat="40.0413748609663" lon="9.606633720465512"><ele>313.3333333333333</ele><time>2026-03-22T09:55:24.999Z</time></trkpt><trkpt lat="40.04131154120014" lon="9.606602427923546"><ele>316.0</ele><time>2026-03-22T09:55:25.999Z</time></trkpt><trkpt lat="40.04123826163494" lon="9.606578274048546"><ele>316.0</ele><time>2026-03-22T09:55:26.999Z</time></trkpt><trkpt lat="40.04116528362322" lon="9.606543112153913"><ele>316.0</ele><time>2026-03-22T09:55:27.999Z</time></trkpt><trkpt lat="40.04105214327616" lon="9.606453577123597"><ele>316.0</ele><time>2026-03-22T09:55:29.999Z</time></trkpt><trkpt lat="40.04095539209567" lon="9.606382380865144"><ele>316.0</ele><time>2026-03-22T09:55:30.999Z</time></trkpt><trkpt lat="40.04083371567969" lon="9.606313535385935"><ele>315.0</ele><time>2026-03-22T09:55:31.999Z</time></trkpt><trkpt lat="40.04076012509759" lon="9.606266376621624"><ele>314.0</ele><time>2026-03-22T09:55:32.999Z</time></trkpt><trkpt lat="40.04066291053745" lon="9.606238833050702"><ele>313.0</ele><time>2026-03-22T09:55:34.999Z</time></trkpt><trkpt lat="40.04056518536933" lon="9.606211564654522"><ele>312.0</ele><time>2026-03-22T09:55:36.999Z</time></trkpt><trkpt lat="40.040474717087044" lon="9.606153947129638"><ele>311.0</ele><time>2026-03-22T09:55:38.999Z</time></trkpt><trkpt lat="40.04036497998905" lon="9.60610234399143"><ele>311.0</ele><time>2026-03-22T09:55:40.999Z</time></trkpt><trkpt lat="40.040288870470555" lon="9.60610209677556"><ele>311.0</ele><time>2026-03-22T09:55:41.999Z</time></trkpt><trkpt lat="40.04022121855046" lon="9.606108463407375"><ele>311.0</ele><time>2026-03-22T09:55:42.999Z</time></trkpt><trkpt lat="40.04014284677" lon="9.6061143251015"><ele>311.0</ele><time>2026-03-22T09:55:43.999Z</time></trkpt><trkpt lat="40.04007015785774" lon="9.606135135181729"><ele>311.0</ele><time>2026-03-22T09:55:44.999Z</time></trkpt><trkpt lat="40.03999570144413" lon="9.606162039644065"><ele>311.0</ele><time>2026-03-22T09:55:45.999Z</time></trkpt><trkpt lat="40.039938690121105" lon="9.606212337668472"><ele>311.0</ele><time>2026-03-22T09:55:46.999Z</time></trkpt><trkpt lat="40.03987478804274" lon="9.60622190490205"><ele>307.83333333333337</ele><time>2026-03-22T09:55:47.999Z</time></trkpt><trkpt lat="40.039761693146026" lon="9.606239357340096"><ele>304.6666666666667</ele><time>2026-03-22T09:55:49.999Z</time></trkpt><trkpt lat="40.03968877769167" lon="9.606242616661465"><ele>301.5</ele><time>2026-03-22T09:55:51.999Z</time></trkpt><trkpt lat="40.03961723003756" lon="9.606245296787845"><ele>298.3333333333333</ele><time>2026-03-22T09:55:53.999Z</time></trkpt><trkpt lat="40.03955630356154" lon="9.606321446614814"><ele>295.16666666666663</ele><time>2026-03-22T09:55:55.999Z</time></trkpt><trkpt lat="40.03959699767171" lon="9.60640859720276"><ele>292.0</ele><time>2026-03-22T09:55:57.999Z</time></trkpt><trkpt lat="40.03970634068337" lon="9.606473327326668"><ele>292.0</ele><time>2026-03-22T09:55:59.999Z</time></trkpt><trkpt lat="40.03977295443949" lon="9.60651838595387"><ele>292.0</ele><time>2026-03-22T09:56:00.999Z</time></trkpt><trkpt lat="40.03982353511291" lon="9.606573067363122"><ele>292.0</ele><time>2026-03-22T09:56:01.999Z</time></trkpt><trkpt lat="40.03990088395247" lon="9.606678853631749"><ele>292.0</ele><time>2026-03-22T09:56:03.999Z</time></trkpt><trkpt lat="40.03992812999335" lon="9.606773160091802"><ele>292.0</ele><time>2026-03-22T09:56:05.999Z</time></trkpt><trkpt lat="40.03995153568574" lon="9.606857976533416"><ele>292.0</ele><time>2026-03-22T09:56:06.999Z</time></trkpt><trkpt lat="40.03997295756567" lon="9.606948841976976"><ele>290.8333333333333</ele><time>2026-03-22T09:56:07.999Z</time></trkpt><trkpt lat="40.039998799579884" lon="9.607046084386704"><ele>289.66666666666663</ele><time>2026-03-22T09:56:08.999Z</time></trkpt><trkpt lat="40.04002677149688" lon="9.607128370099781"><ele>288.5</ele><time>2026-03-22T09:56:09.999Z</time></trkpt><trkpt lat="40.040059518218406" lon="9.607199128432924"><ele>287.3333333333333</ele><time>2026-03-22T09:56:10.999Z</time></trkpt><trkpt lat="40.040102541690786" lon="9.607288683003576"><ele>286.1666666666667</ele><time>2026-03-22T09:56:12.999Z</time></trkpt><trkpt lat="40.040164724475275" lon="9.607359274761073"><ele>285.0</ele><time>2026-03-22T09:56:16.999Z</time></trkpt><trkpt lat="40.04022821083494" lon="9.607412753435991"><ele>285.0</ele><time>2026-03-22T09:56:18.999Z</time></trkpt><trkpt lat="40.040326784751684" lon="9.60748675612804"><ele>285.0</ele><time>2026-03-22T09:56:20.999Z</time></trkpt><trkpt lat="40.04041301878105" lon="9.607558462286335"><ele>285.0</ele><time>2026-03-22T09:56:22.999Z</time></trkpt><trkpt lat="40.04047913201673" lon="9.607634313197197"><ele>285.0</ele><time>2026-03-22T09:56:26Z</time></trkpt><trkpt lat="40.04049881315748" lon="9.607719686169833"><ele>285.0</ele><time>2026-03-22T09:56:29Z</time></trkpt><trkpt lat="40.04050003598305" lon="9.607807411159019"><ele>285.0</ele><time>2026-03-22T09:56:32Z</time></trkpt><trkpt lat="40.04050212987363" lon="9.607894388612626"><ele>282.0</ele><time>2026-03-22T09:56:34Z</time></trkpt><trkpt lat="40.04049583480007" lon="9.6080437060371"><ele>279.0</ele><time>2026-03-22T09:56:37Z</time></trkpt><trkpt lat="40.04050412816005" lon="9.608156700214108"><ele>276.0</ele><time>2026-03-22T09:56:39Z</time></trkpt><trkpt lat="40.04049622545781" lon="9.60830486684532"><ele>273.0</ele><time>2026-03-22T09:56:41Z</time></trkpt><trkpt lat="40.04046191589279" lon="9.608451206633525"><ele>270.0</ele><time>2026-03-22T09:56:43Z</time></trkpt><trkpt lat="40.04044213427581" lon="9.608530936855981"><ele>270.0</ele><time>2026-03-22T09:56:44Z</time></trkpt><trkpt lat="40.0404287204212" lon="9.608614560710938"><ele>270.0</ele><time>2026-03-22T09:56:45Z</time></trkpt><trkpt lat="40.04042144422996" lon="9.608778607799408"><ele>270.0</ele><time>2026-03-22T09:56:47Z</time></trkpt><trkpt lat="40.040380753181495" lon="9.608945325072364"><ele>270.0</ele><time>2026-03-22T09:56:49Z</time></trkpt><trkpt lat="40.040307580269086" lon="9.609061460484762"><ele>270.0</ele><time>2026-03-22T09:56:51Z</time></trkpt><trkpt lat="40.04026929235371" lon="9.609181301811203"><ele>268.6666666666667</ele><time>2026-03-22T09:56:53Z</time></trkpt><trkpt lat="40.04023817757983" lon="9.609259800600224"><ele>267.3333333333333</ele><time>2026-03-22T09:56:54Z</time></trkpt><trkpt lat="40.04023475480287" lon="9.609352790015537"><ele>266.0</ele><time>2026-03-22T09:56:55Z</time></trkpt><trkpt lat="40.04024789196383" lon="9.60943443797409"><ele>264.66666666666663</ele><time>2026-03-22T09:56:56Z</time></trkpt><trkpt lat="40.04027395046675" lon="9.609579400541326"><ele>263.3333333333333</ele><time>2026-03-22T09:56:58Z</time></trkpt><trkpt lat="40.040296795575244" lon="9.60965715162772"><ele>262.0</ele><time>2026-03-22T09:57:00Z</time></trkpt><trkpt lat="40.04022844144279" lon="9.609734231333379"><ele>261.4</ele><time>2026-03-22T09:57:02Z</time></trkpt><trkpt lat="40.04011485215101" lon="9.609752798465912"><ele>260.79999999999995</ele><time>2026-03-22T09:57:04Z</time></trkpt><trkpt lat="40.04002225139526" lon="9.609712779756718"><ele>260.2</ele><time>2026-03-22T09:57:06Z</time></trkpt><trkpt lat="40.03996003292164" lon="9.609697763810312"><ele>259.59999999999997</ele><time>2026-03-22T09:57:07Z</time></trkpt><trkpt lat="40.03984344947391" lon="9.609679744402571"><ele>259.0</ele><time>2026-03-22T09:57:09Z</time></trkpt><trkpt lat="40.039733372725436" lon="9.609642873566859"><ele>256.5</ele><time>2026-03-22T09:57:11Z</time></trkpt><trkpt lat="40.039665918573014" lon="9.609633227375602"><ele>254.0</ele><time>2026-03-22T09:57:12Z</time></trkpt><trkpt lat="40.03954455148243" lon="9.609610859687878"><ele>251.5</ele><time>2026-03-22T09:57:14Z</time></trkpt><trkpt lat="40.0394432447024" lon="9.609653133512975"><ele>249.0</ele><time>2026-03-22T09:57:16Z</time></trkpt><trkpt lat="40.039386526673745" lon="9.609700887507177"><ele>246.49999999999997</ele><time>2026-03-22T09:57:17Z</time></trkpt><trkpt lat="40.03933946135784" lon="9.609759648900214"><ele>244.0</ele><time>2026-03-22T09:57:18Z</time></trkpt><trkpt lat="40.0393084255138" lon="9.609894552963995"><ele>244.0</ele><time>2026-03-22T09:57:20Z</time></trkpt><trkpt lat="40.03926209441604" lon="9.610022979453351"><ele>243.99999999999997</ele><time>2026-03-22T09:57:22Z</time></trkpt><trkpt lat="40.03918802310252" lon="9.610170589557526"><ele>243.99999999999997</ele><time>2026-03-22T09:57:23.999Z</time></trkpt><trkpt lat="40.039150263592" lon="9.610267159896638"><ele>244.0</ele><time>2026-03-22T09:57:24.999Z</time></trkpt><trkpt lat="40.03911521848164" lon="9.610364714353416"><ele>244.0</ele><time>2026-03-22T09:57:25.999Z</time></trkpt><trkpt lat="40.03908622080152" lon="9.610470199816493"><ele>241.16666666666666</ele><time>2026-03-22T09:57:26.999Z</time></trkpt><trkpt lat="40.03905719796863" lon="9.610555020674612"><ele>238.33333333333331</ele><time>2026-03-22T09:57:27.999Z</time></trkpt><trkpt lat="40.03903696302393" lon="9.610637005290618"><ele>235.5</ele><time>2026-03-22T09:57:28.999Z</time></trkpt><trkpt lat="40.03899446228" lon="9.610766619364938"><ele>232.66666666666669</ele><time>2026-03-22T09:57:30.999Z</time></trkpt><trkpt lat="40.03895162909636" lon="9.610875502385257"><ele>229.83333333333334</ele><time>2026-03-22T09:57:32.999Z</time></trkpt><trkpt lat="40.03886958912902" lon="9.610961623108766"><ele>227.0</ele><time>2026-03-22T09:57:34.999Z</time></trkpt><trkpt lat="40.038798641008775" lon="9.6110094890912"><ele>227.00000000000003</ele><time>2026-03-22T09:57:36.999Z</time></trkpt><trkpt lat="40.03878153556601" lon="9.611094443938129"><ele>227.0</ele><time>2026-03-22T09:57:38.999Z</time></trkpt><trkpt lat="40.03883689467393" lon="9.611170542887676"><ele>227.0</ele><time>2026-03-22T09:57:39.999Z</time></trkpt><trkpt lat="40.03889645725152" lon="9.611263141595433"><ele>227.0</ele><time>2026-03-22T09:57:40.999Z</time></trkpt><trkpt lat="40.038971620076225" lon="9.61135714642015"><ele>227.00000000000003</ele><time>2026-03-22T09:57:42.999Z</time></trkpt><trkpt lat="40.039011673271816" lon="9.611450551336223"><ele>227.0</ele><time>2026-03-22T09:57:44.999Z</time></trkpt><trkpt lat="40.03903814352952" lon="9.611571819826908"><ele>227.8</ele><time>2026-03-22T09:57:46.999Z</time></trkpt><trkpt lat="40.03903550108423" lon="9.611684081384434"><ele>228.6</ele><time>2026-03-22T09:57:48.999Z</time></trkpt><trkpt lat="40.03894696256063" lon="9.611762933008995"><ele>229.40000000000003</ele><time>2026-03-22T09:57:50.999Z</time></trkpt><trkpt lat="40.038837646520975" lon="9.61175472339869"><ele>230.20000000000002</ele><time>2026-03-22T09:57:52.999Z</time></trkpt><trkpt lat="40.038729273069904" lon="9.611717223639646"><ele>231.0</ele><time>2026-03-22T09:57:54.999Z</time></trkpt><trkpt lat="40.038627584601315" lon="9.611711677071696"><ele>231.0</ele><time>2026-03-22T09:57:56.999Z</time></trkpt><trkpt lat="40.03853849825003" lon="9.611805067318466"><ele>231.00000000000003</ele><time>2026-03-22T09:57:58.999Z</time></trkpt><trkpt lat="40.0384397867857" lon="9.611895239886497"><ele>231.00000000000003</ele><time>2026-03-22T09:58:00.999Z</time></trkpt><trkpt lat="40.038370618011115" lon="9.61200124244471"><ele>231.0</ele><time>2026-03-22T09:58:02.999Z</time></trkpt><trkpt lat="40.038327761805434" lon="9.612121936774932"><ele>231.0</ele><time>2026-03-22T09:58:04.999Z</time></trkpt><trkpt lat="40.038365887716715" lon="9.612419278462077"><ele>232.5</ele><time>2026-03-22T10:08:02Z</time></trkpt><trkpt lat="40.03838310223651" lon="9.612512981790266"><ele>234.0</ele><time>2026-03-22T10:08:03Z</time></trkpt><trkpt lat="40.03836693236423" lon="9.612640385214203"><ele>235.5</ele><time>2026-03-22T10:08:05Z</time></trkpt><trkpt lat="40.03831694394655" lon="9.612722933682099"><ele>237.0</ele><time>2026-03-22T10:08:06Z</time></trkpt><trkpt lat="40.03824078821986" lon="9.612806959409575"><ele>238.5</ele><time>2026-03-22T10:08:08Z</time></trkpt><trkpt lat="40.03819691960616" lon="9.612866271502124"><ele>240.0</ele><time>2026-03-22T10:08:09Z</time></trkpt><trkpt lat="40.03815321602761" lon="9.613007187138342"><ele>241.16666666666666</ele><time>2026-03-22T10:08:11Z</time></trkpt><trkpt lat="40.03816752007857" lon="9.613088430928698"><ele>242.33333333333331</ele><time>2026-03-22T10:08:12Z</time></trkpt><trkpt lat="40.038206416174404" lon="9.613232132902075"><ele>243.5</ele><time>2026-03-22T10:08:14Z</time></trkpt><trkpt lat="40.038233633846446" lon="9.613339886630504"><ele>244.66666666666666</ele><time>2026-03-22T10:08:16Z</time></trkpt><trkpt lat="40.03822858493705" lon="9.61345247004711"><ele>245.83333333333331</ele><time>2026-03-22T10:08:18Z</time></trkpt><trkpt lat="40.038189239941666" lon="9.613517552356457"><ele>247.0</ele><time>2026-03-22T10:08:20Z</time></trkpt><trkpt lat="40.03814056067457" lon="9.613638694448648"><ele>247.2</ele><time>2026-03-22T10:08:30Z</time></trkpt><trkpt lat="40.03811848728215" lon="9.613723679863368"><ele>247.39999999999998</ele><time>2026-03-22T10:08:31Z</time></trkpt><trkpt lat="40.03809113846105" lon="9.613847425128183"><ele>247.60000000000002</ele><time>2026-03-22T10:08:32Z</time></trkpt><trkpt lat="40.038055110658654" lon="9.613939802493386"><ele>247.8</ele><time>2026-03-22T10:08:33Z</time></trkpt><trkpt lat="40.03806409923787" lon="9.614094260765988"><ele>248.0</ele><time>2026-03-22T10:08:35Z</time></trkpt><trkpt lat="40.03807276501361" lon="9.614203960650364"><ele>248.0</ele><time>2026-03-22T10:08:36Z</time></trkpt><trkpt lat="40.038094225226956" lon="9.614298750682426"><ele>248.0</ele><time>2026-03-22T10:08:37Z</time></trkpt><trkpt lat="40.038114393500855" lon="9.61439547632602"><ele>248.0</ele><time>2026-03-22T10:08:38Z</time></trkpt><trkpt lat="40.03810565427377" lon="9.614555900626911"><ele>248.0</ele><time>2026-03-22T10:08:39.999Z</time></trkpt><trkpt lat="40.038078704660556" lon="9.614664047695276"><ele>248.0</ele><time>2026-03-22T10:08:41.999Z</time></trkpt><trkpt lat="40.038020133939504" lon="9.614767230316659"><ele>248.2</ele><time>2026-03-22T10:08:43.999Z</time></trkpt><trkpt lat="40.03798453810872" lon="9.614837254408112"><ele>248.4</ele><time>2026-03-22T10:08:44.999Z</time></trkpt><trkpt lat="40.037923974300504" lon="9.614982488648657"><ele>248.59999999999997</ele><time>2026-03-22T10:08:46.999Z</time></trkpt><trkpt lat="40.03788987153484" lon="9.615079601757202"><ele>248.79999999999998</ele><time>2026-03-22T10:08:47.999Z</time></trkpt><trkpt lat="40.03787142620611" lon="9.61519540458194"><ele>249.0</ele><time>2026-03-22T10:08:48.999Z</time></trkpt><trkpt lat="40.03786031666948" lon="9.615331355069292"><ele>249.33333333333334</ele><time>2026-03-22T10:08:49.999Z</time></trkpt><trkpt lat="40.03785802966526" lon="9.615447670700725"><ele>249.66666666666669</ele><time>2026-03-22T10:08:50.999Z</time></trkpt><trkpt lat="40.037844902151676" lon="9.615539131421205"><ele>250.0</ele><time>2026-03-22T10:08:51.999Z</time></trkpt><trkpt lat="40.03782183133318" lon="9.615619653084254"><ele>250.33333333333334</ele><time>2026-03-22T10:08:52.999Z</time></trkpt><trkpt lat="40.03778196651163" lon="9.615694288907033"><ele>250.66666666666669</ele><time>2026-03-22T10:08:53.999Z</time></trkpt><trkpt lat="40.037741958425684" lon="9.61578950510909"><ele>251.0</ele><time>2026-03-22T10:08:54.999Z</time></trkpt><trkpt lat="40.037702839413136" lon="9.61589903728789"><ele>251.0</ele><time>2026-03-22T10:08:55.999Z</time></trkpt><trkpt lat="40.03766790938559" lon="9.616024328917891"><ele>251.00000000000003</ele><time>2026-03-22T10:08:56.999Z</time></trkpt><trkpt lat="40.037634196414025" lon="9.616161172389626"><ele>251.00000000000003</ele><time>2026-03-22T10:08:57.999Z</time></trkpt><trkpt lat="40.037607270071675" lon="9.616301061662504"><ele>251.0</ele><time>2026-03-22T10:08:58.999Z</time></trkpt><trkpt lat="40.03757033467907" lon="9.61641432005845"><ele>251.0</ele><time>2026-03-22T10:08:59.999Z</time></trkpt><trkpt lat="40.037533629526905" lon="9.616506470513938"><ele>252.16666666666669</ele><time>2026-03-22T10:09:01Z</time></trkpt><trkpt lat="40.03749451708157" lon="9.616622784220702"><ele>253.33333333333334</ele><time>2026-03-22T10:09:02Z</time></trkpt><trkpt lat="40.03745226054187" lon="9.61673205286228"><ele>254.5</ele><time>2026-03-22T10:09:03Z</time></trkpt><trkpt lat="40.0374257451052" lon="9.616834786964404"><ele>255.66666666666669</ele><time>2026-03-22T10:09:04Z</time></trkpt><trkpt lat="40.037375541545586" lon="9.616912226421293"><ele>256.8333333333333</ele><time>2026-03-22T10:09:06Z</time></trkpt><trkpt lat="40.03730819009542" lon="9.61691474124177"><ele>258.0</ele><time>2026-03-22T10:09:09Z</time></trkpt><trkpt lat="40.03723788808189" lon="9.616923797606175"><ele>256.6666666666667</ele><time>2026-03-22T10:09:10Z</time></trkpt><trkpt lat="40.03715587785083" lon="9.616983479890337"><ele>255.33333333333331</ele><time>2026-03-22T10:09:11Z</time></trkpt><trkpt lat="40.0370757460623" lon="9.617048161236944"><ele>254.0</ele><time>2026-03-22T10:09:12Z</time></trkpt><trkpt lat="40.03698571043304" lon="9.617118692679199"><ele>252.66666666666666</ele><time>2026-03-22T10:09:13Z</time></trkpt><trkpt lat="40.03690992678966" lon="9.617153342483329"><ele>251.33333333333331</ele><time>2026-03-22T10:09:14Z</time></trkpt><trkpt lat="40.03683688418445" lon="9.617171524068171"><ele>250.0</ele><time>2026-03-22T10:09:15Z</time></trkpt><trkpt lat="40.0367697200811" lon="9.617153844844818"><ele>249.99999999999997</ele><time>2026-03-22T10:09:16Z</time></trkpt><trkpt lat="40.03670683813696" lon="9.617112936491841"><ele>250.0</ele><time>2026-03-22T10:09:17Z</time></trkpt><trkpt lat="40.036662087942986" lon="9.617042439549765"><ele>250.0</ele><time>2026-03-22T10:09:18Z</time></trkpt><trkpt lat="40.0366583373525" lon="9.616930778424738"><ele>250.0</ele><time>2026-03-22T10:09:19Z</time></trkpt><trkpt lat="40.03665562362793" lon="9.616811504755146"><ele>249.99999999999997</ele><time>2026-03-22T10:09:20Z</time></trkpt><trkpt lat="40.036665956868845" lon="9.616676530123758"><ele>250.0</ele><time>2026-03-22T10:09:21Z</time></trkpt><trkpt lat="40.03668005690863" lon="9.616525947200671"><ele>247.66666666666666</ele><time>2026-03-22T10:09:22Z</time></trkpt><trkpt lat="40.03672083431339" lon="9.616362775698137"><ele>245.33333333333331</ele><time>2026-03-22T10:09:23Z</time></trkpt><trkpt lat="40.03680252875534" lon="9.616163068529124"><ele>243.0</ele><time>2026-03-22T10:09:24Z</time></trkpt><trkpt lat="40.03689306243701" lon="9.61596588447722"><ele>242.0</ele><time>2026-03-22T10:09:25Z</time></trkpt><trkpt lat="40.036922263139914" lon="9.615803759770786"><ele>241.0</ele><time>2026-03-22T10:09:26Z</time></trkpt><trkpt lat="40.03696080808998" lon="9.61567691341576"><ele>240.0</ele><time>2026-03-22T10:09:27Z</time></trkpt><trkpt lat="40.03698122469227" lon="9.615577973465001"><ele>239.0</ele><time>2026-03-22T10:09:28Z</time></trkpt><trkpt lat="40.03701080279838" lon="9.615495457718685"><ele>238.0</ele><time>2026-03-22T10:09:29Z</time></trkpt><trkpt lat="40.03700101482947" lon="9.615412315581738"><ele>237.0</ele><time>2026-03-22T10:09:30Z</time></trkpt><trkpt lat="40.036992680210794" lon="9.615296839880532"><ele>237.0</ele><time>2026-03-22T10:09:32Z</time></trkpt><trkpt lat="40.036978200362995" lon="9.615195481361932"><ele>237.0</ele><time>2026-03-22T10:09:36Z</time></trkpt><trkpt lat="40.03696329307055" lon="9.61509113076186"><ele>237.0</ele><time>2026-03-22T10:09:42Z</time></trkpt><trkpt lat="40.03697638680434" lon="9.615182786490028"><ele>237.0</ele><time>2026-03-22T10:09:46Z</time></trkpt><trkpt lat="40.036991085495835" lon="9.615285676910613"><ele>237.0</ele><time>2026-03-22T10:09:48Z</time></trkpt><trkpt lat="40.03700481811882" lon="9.615381804877215"><ele>237.0</ele><time>2026-03-22T10:09:49Z</time></trkpt><trkpt lat="40.03691574049763" lon="9.615453395858065"><ele>237.0</ele><time>2026-03-22T10:09:50Z</time></trkpt><trkpt lat="40.03686249342902" lon="9.615541556515439"><ele>237.0</ele><time>2026-03-22T10:09:51Z</time></trkpt><trkpt lat="40.03680431101183" lon="9.615637888636732"><ele>237.0</ele><time>2026-03-22T10:09:52Z</time></trkpt><trkpt lat="40.03675254554187" lon="9.615711379477737"><ele>237.0</ele><time>2026-03-22T10:09:53Z</time></trkpt><trkpt lat="40.03667523638122" lon="9.615798177882134"><ele>237.0</ele><time>2026-03-22T10:09:54Z</time></trkpt><trkpt lat="40.036587150649886" lon="9.615870138677671"><ele>239.0</ele><time>2026-03-22T10:09:55Z</time></trkpt><trkpt lat="40.03649394092451" lon="9.615976325033657"><ele>241.0</ele><time>2026-03-22T10:09:56Z</time></trkpt><trkpt lat="40.036426408815174" lon="9.616016112963399"><ele>243.0</ele><time>2026-03-22T10:09:57Z</time></trkpt><trkpt lat="40.036667147742186" lon="9.616712966166629"><ele>243.0</ele><time>2026-03-22T10:09:58Z</time></trkpt><trkpt lat="40.03668077214378" lon="9.616869779165524"><ele>243.0</ele><time>2026-03-22T10:09:59Z</time></trkpt><trkpt lat="40.03671168306925" lon="9.616997898791666"><ele>243.0</ele><time>2026-03-22T10:10:00Z</time></trkpt><trkpt lat="40.03668843700553" lon="9.617148241652833"><ele>243.0</ele><time>2026-03-22T10:10:01Z</time></trkpt><trkpt lat="40.036766692896556" lon="9.617212566016105"><ele>243.0</ele><time>2026-03-22T10:10:02Z</time></trkpt><trkpt lat="40.036863921454945" lon="9.617211003862185"><ele>243.0</ele><time>2026-03-22T10:10:03Z</time></trkpt><trkpt lat="40.036942891776384" lon="9.617190115331915"><ele>243.0</ele><time>2026-03-22T10:10:04Z</time></trkpt><trkpt lat="40.03704116432711" lon="9.61712847555901"><ele>243.0</ele><time>2026-03-22T10:10:05Z</time></trkpt><trkpt lat="40.037123017517615" lon="9.617037930284706"><ele>243.0</ele><time>2026-03-22T10:10:06Z</time></trkpt><trkpt lat="40.03721695864667" lon="9.616976846965047"><ele>243.0</ele><time>2026-03-22T10:10:07Z</time></trkpt><trkpt lat="40.03729046019318" lon="9.616901099461309"><ele>243.0</ele><time>2026-03-22T10:10:08Z</time></trkpt><trkpt lat="40.03735530215307" lon="9.616978540641178"><ele>243.0</ele><time>2026-03-22T10:10:10Z</time></trkpt><trkpt lat="40.03735134789552" lon="9.617140743542823"><ele>243.0</ele><time>2026-03-22T10:10:12Z</time></trkpt><trkpt lat="40.03732167868091" lon="9.617276145886128"><ele>243.0</ele><time>2026-03-22T10:10:13Z</time></trkpt><trkpt lat="40.03728441597696" lon="9.617416296486528"><ele>243.0</ele><time>2026-03-22T10:10:14Z</time></trkpt><trkpt lat="40.03722877127707" lon="9.617562943358637"><ele>244.75</ele><time>2026-03-22T10:10:15Z</time></trkpt><trkpt lat="40.03718707730852" lon="9.617727464565334"><ele>246.5</ele><time>2026-03-22T10:10:16Z</time></trkpt><trkpt lat="40.037148100603986" lon="9.617890394767965"><ele>248.25</ele><time>2026-03-22T10:10:17Z</time></trkpt><trkpt lat="40.03709923052499" lon="9.618068842811624"><ele>250.0</ele><time>2026-03-22T10:10:18Z</time></trkpt><trkpt lat="40.03704553117584" lon="9.618248912495588"><ele>251.25</ele><time>2026-03-22T10:10:19Z</time></trkpt><trkpt lat="40.036993224518675" lon="9.61842105851521"><ele>252.5</ele><time>2026-03-22T10:10:20Z</time></trkpt><trkpt lat="40.03694094342284" lon="9.618592179366942"><ele>253.75</ele><time>2026-03-22T10:10:21Z</time></trkpt><trkpt lat="40.03688711212965" lon="9.618765729647889"><ele>255.0</ele><time>2026-03-22T10:10:22Z</time></trkpt><trkpt lat="40.036832370538384" lon="9.618941831928158"><ele>256.25</ele><time>2026-03-22T10:10:23Z</time></trkpt><trkpt lat="40.036776121615155" lon="9.61912144491576"><ele>257.5</ele><time>2026-03-22T10:10:24Z</time></trkpt><trkpt lat="40.03672235855007" lon="9.619291223029226"><ele>258.75</ele><time>2026-03-22T10:10:25Z</time></trkpt><trkpt lat="40.03667381295866" lon="9.61945210233538"><ele>260.0</ele><time>2026-03-22T10:10:26Z</time></trkpt><trkpt lat="40.03663519921488" lon="9.619579308676693"><ele>256.4</ele><time>2026-03-22T10:10:27Z</time></trkpt><trkpt lat="40.0366111581016" lon="9.619657779948952"><ele>252.8</ele><time>2026-03-22T10:10:28Z</time></trkpt><trkpt lat="40.03657825440608" lon="9.619751790757563"><ele>249.2</ele><time>2026-03-22T10:10:32Z</time></trkpt><trkpt lat="40.03647726428337" lon="9.619701278776315"><ele>245.6</ele><time>2026-03-22T10:10:33Z</time></trkpt><trkpt lat="40.03639469766725" lon="9.61965005795855"><ele>242.0</ele><time>2026-03-22T10:10:34.999Z</time></trkpt><trkpt lat="40.03628895596462" lon="9.619612057194598"><ele>242.00000000000003</ele><time>2026-03-22T10:10:36.999Z</time></trkpt><trkpt lat="40.03622856531471" lon="9.61955756936715"><ele>242.0</ele><time>2026-03-22T10:10:37.999Z</time></trkpt><trkpt lat="40.03616618911175" lon="9.619498060166334"><ele>242.0</ele><time>2026-03-22T10:10:38.999Z</time></trkpt><trkpt lat="40.0361060596749" lon="9.61944431955775"><ele>242.0</ele><time>2026-03-22T10:10:39.999Z</time></trkpt><trkpt lat="40.03603575322226" lon="9.619376435952727"><ele>242.00000000000003</ele><time>2026-03-22T10:10:40.999Z</time></trkpt><trkpt lat="40.03595105668522" lon="9.619304722812661"><ele>242.0</ele><time>2026-03-22T10:10:41.999Z</time></trkpt><trkpt lat="40.03586400255093" lon="9.619258925759734"><ele>243.0</ele><time>2026-03-22T10:10:42.999Z</time></trkpt><trkpt lat="40.03578484422703" lon="9.619245704863609"><ele>244.0</ele><time>2026-03-22T10:10:43.999Z</time></trkpt><trkpt lat="40.03570555112753" lon="9.61924458922344"><ele>245.0</ele><time>2026-03-22T10:10:44.999Z</time></trkpt><trkpt lat="40.0356104170035" lon="9.619244021703572"><ele>246.0</ele><time>2026-03-22T10:10:45.999Z</time></trkpt><trkpt lat="40.03551186888817" lon="9.619228962048952"><ele>247.0</ele><time>2026-03-22T10:10:46.999Z</time></trkpt><trkpt lat="40.035403880873424" lon="9.619200401909525"><ele>247.0</ele><time>2026-03-22T10:10:47.999Z</time></trkpt><trkpt lat="40.03529574910414" lon="9.619170436592592"><ele>247.0</ele><time>2026-03-22T10:10:48.999Z</time></trkpt><trkpt lat="40.035188559351504" lon="9.619141511771504"><ele>247.0</ele><time>2026-03-22T10:10:49.999Z</time></trkpt><trkpt lat="40.03509646306552" lon="9.619130921420025"><ele>247.0</ele><time>2026-03-22T10:10:50.999Z</time></trkpt><trkpt lat="40.035006721043395" lon="9.619118554261288"><ele>247.0</ele><time>2026-03-22T10:10:51.999Z</time></trkpt><trkpt lat="40.03492409498951" lon="9.619103662863003"><ele>246.16666666666666</ele><time>2026-03-22T10:10:52.999Z</time></trkpt><trkpt lat="40.03482628672546" lon="9.619105730273523"><ele>245.33333333333331</ele><time>2026-03-22T10:10:54.999Z</time></trkpt><trkpt lat="40.03476259187679" lon="9.619125579778983"><ele>244.5</ele><time>2026-03-22T10:10:57.999Z</time></trkpt><trkpt lat="40.034686003780564" lon="9.619117317254736"><ele>243.66666666666669</ele><time>2026-03-22T10:10:59.999Z</time></trkpt><trkpt lat="40.034602544750356" lon="9.61907442792569"><ele>242.83333333333334</ele><time>2026-03-22T10:11:01.999Z</time></trkpt><trkpt lat="40.034527305567856" lon="9.619082145860716"><ele>242.0</ele><time>2026-03-22T10:11:03.999Z</time></trkpt><trkpt lat="40.03442239952117" lon="9.619098900307286"><ele>242.0</ele><time>2026-03-22T10:11:05.999Z</time></trkpt><trkpt lat="40.03429504707129" lon="9.619080899788848"><ele>242.0</ele><time>2026-03-22T10:11:08Z</time></trkpt><trkpt lat="40.034213544583544" lon="9.619062368018483"><ele>242.0</ele><time>2026-03-22T10:11:09Z</time></trkpt><trkpt lat="40.03412958775825" lon="9.619043762443043"><ele>242.0</ele><time>2026-03-22T10:11:10Z</time></trkpt><trkpt lat="40.034047335345846" lon="9.619029332750264"><ele>242.0</ele><time>2026-03-22T10:11:11Z</time></trkpt><trkpt lat="40.03396973173947" lon="9.619018967070064"><ele>241.66666666666669</ele><time>2026-03-22T10:11:12Z</time></trkpt><trkpt lat="40.03389771871607" lon="9.619035344341297"><ele>241.33333333333334</ele><time>2026-03-22T10:11:13Z</time></trkpt><trkpt lat="40.03382635998849" lon="9.619043098292273"><ele>241.0</ele><time>2026-03-22T10:11:14Z</time></trkpt><trkpt lat="40.033741221950756" lon="9.61902696229219"><ele>240.66666666666669</ele><time>2026-03-22T10:11:15Z</time></trkpt><trkpt lat="40.03365534367371" lon="9.619049191593605"><ele>240.33333333333334</ele><time>2026-03-22T10:11:16Z</time></trkpt><trkpt lat="40.03357565330519" lon="9.619041855172638"><ele>240.0</ele><time>2026-03-22T10:11:17Z</time></trkpt><trkpt lat="40.033503504938274" lon="9.619069569300082"><ele>240.0</ele><time>2026-03-22T10:11:18Z</time></trkpt><trkpt lat="40.0334233683712" lon="9.61911597988711"><ele>240.0</ele><time>2026-03-22T10:11:19Z</time></trkpt><trkpt lat="40.033351585233255" lon="9.619157167860184"><ele>240.0</ele><time>2026-03-22T10:11:20Z</time></trkpt><trkpt lat="40.03327850085214" lon="9.619214386541255"><ele>240.0</ele><time>2026-03-22T10:11:21Z</time></trkpt><trkpt lat="40.033194645140576" lon="9.619280853920273"><ele>240.0</ele><time>2026-03-22T10:11:22Z</time></trkpt><trkpt lat="40.03310518336421" lon="9.619339629341793"><ele>240.0</ele><time>2026-03-22T10:11:23Z</time></trkpt><trkpt lat="40.03300758045579" lon="9.619393947175514"><ele>240.2</ele><time>2026-03-22T10:11:24Z</time></trkpt><trkpt lat="40.032915507528" lon="9.619427221573693"><ele>240.4</ele><time>2026-03-22T10:11:25Z</time></trkpt><trkpt lat="40.03280096616057" lon="9.619444571596793"><ele>240.60000000000002</ele><time>2026-03-22T10:11:26Z</time></trkpt><trkpt lat="40.03269545424849" lon="9.619478030174884"><ele>240.8</ele><time>2026-03-22T10:11:27Z</time></trkpt><trkpt lat="40.03259003413324" lon="9.619510031666008"><ele>241.0</ele><time>2026-03-22T10:11:28Z</time></trkpt><trkpt lat="40.032491821120715" lon="9.61953964982751"><ele>239.60000000000002</ele><time>2026-03-22T10:11:29Z</time></trkpt><trkpt lat="40.03238991260635" lon="9.619562089105605"><ele>238.20000000000002</ele><time>2026-03-22T10:11:30Z</time></trkpt><trkpt lat="40.03229247269081" lon="9.619591875598925"><ele>236.79999999999998</ele><time>2026-03-22T10:11:31Z</time></trkpt><trkpt lat="40.03221027323147" lon="9.619599232941221"><ele>235.39999999999998</ele><time>2026-03-22T10:11:32Z</time></trkpt><trkpt lat="40.032131861652125" lon="9.619602809904588"><ele>234.0</ele><time>2026-03-22T10:11:33Z</time></trkpt><trkpt lat="40.03203937636581" lon="9.6195845741152"><ele>234.0</ele><time>2026-03-22T10:11:35Z</time></trkpt><trkpt lat="40.031935364922106" lon="9.61952677815444"><ele>233.99999999999997</ele><time>2026-03-22T10:11:37Z</time></trkpt><trkpt lat="40.031814240522124" lon="9.61948823820613"><ele>233.99999999999997</ele><time>2026-03-22T10:11:39Z</time></trkpt><trkpt lat="40.031722649648394" lon="9.619477053839157"><ele>234.0</ele><time>2026-03-22T10:11:40Z</time></trkpt><trkpt lat="40.03162650982967" lon="9.619467510851845"><ele>234.0</ele><time>2026-03-22T10:11:41Z</time></trkpt><trkpt lat="40.03152677332837" lon="9.619459181930942"><ele>232.5</ele><time>2026-03-22T10:11:42Z</time></trkpt><trkpt lat="40.03142939279409" lon="9.619440773818082"><ele>231.0</ele><time>2026-03-22T10:11:43Z</time></trkpt><trkpt lat="40.03136024008651" lon="9.619423519169697"><ele>229.5</ele><time>2026-03-22T10:11:44Z</time></trkpt><trkpt lat="40.03129382143468" lon="9.619422556902938"><ele>228.0</ele><time>2026-03-22T10:11:46Z</time></trkpt><trkpt lat="40.03121434353952" lon="9.619417301780638"><ele>226.5</ele><time>2026-03-22T10:11:48Z</time></trkpt><trkpt lat="40.03114730943976" lon="9.619467602180363"><ele>225.0</ele><time>2026-03-22T10:12:09Z</time></trkpt><trkpt lat="40.031126552174925" lon="9.619619754037663"><ele>225.0</ele><time>2026-03-22T10:12:11Z</time></trkpt><trkpt lat="40.03106783226921" lon="9.61975975788301"><ele>225.0</ele><time>2026-03-22T10:12:13Z</time></trkpt><trkpt lat="40.0309793968669" lon="9.619862067126553"><ele>225.0</ele><time>2026-03-22T10:12:15Z</time></trkpt><trkpt lat="40.03088841337661" lon="9.619955683029207"><ele>225.0</ele><time>2026-03-22T10:12:17Z</time></trkpt><trkpt lat="40.03079747330571" lon="9.62004984683287"><ele>222.8</ele><time>2026-03-22T10:12:19Z</time></trkpt><trkpt lat="40.03074387547098" lon="9.620098107105168"><ele>220.6</ele><time>2026-03-22T10:12:20Z</time></trkpt><trkpt lat="40.03065768387139" lon="9.620195844402872"><ele>218.39999999999998</ele><time>2026-03-22T10:12:22Z</time></trkpt><trkpt lat="40.03056574962181" lon="9.620314857906848"><ele>216.2</ele><time>2026-03-22T10:12:24Z</time></trkpt><trkpt lat="40.03047928508333" lon="9.620409883801276"><ele>214.0</ele><time>2026-03-22T10:12:26Z</time></trkpt><trkpt lat="40.03042890430874" lon="9.620461719316515"><ele>214.00000000000003</ele><time>2026-03-22T10:12:26.999Z</time></trkpt><trkpt lat="40.030381299092724" lon="9.620518606175933"><ele>214.0</ele><time>2026-03-22T10:12:27.999Z</time></trkpt><trkpt lat="40.03032468594468" lon="9.620600493170347"><ele>214.0</ele><time>2026-03-22T10:12:28.999Z</time></trkpt><trkpt lat="40.03027516413036" lon="9.620679188410584"><ele>214.0</ele><time>2026-03-22T10:12:29.999Z</time></trkpt><trkpt lat="40.0302320852896" lon="9.620763530409745"><ele>214.0</ele><time>2026-03-22T10:12:30.999Z</time></trkpt><trkpt lat="40.03018266435141" lon="9.620828608642217"><ele>214.00000000000003</ele><time>2026-03-22T10:12:31.999Z</time></trkpt><trkpt lat="40.0301313768569" lon="9.62088708170247"><ele>214.0</ele><time>2026-03-22T10:12:32.999Z</time></trkpt><trkpt lat="40.03005010213084" lon="9.621001747899234"><ele>213.99999999999997</ele><time>2026-03-22T10:12:34.999Z</time></trkpt><trkpt lat="40.03001318357426" lon="9.621070890527005"><ele>214.0</ele><time>2026-03-22T10:12:35.999Z</time></trkpt><trkpt lat="40.0299701713902" lon="9.621154390018022"><ele>214.0</ele><time>2026-03-22T10:12:36.999Z</time></trkpt><trkpt lat="40.029918216890785" lon="9.621241386233317"><ele>214.0</ele><time>2026-03-22T10:12:37.999Z</time></trkpt><trkpt lat="40.029854108177844" lon="9.621309471563334"><ele>213.99999999999997</ele><time>2026-03-22T10:12:38.999Z</time></trkpt><trkpt lat="40.0297782153808" lon="9.621341234232464"><ele>214.0</ele><time>2026-03-22T10:12:39.999Z</time></trkpt><trkpt lat="40.029682566636694" lon="9.621314524223695"><ele>211.2</ele><time>2026-03-22T10:12:40.999Z</time></trkpt><trkpt lat="40.02956329115277" lon="9.621320186965926"><ele>208.39999999999998</ele><time>2026-03-22T10:12:41.999Z</time></trkpt><trkpt lat="40.02945830325143" lon="9.621296756946858"><ele>205.6</ele><time>2026-03-22T10:12:42.999Z</time></trkpt><trkpt lat="40.02937715032719" lon="9.621293845390236"><ele>202.8</ele><time>2026-03-22T10:12:43.999Z</time></trkpt><trkpt lat="40.02927459836566" lon="9.62128350859829"><ele>200.0</ele><time>2026-03-22T10:12:45.999Z</time></trkpt><trkpt lat="40.02914278161762" lon="9.621319207476798"><ele>198.83333333333334</ele><time>2026-03-22T10:12:47.999Z</time></trkpt><trkpt lat="40.029059681937234" lon="9.621355068102913"><ele>197.66666666666669</ele><time>2026-03-22T10:12:48.999Z</time></trkpt><trkpt lat="40.02897786080832" lon="9.62139720704804"><ele>196.5</ele><time>2026-03-22T10:12:49.999Z</time></trkpt><trkpt lat="40.02890406934991" lon="9.621439168547983"><ele>195.33333333333331</ele><time>2026-03-22T10:12:50.999Z</time></trkpt><trkpt lat="40.02884026154872" lon="9.621497493802037"><ele>194.16666666666666</ele><time>2026-03-22T10:12:51.999Z</time></trkpt><trkpt lat="40.02877486267766" lon="9.621524746127804"><ele>193.0</ele><time>2026-03-22T10:12:52.999Z</time></trkpt><trkpt lat="40.02866353962309" lon="9.6216059437319"><ele>192.99999999999997</ele><time>2026-03-22T10:12:54.999Z</time></trkpt><trkpt lat="40.028599469429636" lon="9.621663474713912"><ele>193.0</ele><time>2026-03-22T10:12:55.999Z</time></trkpt><trkpt lat="40.02853400510023" lon="9.621723898688359"><ele>193.0</ele><time>2026-03-22T10:12:56.999Z</time></trkpt><trkpt lat="40.028461414632346" lon="9.62178115901499"><ele>193.0</ele><time>2026-03-22T10:12:57.999Z</time></trkpt><trkpt lat="40.028401418823215" lon="9.621840461636534"><ele>192.99999999999997</ele><time>2026-03-22T10:12:58.999Z</time></trkpt><trkpt lat="40.02833230586478" lon="9.621890475849602"><ele>193.0</ele><time>2026-03-22T10:12:59.999Z</time></trkpt><trkpt lat="40.028272609630896" lon="9.621943376797464"><ele>190.60000000000002</ele><time>2026-03-22T10:13:00.999Z</time></trkpt><trkpt lat="40.02820714904675" lon="9.621991405506916"><ele>188.20000000000002</ele><time>2026-03-22T10:13:01.999Z</time></trkpt><trkpt lat="40.02814889186275" lon="9.622039536643975"><ele>185.8</ele><time>2026-03-22T10:13:02.999Z</time></trkpt><trkpt lat="40.02805141257994" lon="9.622108510208768"><ele>183.4</ele><time>2026-03-22T10:13:04.999Z</time></trkpt><trkpt lat="40.02793036537441" lon="9.622136579898886"><ele>181.0</ele><time>2026-03-22T10:13:06.999Z</time></trkpt><trkpt lat="40.02784730141592" lon="9.622123603957151"><ele>181.0</ele><time>2026-03-22T10:13:07.999Z</time></trkpt><trkpt lat="40.02776422468184" lon="9.622093829440809"><ele>181.0</ele><time>2026-03-22T10:13:08.999Z</time></trkpt><trkpt lat="40.027687299020286" lon="9.622066732399443"><ele>181.0</ele><time>2026-03-22T10:13:09.999Z</time></trkpt><trkpt lat="40.027608189243225" lon="9.622071649021374"><ele>181.0</ele><time>2026-03-22T10:13:10.999Z</time></trkpt><trkpt lat="40.02752684702282" lon="9.622115486308005"><ele>181.0</ele><time>2026-03-22T10:13:11.999Z</time></trkpt><trkpt lat="40.027430711283046" lon="9.62216884684975"><ele>181.0</ele><time>2026-03-22T10:13:13Z</time></trkpt><trkpt lat="40.027322264418295" lon="9.622222065442875"><ele>178.8</ele><time>2026-03-22T10:13:14Z</time></trkpt><trkpt lat="40.0272147073259" lon="9.622273366118062"><ele>176.60000000000002</ele><time>2026-03-22T10:13:15Z</time></trkpt><trkpt lat="40.02710812799993" lon="9.622328900177255"><ele>174.4</ele><time>2026-03-22T10:13:16Z</time></trkpt><trkpt lat="40.027026428218505" lon="9.622370229330766"><ele>172.2</ele><time>2026-03-22T10:13:17Z</time></trkpt><trkpt lat="40.02691115459871" lon="9.62235951338828"><ele>170.0</ele><time>2026-03-22T10:13:19Z</time></trkpt><trkpt lat="40.02686956105048" lon="9.62220182268876"><ele>170.0</ele><time>2026-03-22T10:13:21Z</time></trkpt><trkpt lat="40.026873399366956" lon="9.622082478421968"><ele>170.0</ele><time>2026-03-22T10:13:22Z</time></trkpt><trkpt lat="40.02687459807529" lon="9.621950152879668"><ele>170.0</ele><time>2026-03-22T10:13:23Z</time></trkpt><trkpt lat="40.02687923601955" lon="9.621800839654881"><ele>170.0</ele><time>2026-03-22T10:13:24Z</time></trkpt><trkpt lat="40.02688187658283" lon="9.621654331219204"><ele>170.0</ele><time>2026-03-22T10:13:25Z</time></trkpt><trkpt lat="40.02688215452695" lon="9.621515460536841"><ele>169.5</ele><time>2026-03-22T10:13:26Z</time></trkpt><trkpt lat="40.02687855511478" lon="9.621390166883893"><ele>169.0</ele><time>2026-03-22T10:13:27Z</time></trkpt><trkpt lat="40.02686225630269" lon="9.621289746541695"><ele>168.5</ele><time>2026-03-22T10:13:28Z</time></trkpt><trkpt lat="40.026824182979226" lon="9.621199570066171"><ele>168.0</ele><time>2026-03-22T10:13:29Z</time></trkpt><trkpt lat="40.02677706778227" lon="9.62113003635556"><ele>167.5</ele><time>2026-03-22T10:13:30Z</time></trkpt><trkpt lat="40.02673040708885" lon="9.62107030321721"><ele>167.0</ele><time>2026-03-22T10:13:31Z</time></trkpt><trkpt lat="40.02665990395682" lon="9.621008315735525"><ele>164.66666666666666</ele><time>2026-03-22T10:13:34Z</time></trkpt><trkpt lat="40.02660597428148" lon="9.620964870526997"><ele>162.33333333333331</ele><time>2026-03-22T10:13:37Z</time></trkpt><trkpt lat="40.02653478742985" lon="9.62094745488075"><ele>160.0</ele><time>2026-03-22T10:13:43Z</time></trkpt><trkpt lat="40.02644581550406" lon="9.621027485325403"><ele>157.66666666666666</ele><time>2026-03-22T10:13:46Z</time></trkpt><trkpt lat="40.02643554471141" lon="9.62111932355641"><ele>155.33333333333334</ele><time>2026-03-22T10:13:47Z</time></trkpt><trkpt lat="40.02641964556433" lon="9.621214564074059"><ele>153.0</ele><time>2026-03-22T10:13:48Z</time></trkpt><trkpt lat="40.02639960042458" lon="9.621330019611024"><ele>153.0</ele><time>2026-03-22T10:13:49Z</time></trkpt><trkpt lat="40.0263771163315" lon="9.621446450033734"><ele>153.0</ele><time>2026-03-22T10:13:50Z</time></trkpt><trkpt lat="40.02634995136576" lon="9.621567548231486"><ele>153.0</ele><time>2026-03-22T10:13:51Z</time></trkpt><trkpt lat="40.0263224506444" lon="9.6216781984117"><ele>153.0</ele><time>2026-03-22T10:13:52Z</time></trkpt><trkpt lat="40.0262630108452" lon="9.621759095262272"><ele>153.0</ele><time>2026-03-22T10:13:53Z</time></trkpt><trkpt lat="40.02619183838772" lon="9.621819559668733"><ele>153.0</ele><time>2026-03-22T10:13:54Z</time></trkpt><trkpt lat="40.02610537683854" lon="9.621859454013645"><ele>153.0</ele><time>2026-03-22T10:13:55Z</time></trkpt><trkpt lat="40.02600969160932" lon="9.621910272300806"><ele>153.0</ele><time>2026-03-22T10:13:56Z</time></trkpt><trkpt lat="40.02590847022598" lon="9.6219727574135"><ele>153.0</ele><time>2026-03-22T10:13:57Z</time></trkpt><trkpt lat="40.025803314056255" lon="9.622027712528979"><ele>153.0</ele><time>2026-03-22T10:13:58Z</time></trkpt><trkpt lat="40.025700415248" lon="9.622082404143933"><ele>153.0</ele><time>2026-03-22T10:13:59Z</time></trkpt><trkpt lat="40.02558993820649" lon="9.622140254222801"><ele>151.5</ele><time>2026-03-22T10:14:00Z</time></trkpt><trkpt lat="40.02547388858483" lon="9.622192104871102"><ele>150.0</ele><time>2026-03-22T10:14:01Z</time></trkpt><trkpt lat="40.02535087949671" lon="9.622229870764125"><ele>148.5</ele><time>2026-03-22T10:14:02Z</time></trkpt><trkpt lat="40.025223213690516" lon="9.622251862695974"><ele>147.0</ele><time>2026-03-22T10:14:03Z</time></trkpt><trkpt lat="40.025103020789935" lon="9.622268189747093"><ele>147.0</ele><time>2026-03-22T10:14:04Z</time></trkpt><trkpt lat="40.024988740308" lon="9.622284748356469"><ele>147.0</ele><time>2026-03-22T10:14:05Z</time></trkpt><trkpt lat="40.02488074171529" lon="9.622297782177418"><ele>147.0</ele><time>2026-03-22T10:14:06Z</time></trkpt><trkpt lat="40.024777014793365" lon="9.622291235343317"><ele>147.0</ele><time>2026-03-22T10:14:07Z</time></trkpt><trkpt lat="40.02467490314498" lon="9.622259531671418"><ele>147.0</ele><time>2026-03-22T10:14:08Z</time></trkpt><trkpt lat="40.024565386596535" lon="9.622201190768363"><ele>145.0</ele><time>2026-03-22T10:14:09Z</time></trkpt><trkpt lat="40.02444584526211" lon="9.622136042169823"><ele>143.0</ele><time>2026-03-22T10:14:10Z</time></trkpt><trkpt lat="40.024327507037334" lon="9.622067731179685"><ele>141.0</ele><time>2026-03-22T10:14:11Z</time></trkpt><trkpt lat="40.024216625394345" lon="9.622008377322892"><ele>139.0</ele><time>2026-03-22T10:14:12Z</time></trkpt><trkpt lat="40.02410583931631" lon="9.621986856161199"><ele>138.0</ele><time>2026-03-22T10:14:13Z</time></trkpt><trkpt lat="40.02399558420034" lon="9.621997030245165"><ele>137.0</ele><time>2026-03-22T10:14:14Z</time></trkpt><trkpt lat="40.02388683670268" lon="9.622006188818247"><ele>136.0</ele><time>2026-03-22T10:14:15Z</time></trkpt><trkpt lat="40.023793384999976" lon="9.621994106108595"><ele>135.0</ele><time>2026-03-22T10:14:16Z</time></trkpt><trkpt lat="40.023707936151396" lon="9.621949588218925"><ele>134.0</ele><time>2026-03-22T10:14:17Z</time></trkpt><trkpt lat="40.02362242219758" lon="9.621891870272437"><ele>132.0</ele><time>2026-03-22T10:14:18Z</time></trkpt><trkpt lat="40.02352007934412" lon="9.621843039951521"><ele>130.0</ele><time>2026-03-22T10:14:19Z</time></trkpt><trkpt lat="40.02340030808065" lon="9.621810965775852"><ele>128.0</ele><time>2026-03-22T10:14:20Z</time></trkpt><trkpt lat="40.023273960281585" lon="9.621795156616072"><ele>126.0</ele><time>2026-03-22T10:14:21Z</time></trkpt><trkpt lat="40.023155773929155" lon="9.621765377709455"><ele>125.0</ele><time>2026-03-22T10:14:22Z</time></trkpt><trkpt lat="40.023058124116375" lon="9.62171147872789"><ele>124.0</ele><time>2026-03-22T10:14:23Z</time></trkpt><trkpt lat="40.02297859404523" lon="9.621650334570548"><ele>123.0</ele><time>2026-03-22T10:14:24Z</time></trkpt><trkpt lat="40.02288808128411" lon="9.621633724961617"><ele>122.0</ele><time>2026-03-22T10:14:25Z</time></trkpt><trkpt lat="40.02278165352007" lon="9.621662233107408"><ele>121.0</ele><time>2026-03-22T10:14:26Z</time></trkpt><trkpt lat="40.02267263343701" lon="9.62169724774973"><ele>121.0</ele><time>2026-03-22T10:14:27Z</time></trkpt><trkpt lat="40.02257404049859" lon="9.621737269764331"><ele>121.0</ele><time>2026-03-22T10:14:28Z</time></trkpt><trkpt lat="40.02247596430537" lon="9.62180032010001"><ele>121.0</ele><time>2026-03-22T10:14:29Z</time></trkpt><trkpt lat="40.022377609572246" lon="9.621896771055999"><ele>121.0</ele><time>2026-03-22T10:14:30Z</time></trkpt><trkpt lat="40.02227681616671" lon="9.622004620076467"><ele>120.0</ele><time>2026-03-22T10:14:31Z</time></trkpt><trkpt lat="40.0221682927451" lon="9.622113490780036"><ele>119.0</ele><time>2026-03-22T10:14:32Z</time></trkpt><trkpt lat="40.02204505835787" lon="9.622226469919545"><ele>118.0</ele><time>2026-03-22T10:14:33Z</time></trkpt><trkpt lat="40.02191523480724" lon="9.622325408567523"><ele>117.0</ele><time>2026-03-22T10:14:34Z</time></trkpt><trkpt lat="40.021792241191754" lon="9.622411889541436"><ele>117.0</ele><time>2026-03-22T10:14:35Z</time></trkpt><trkpt lat="40.021685160007586" lon="9.622484978900511"><ele>116.99999999999999</ele><time>2026-03-22T10:14:36Z</time></trkpt><trkpt lat="40.02159275378284" lon="9.622548130992795"><ele>116.99999999999999</ele><time>2026-03-22T10:14:37Z</time></trkpt><trkpt lat="40.02150942433677" lon="9.622602726709074"><ele>117.0</ele><time>2026-03-22T10:14:38Z</time></trkpt><trkpt lat="40.02141621556191" lon="9.622625657288797"><ele>117.0</ele><time>2026-03-22T10:14:39Z</time></trkpt><trkpt lat="40.021332432960435" lon="9.622659952551375"><ele>113.5</ele><time>2026-03-22T10:14:40Z</time></trkpt><trkpt lat="40.02122361450255" lon="9.622664368157375"><ele>110.0</ele><time>2026-03-22T10:14:41Z</time></trkpt><trkpt lat="40.02110944602239" lon="9.622666478419239"><ele>106.5</ele><time>2026-03-22T10:14:42Z</time></trkpt><trkpt lat="40.020983508518704" lon="9.622654950865272"><ele>103.0</ele><time>2026-03-22T10:14:43Z</time></trkpt><trkpt lat="40.02084980215379" lon="9.622635602130023"><ele>103.0</ele><time>2026-03-22T10:14:44Z</time></trkpt><trkpt lat="40.02071158061591" lon="9.622609341479155"><ele>103.0</ele><time>2026-03-22T10:14:45Z</time></trkpt><trkpt lat="40.020543330376015" lon="9.622568362734686"><ele>103.0</ele><time>2026-03-22T10:14:46Z</time></trkpt><trkpt lat="40.02038817923945" lon="9.622518879703621"><ele>103.0</ele><time>2026-03-22T10:14:47Z</time></trkpt><trkpt lat="40.02022868469483" lon="9.622468859115587"><ele>103.0</ele><time>2026-03-22T10:14:48Z</time></trkpt><trkpt lat="40.020070657077625" lon="9.62241899995181"><ele>103.0</ele><time>2026-03-22T10:14:48.999Z</time></trkpt><trkpt lat="40.0199359214297" lon="9.622379440046247"><ele>102.0</ele><time>2026-03-22T10:14:49.999Z</time></trkpt><trkpt lat="40.0198330745176" lon="9.62235820991457"><ele>101.0</ele><time>2026-03-22T10:14:50.999Z</time></trkpt><trkpt lat="40.01974529173966" lon="9.62231518709416"><ele>100.0</ele><time>2026-03-22T10:14:51.999Z</time></trkpt><trkpt lat="40.01965510489512" lon="9.622273278739486"><ele>99.0</ele><time>2026-03-22T10:14:52.999Z</time></trkpt><trkpt lat="40.01954277566023" lon="9.622263464617621"><ele>98.0</ele><time>2026-03-22T10:14:53.999Z</time></trkpt><trkpt lat="40.01941695838166" lon="9.622276002560728"><ele>98.0</ele><time>2026-03-22T10:14:54.999Z</time></trkpt><trkpt lat="40.019285916104266" lon="9.622293687448277"><ele>98.0</ele><time>2026-03-22T10:14:55.999Z</time></trkpt><trkpt lat="40.0191467824585" lon="9.62229296369428"><ele>98.0</ele><time>2026-03-22T10:14:56.999Z</time></trkpt><trkpt lat="40.01899940665334" lon="9.622286670060705"><ele>98.0</ele><time>2026-03-22T10:14:57.999Z</time></trkpt><trkpt lat="40.01885102971225" lon="9.62227676194139"><ele>95.5</ele><time>2026-03-22T10:14:58.999Z</time></trkpt><trkpt lat="40.01872015810534" lon="9.62225224599"><ele>93.0</ele><time>2026-03-22T10:14:59.999Z</time></trkpt><trkpt lat="40.01859968210966" lon="9.622213024469369"><ele>90.5</ele><time>2026-03-22T10:15:00.999Z</time></trkpt><trkpt lat="40.01848749269663" lon="9.62216539929256"><ele>88.0</ele><time>2026-03-22T10:15:01.999Z</time></trkpt><trkpt lat="40.01836429153236" lon="9.622131807305822"><ele>86.2</ele><time>2026-03-22T10:15:02.999Z</time></trkpt><trkpt lat="40.018235938176936" lon="9.622110495160387"><ele>84.4</ele><time>2026-03-22T10:15:03.999Z</time></trkpt><trkpt lat="40.018119796975135" lon="9.622093153208512"><ele>82.60000000000001</ele><time>2026-03-22T10:15:04.999Z</time></trkpt><trkpt lat="40.018014500104385" lon="9.62207229397983"><ele>80.80000000000001</ele><time>2026-03-22T10:15:05.999Z</time></trkpt><trkpt lat="40.017919886323114" lon="9.622048636141352"><ele>79.0</ele><time>2026-03-22T10:15:06.999Z</time></trkpt><trkpt lat="40.01784075044001" lon="9.622038610066943"><ele>79.0</ele><time>2026-03-22T10:15:07.999Z</time></trkpt><trkpt lat="40.01776846996157" lon="9.622058568888121"><ele>79.0</ele><time>2026-03-22T10:15:08.999Z</time></trkpt><trkpt lat="40.01770430901165" lon="9.62219313378833"><ele>79.0</ele><time>2026-03-22T10:15:10.999Z</time></trkpt><trkpt lat="40.01768316444686" lon="9.622302040790068"><ele>79.0</ele><time>2026-03-22T10:15:11.999Z</time></trkpt><trkpt lat="40.01770254493741" lon="9.622444126287007"><ele>79.0</ele><time>2026-03-22T10:15:12.999Z</time></trkpt><trkpt lat="40.01772857898807" lon="9.622591970004013"><ele>79.0</ele><time>2026-03-22T10:15:13.999Z</time></trkpt><trkpt lat="40.01775650228517" lon="9.622736757485045"><ele>79.0</ele><time>2026-03-22T10:15:14.999Z</time></trkpt><trkpt lat="40.0177744124434" lon="9.622854640826274"><ele>79.0</ele><time>2026-03-22T10:15:15.999Z</time></trkpt><trkpt lat="40.017787287896326" lon="9.622990416979826"><ele>79.0</ele><time>2026-03-22T10:15:17.999Z</time></trkpt><trkpt lat="40.01779872309894" lon="9.6231263346589"><ele>79.0</ele><time>2026-03-22T10:15:20Z</time></trkpt><trkpt lat="40.01790796384671" lon="9.623231719941339"><ele>78.33333333333333</ele><time>2026-03-22T10:15:21Z</time></trkpt><trkpt lat="40.017981357334506" lon="9.62337878916377"><ele>77.66666666666667</ele><time>2026-03-22T10:15:22Z</time></trkpt><trkpt lat="40.01803237034947" lon="9.623572836887165"><ele>77.0</ele><time>2026-03-22T10:15:23Z</time></trkpt><trkpt lat="40.018116799021" lon="9.62375986904075"><ele>76.66666666666667</ele><time>2026-03-22T10:15:24Z</time></trkpt><trkpt lat="40.018234636828794" lon="9.623954293916553"><ele>76.33333333333333</ele><time>2026-03-22T10:15:25Z</time></trkpt><trkpt lat="40.01835137589707" lon="9.624130712210688"><ele>76.0</ele><time>2026-03-22T10:15:26Z</time></trkpt><trkpt lat="40.018483161630904" lon="9.624317224088523"><ele>73.66666666666666</ele><time>2026-03-22T10:15:27Z</time></trkpt><trkpt lat="40.01863471778779" lon="9.624513322796941"><ele>71.33333333333333</ele><time>2026-03-22T10:15:28Z</time></trkpt><trkpt lat="40.01878041552319" lon="9.624696907512645"><ele>69.0</ele><time>2026-03-22T10:15:29Z</time></trkpt><trkpt lat="40.01892284838897" lon="9.62487079698987"><ele>69.0</ele><time>2026-03-22T10:15:30Z</time></trkpt><trkpt lat="40.01906327647378" lon="9.6250349487925"><ele>69.0</ele><time>2026-03-22T10:15:31Z</time></trkpt><trkpt lat="40.019198869485756" lon="9.625186527596263"><ele>69.0</ele><time>2026-03-22T10:15:32Z</time></trkpt><trkpt lat="40.01934114669848" lon="9.625334965047637"><ele>68.4</ele><time>2026-03-22T10:15:33Z</time></trkpt><trkpt lat="40.019407500313555" lon="9.625425596896616"><ele>67.80000000000001</ele><time>2026-03-22T10:15:34Z</time></trkpt><trkpt lat="40.019466595101996" lon="9.62554058222241"><ele>67.19999999999999</ele><time>2026-03-22T10:15:35Z</time></trkpt><trkpt lat="40.019492734628145" lon="9.62565552076753"><ele>66.6</ele><time>2026-03-22T10:15:36Z</time></trkpt><trkpt lat="40.019492156628665" lon="9.625775490064393"><ele>66.0</ele><time>2026-03-22T10:15:37Z</time></trkpt><trkpt lat="40.01949644507657" lon="9.62592934230967"><ele>66.0</ele><time>2026-03-22T10:15:38Z</time></trkpt><trkpt lat="40.01950956712715" lon="9.626101344107234"><ele>66.0</ele><time>2026-03-22T10:15:39Z</time></trkpt><trkpt lat="40.01958307249345" lon="9.626267743184467"><ele>66.0</ele><time>2026-03-22T10:15:40Z</time></trkpt><trkpt lat="40.01964748665834" lon="9.626437763125635"><ele>66.0</ele><time>2026-03-22T10:15:41Z</time></trkpt><trkpt lat="40.01973927723184" lon="9.626591702808907"><ele>65.75</ele><time>2026-03-22T10:15:42Z</time></trkpt><trkpt lat="40.019794861472214" lon="9.626756751995202"><ele>65.5</ele><time>2026-03-22T10:15:43Z</time></trkpt><trkpt lat="40.019822200299465" lon="9.626903234896313"><ele>65.25</ele><time>2026-03-22T10:15:44Z</time></trkpt><trkpt lat="40.01984348279413" lon="9.627034376012192"><ele>65.0</ele><time>2026-03-22T10:15:45Z</time></trkpt><trkpt lat="40.01979984030526" lon="9.627147974017399"><ele>65.0</ele><time>2026-03-22T10:15:46Z</time></trkpt><trkpt lat="40.01976017085892" lon="9.627302646871827"><ele>65.0</ele><time>2026-03-22T10:15:47Z</time></trkpt><trkpt lat="40.019725437684784" lon="9.627452909477913"><ele>65.0</ele><time>2026-03-22T10:15:48Z</time></trkpt><trkpt lat="40.0197077338769" lon="9.62757892836568"><ele>65.0</ele><time>2026-03-22T10:15:49Z</time></trkpt><trkpt lat="40.01971575377582" lon="9.627703865116702"><ele>65.0</ele><time>2026-03-22T10:15:50Z</time></trkpt><trkpt lat="40.019770811529646" lon="9.627814628002849"><ele>65.25</ele><time>2026-03-22T10:15:51Z</time></trkpt><trkpt lat="40.01989543676302" lon="9.62788659943952"><ele>65.5</ele><time>2026-03-22T10:15:52Z</time></trkpt><trkpt lat="40.019947642610774" lon="9.628019226311437"><ele>65.75</ele><time>2026-03-22T10:15:53Z</time></trkpt><trkpt lat="40.01994353050475" lon="9.62816761100386"><ele>66.0</ele><time>2026-03-22T10:15:54Z</time></trkpt><trkpt lat="40.019937367495" lon="9.628348484606077"><ele>66.0</ele><time>2026-03-22T10:15:55Z</time></trkpt><trkpt lat="40.019936368748986" lon="9.628543050654336"><ele>66.0</ele><time>2026-03-22T10:15:56Z</time></trkpt><trkpt lat="40.01993960492017" lon="9.628695981886848"><ele>66.0</ele><time>2026-03-22T10:15:57Z</time></trkpt><trkpt lat="40.01994424116551" lon="9.62883073105722"><ele>66.0</ele><time>2026-03-22T10:15:58Z</time></trkpt><trkpt lat="40.01994845534595" lon="9.628952001200695"><ele>66.2</ele><time>2026-03-22T10:15:59Z</time></trkpt><trkpt lat="40.019955706576255" lon="9.629084717328046"><ele>66.39999999999999</ele><time>2026-03-22T10:16:00Z</time></trkpt><trkpt lat="40.019967822292294" lon="9.629226362559017"><ele>66.6</ele><time>2026-03-22T10:16:01Z</time></trkpt><trkpt lat="40.01999794415834" lon="9.629352985937194"><ele>66.8</ele><time>2026-03-22T10:16:02Z</time></trkpt><trkpt lat="40.02002164391692" lon="9.62944270765739"><ele>67.0</ele><time>2026-03-22T10:16:03Z</time></trkpt><trkpt lat="40.02007245056929" lon="9.629500620289209"><ele>67.33333333333333</ele><time>2026-03-22T10:16:04Z</time></trkpt><trkpt lat="40.02021093430046" lon="9.629486972588962"><ele>67.66666666666666</ele><time>2026-03-22T10:16:06Z</time></trkpt><trkpt lat="40.02028549712265" lon="9.629456414816568"><ele>68.0</ele><time>2026-03-22T10:16:07Z</time></trkpt><trkpt lat="40.02035993173351" lon="9.62942301936633"><ele>68.33333333333333</ele><time>2026-03-22T10:16:08Z</time></trkpt><trkpt lat="40.020438353657966" lon="9.629393307340125"><ele>68.66666666666667</ele><time>2026-03-22T10:16:09Z</time></trkpt><trkpt lat="40.020502608064746" lon="9.629367452573746"><ele>69.0</ele><time>2026-03-22T10:16:10Z</time></trkpt><trkpt lat="40.02061665415559" lon="9.629321674448208"><ele>69.0</ele><time>2026-03-22T10:16:12Z</time></trkpt><trkpt lat="40.020690849612556" lon="9.629290637457096"><ele>69.0</ele><time>2026-03-22T10:16:13Z</time></trkpt><trkpt lat="40.02077998692586" lon="9.62925463319649"><ele>69.0</ele><time>2026-03-22T10:16:14Z</time></trkpt><trkpt lat="40.02088980616397" lon="9.629210841939074"><ele>69.0</ele><time>2026-03-22T10:16:15Z</time></trkpt><trkpt lat="40.02101780250211" lon="9.629160418762645"><ele>69.0</ele><time>2026-03-22T10:16:16Z</time></trkpt><trkpt lat="40.02114439336489" lon="9.629116268780095"><ele>70.0</ele><time>2026-03-22T10:16:17Z</time></trkpt><trkpt lat="40.02128230931388" lon="9.629088109898918"><ele>71.0</ele><time>2026-03-22T10:16:18Z</time></trkpt><trkpt lat="40.02142265029248" lon="9.629040030127568"><ele>72.0</ele><time>2026-03-22T10:16:19Z</time></trkpt><trkpt lat="40.02155740999049" lon="9.628976312095505"><ele>73.0</ele><time>2026-03-22T10:16:20Z</time></trkpt><trkpt lat="40.021692311969254" lon="9.628932031115227"><ele>73.75</ele><time>2026-03-22T10:16:21Z</time></trkpt><trkpt lat="40.021821262879925" lon="9.628874644057282"><ele>74.5</ele><time>2026-03-22T10:16:22Z</time></trkpt><trkpt lat="40.0219383709229" lon="9.62883199327209"><ele>75.25</ele><time>2026-03-22T10:16:23Z</time></trkpt><trkpt lat="40.0220332810439" lon="9.628794395305514"><ele>76.0</ele><time>2026-03-22T10:16:24Z</time></trkpt><trkpt lat="40.02214276864406" lon="9.628807701944476"><ele>76.0</ele><time>2026-03-22T10:16:26Z</time></trkpt><trkpt lat="40.022159716931014" lon="9.628899703692726"><ele>76.0</ele><time>2026-03-22T10:16:27Z</time></trkpt><trkpt lat="40.02220527617985" lon="9.628964589399098"><ele>76.0</ele><time>2026-03-22T10:16:28Z</time></trkpt><trkpt lat="40.022262731039675" lon="9.629042405807956"><ele>76.0</ele><time>2026-03-22T10:16:29Z</time></trkpt><trkpt lat="40.022329721916726" lon="9.62912741613301"><ele>76.0</ele><time>2026-03-22T10:16:30Z</time></trkpt><trkpt lat="40.022405553392325" lon="9.62922007871023"><ele>76.0</ele><time>2026-03-22T10:16:31Z</time></trkpt><trkpt lat="40.022485394136865" lon="9.629319725527633"><ele>76.2</ele><time>2026-03-22T10:16:32Z</time></trkpt><trkpt lat="40.022552450992016" lon="9.629433281912476"><ele>76.39999999999999</ele><time>2026-03-22T10:16:33Z</time></trkpt><trkpt lat="40.022606962269016" lon="9.629548121755619"><ele>76.6</ele><time>2026-03-22T10:16:34Z</time></trkpt><trkpt lat="40.022671323691895" lon="9.629673854581345"><ele>76.8</ele><time>2026-03-22T10:16:35Z</time></trkpt><trkpt lat="40.02273018657189" lon="9.629791192577473"><ele>77.0</ele><time>2026-03-22T10:16:36Z</time></trkpt><trkpt lat="40.02278318562874" lon="9.629887209891823"><ele>77.2</ele><time>2026-03-22T10:16:37Z</time></trkpt><trkpt lat="40.02285674848846" lon="9.629960676351478"><ele>77.4</ele><time>2026-03-22T10:16:38Z</time></trkpt><trkpt lat="40.02293681772222" lon="9.630004291176189"><ele>77.6</ele><time>2026-03-22T10:16:39Z</time></trkpt><trkpt lat="40.023033948305745" lon="9.630027385962503"><ele>77.8</ele><time>2026-03-22T10:16:40Z</time></trkpt><trkpt lat="40.02314167535564" lon="9.630029117102964"><ele>78.0</ele><time>2026-03-22T10:16:41Z</time></trkpt><trkpt lat="40.023259203163896" lon="9.630070940645838"><ele>78.25</ele><time>2026-03-22T10:16:42Z</time></trkpt><trkpt lat="40.023378766485926" lon="9.630096685790976"><ele>78.5</ele><time>2026-03-22T10:16:43Z</time></trkpt><trkpt lat="40.02350563729859" lon="9.630119910977848"><ele>78.75</ele><time>2026-03-22T10:16:44Z</time></trkpt><trkpt lat="40.02363260568404" lon="9.630119909965408"><ele>79.0</ele><time>2026-03-22T10:16:45Z</time></trkpt><trkpt lat="40.02374169344386" lon="9.63015046867348"><ele>79.0</ele><time>2026-03-22T10:16:46Z</time></trkpt><trkpt lat="40.02382240526842" lon="9.630212888841491"><ele>79.0</ele><time>2026-03-22T10:16:47Z</time></trkpt><trkpt lat="40.023897754918835" lon="9.630292752034148"><ele>79.0</ele><time>2026-03-22T10:16:48Z</time></trkpt><trkpt lat="40.0239956393784" lon="9.630384479036916"><ele>79.0</ele><time>2026-03-22T10:16:49Z</time></trkpt><trkpt lat="40.024117252905064" lon="9.630448867306402"><ele>79.0</ele><time>2026-03-22T10:16:50Z</time></trkpt><trkpt lat="40.02423728258053" lon="9.630523538750802"><ele>80.0</ele><time>2026-03-22T10:16:51Z</time></trkpt><trkpt lat="40.02436236106604" lon="9.630579983591211"><ele>81.0</ele><time>2026-03-22T10:16:52Z</time></trkpt><trkpt lat="40.02448624426645" lon="9.630637522854556"><ele>82.0</ele><time>2026-03-22T10:16:53Z</time></trkpt><trkpt lat="40.02459489215184" lon="9.63066064859043"><ele>83.0</ele><time>2026-03-22T10:16:54Z</time></trkpt><trkpt lat="40.02468115135063" lon="9.630715419363018"><ele>83.0</ele><time>2026-03-22T10:16:55Z</time></trkpt><trkpt lat="40.02475136987186" lon="9.630769761421055"><ele>83.0</ele><time>2026-03-22T10:16:56Z</time></trkpt><trkpt lat="40.02478813060673" lon="9.630857434906849"><ele>83.0</ele><time>2026-03-22T10:16:57Z</time></trkpt><trkpt lat="40.024846701581126" lon="9.630973993100861"><ele>83.0</ele><time>2026-03-22T10:16:58Z</time></trkpt><trkpt lat="40.0249130045244" lon="9.631106649588922"><ele>83.0</ele><time>2026-03-22T10:16:59Z</time></trkpt><trkpt lat="40.0249864732898" lon="9.631231414442263"><ele>83.60000000000001</ele><time>2026-03-22T10:17:00Z</time></trkpt><trkpt lat="40.02508182588804" lon="9.631330991150053"><ele>84.2</ele><time>2026-03-22T10:17:01Z</time></trkpt><trkpt lat="40.02515643960972" lon="9.631421908783656"><ele>84.8</ele><time>2026-03-22T10:17:02Z</time></trkpt><trkpt lat="40.0251845776966" lon="9.63152203022305"><ele>85.4</ele><time>2026-03-22T10:17:02.999Z</time></trkpt><trkpt lat="40.02519408362281" lon="9.631626832218009"><ele>86.0</ele><time>2026-03-22T10:17:03.999Z</time></trkpt><trkpt lat="40.025206960108534" lon="9.631755985112841"><ele>86.0</ele><time>2026-03-22T10:17:04.999Z</time></trkpt><trkpt lat="40.025223208485784" lon="9.631909104765857"><ele>86.0</ele><time>2026-03-22T10:17:05.999Z</time></trkpt><trkpt lat="40.025242154890634" lon="9.63207002317034"><ele>86.0</ele><time>2026-03-22T10:17:06.999Z</time></trkpt><trkpt lat="40.02526289815729" lon="9.632227102839547"><ele>86.0</ele><time>2026-03-22T10:17:07.999Z</time></trkpt><trkpt lat="40.02528065167962" lon="9.632361542666718"><ele>85.83333333333334</ele><time>2026-03-22T10:17:08.999Z</time></trkpt><trkpt lat="40.02529931254169" lon="9.632461427365092"><ele>85.66666666666667</ele><time>2026-03-22T10:17:09.999Z</time></trkpt><trkpt lat="40.02533428018455" lon="9.632546181809134"><ele>85.5</ele><time>2026-03-22T10:17:10.999Z</time></trkpt><trkpt lat="40.02536658574962" lon="9.632618622346033"><ele>85.33333333333333</ele><time>2026-03-22T10:17:11.999Z</time></trkpt><trkpt lat="40.025470091153" lon="9.632602954964314"><ele>85.16666666666666</ele><time>2026-03-22T10:17:12.999Z</time></trkpt><trkpt lat="40.02557073325477" lon="9.632564449621373"><ele>85.0</ele><time>2026-03-22T10:17:13.999Z</time></trkpt><trkpt lat="40.0256845317309" lon="9.632502257280322"><ele>85.8</ele><time>2026-03-22T10:17:14.999Z</time></trkpt><trkpt lat="40.025812786147675" lon="9.632444988594536"><ele>86.6</ele><time>2026-03-22T10:17:15.999Z</time></trkpt><trkpt lat="40.02592922263684" lon="9.632392573050796"><ele>87.4</ele><time>2026-03-22T10:17:16.999Z</time></trkpt><trkpt lat="40.02602709681386" lon="9.632350197128039"><ele>88.2</ele><time>2026-03-22T10:17:17.999Z</time></trkpt><trkpt lat="40.02610446401149" lon="9.632334771752383"><ele>89.0</ele><time>2026-03-22T10:17:18.999Z</time></trkpt><trkpt lat="40.02617101360365" lon="9.632362210985683"><ele>89.0</ele><time>2026-03-22T10:17:19.999Z</time></trkpt><trkpt lat="40.02621846906958" lon="9.63246167571656"><ele>89.0</ele><time>2026-03-22T10:17:20.999Z</time></trkpt><trkpt lat="40.02626940555672" lon="9.632581829021875"><ele>89.0</ele><time>2026-03-22T10:17:21.999Z</time></trkpt><trkpt lat="40.02634053759218" lon="9.632723173969568"><ele>89.0</ele><time>2026-03-22T10:17:22.999Z</time></trkpt><trkpt lat="40.02641233452333" lon="9.632869162525154"><ele>88.75</ele><time>2026-03-22T10:17:23.999Z</time></trkpt><trkpt lat="40.0265006224115" lon="9.633004823672534"><ele>88.5</ele><time>2026-03-22T10:17:25Z</time></trkpt><trkpt lat="40.026566381031834" lon="9.633135379093524"><ele>88.25</ele><time>2026-03-22T10:17:26Z</time></trkpt><trkpt lat="40.02662349290378" lon="9.633258071894161"><ele>88.0</ele><time>2026-03-22T10:17:27Z</time></trkpt><trkpt lat="40.02665430820924" lon="9.633394608985899"><ele>88.4</ele><time>2026-03-22T10:17:28Z</time></trkpt><trkpt lat="40.02667366561116" lon="9.633532214999725"><ele>88.80000000000001</ele><time>2026-03-22T10:17:29Z</time></trkpt><trkpt lat="40.02669403425703" lon="9.633678386378985"><ele>89.2</ele><time>2026-03-22T10:17:30Z</time></trkpt><trkpt lat="40.02672366850304" lon="9.6338167106189"><ele>89.6</ele><time>2026-03-22T10:17:31Z</time></trkpt><trkpt lat="40.0267540787921" lon="9.633933373250436"><ele>90.0</ele><time>2026-03-22T10:17:32Z</time></trkpt><trkpt lat="40.02680623831792" lon="9.634034183379221"><ele>90.0</ele><time>2026-03-22T10:17:33Z</time></trkpt><trkpt lat="40.0268742993444" lon="9.634139779442672"><ele>90.0</ele><time>2026-03-22T10:17:34Z</time></trkpt><trkpt lat="40.02696840775889" lon="9.634235885272757"><ele>90.0</ele><time>2026-03-22T10:17:35Z</time></trkpt><trkpt lat="40.027081983175485" lon="9.634324785298958"><ele>90.0</ele><time>2026-03-22T10:17:36Z</time></trkpt><trkpt lat="40.02719564199191" lon="9.634380695556949"><ele>90.0</ele><time>2026-03-22T10:17:37Z</time></trkpt><trkpt lat="40.027308674792515" lon="9.634447658285758"><ele>90.0</ele><time>2026-03-22T10:17:38Z</time></trkpt><trkpt lat="40.02742375095926" lon="9.63451915680524"><ele>90.0</ele><time>2026-03-22T10:17:39Z</time></trkpt><trkpt lat="40.02753554554729" lon="9.634598486831694"><ele>90.0</ele><time>2026-03-22T10:17:40Z</time></trkpt><trkpt lat="40.027619151701266" lon="9.634702065942403"><ele>93.4</ele><time>2026-03-22T10:17:41Z</time></trkpt><trkpt lat="40.02772484012791" lon="9.634800298926839"><ele>96.8</ele><time>2026-03-22T10:17:42Z</time></trkpt><trkpt lat="40.027760775349684" lon="9.634919244435832"><ele>100.19999999999999</ele><time>2026-03-22T10:17:43Z</time></trkpt><trkpt lat="40.02775534810072" lon="9.635078556053298"><ele>103.6</ele><time>2026-03-22T10:17:45Z</time></trkpt><trkpt lat="40.02777331059623" lon="9.635179133668347"><ele>107.0</ele><time>2026-03-22T10:17:46Z</time></trkpt><trkpt lat="40.02781494185393" lon="9.635260520771753"><ele>106.0</ele><time>2026-03-22T10:17:48Z</time></trkpt><trkpt lat="40.02789186287825" lon="9.635365001833502"><ele>104.99999999999999</ele><time>2026-03-22T10:17:51Z</time></trkpt><trkpt lat="40.027956351437076" lon="9.635437165372469"><ele>104.0</ele><time>2026-03-22T10:17:52Z</time></trkpt><trkpt lat="40.028053163097425" lon="9.635534018939513"><ele>103.0</ele><time>2026-03-22T10:17:53Z</time></trkpt><trkpt lat="40.02811006890362" lon="9.635580912638785"><ele>102.0</ele><time>2026-03-22T10:17:54Z</time></trkpt><trkpt lat="40.0282181216556" lon="9.635673673933985"><ele>103.19999999999999</ele><time>2026-03-22T10:17:56Z</time></trkpt><trkpt lat="40.02831238337103" lon="9.635725394558694"><ele>104.4</ele><time>2026-03-22T10:17:57Z</time></trkpt><trkpt lat="40.02841435737024" lon="9.635782423591419"><ele>105.60000000000001</ele><time>2026-03-22T10:17:58Z</time></trkpt><trkpt lat="40.02851503206759" lon="9.635823531600513"><ele>106.80000000000001</ele><time>2026-03-22T10:17:59Z</time></trkpt><trkpt lat="40.02862584825187" lon="9.635860980225011"><ele>108.0</ele><time>2026-03-22T10:18:00Z</time></trkpt><trkpt lat="40.028734461933205" lon="9.635908455028728"><ele>108.0</ele><time>2026-03-22T10:18:01Z</time></trkpt><trkpt lat="40.02884983347657" lon="9.635952482043498"><ele>108.0</ele><time>2026-03-22T10:18:02Z</time></trkpt><trkpt lat="40.028970224443306" lon="9.635977501222595"><ele>108.0</ele><time>2026-03-22T10:18:03Z</time></trkpt><trkpt lat="40.02909493870179" lon="9.635953656684267"><ele>108.0</ele><time>2026-03-22T10:18:04Z</time></trkpt><trkpt lat="40.02923264699865" lon="9.635925241969861"><ele>108.75</ele><time>2026-03-22T10:18:05Z</time></trkpt><trkpt lat="40.02937827057973" lon="9.63594068223172"><ele>109.5</ele><time>2026-03-22T10:18:06Z</time></trkpt><trkpt lat="40.029525316217544" lon="9.635966814237076"><ele>110.25</ele><time>2026-03-22T10:18:07Z</time></trkpt><trkpt lat="40.02966799225172" lon="9.635996226759408"><ele>111.0</ele><time>2026-03-22T10:18:08Z</time></trkpt><trkpt lat="40.02979507355281" lon="9.636025871569714"><ele>111.0</ele><time>2026-03-22T10:18:09Z</time></trkpt><trkpt lat="40.02990718756374" lon="9.636054682998244"><ele>111.0</ele><time>2026-03-22T10:18:10Z</time></trkpt><trkpt lat="40.03000285964156" lon="9.636080463244316"><ele>111.0</ele><time>2026-03-22T10:18:11Z</time></trkpt><trkpt lat="40.030087409613905" lon="9.636108415234085"><ele>111.0</ele><time>2026-03-22T10:18:12Z</time></trkpt><trkpt lat="40.030158892322554" lon="9.6361509791706"><ele>111.0</ele><time>2026-03-22T10:18:13Z</time></trkpt><trkpt lat="40.03021092933301" lon="9.636227948857774"><ele>109.16666666666667</ele><time>2026-03-22T10:18:14Z</time></trkpt><trkpt lat="40.03025176822121" lon="9.63630398781443"><ele>107.33333333333334</ele><time>2026-03-22T10:18:15Z</time></trkpt><trkpt lat="40.03029618271105" lon="9.636388222760864"><ele>105.5</ele><time>2026-03-22T10:18:16Z</time></trkpt><trkpt lat="40.030353960254615" lon="9.636478952156482"><ele>103.66666666666667</ele><time>2026-03-22T10:18:17Z</time></trkpt><trkpt lat="40.03042396649741" lon="9.636555655195696"><ele>101.83333333333334</ele><time>2026-03-22T10:18:18Z</time></trkpt><trkpt lat="40.03051346635123" lon="9.636610301394953"><ele>100.0</ele><time>2026-03-22T10:18:19Z</time></trkpt><trkpt lat="40.030627784207546" lon="9.636632668360168"><ele>100.0</ele><time>2026-03-22T10:18:20Z</time></trkpt><trkpt lat="40.03073515664983" lon="9.63667400683435"><ele>100.0</ele><time>2026-03-22T10:18:21Z</time></trkpt><trkpt lat="40.030849642946954" lon="9.636727212671873"><ele>100.0</ele><time>2026-03-22T10:18:22Z</time></trkpt><trkpt lat="40.03096472811676" lon="9.636795049578309"><ele>100.0</ele><time>2026-03-22T10:18:23Z</time></trkpt><trkpt lat="40.031081718573134" lon="9.636871713865236"><ele>101.0</ele><time>2026-03-22T10:18:24Z</time></trkpt><trkpt lat="40.03117899690161" lon="9.636944355169156"><ele>102.0</ele><time>2026-03-22T10:18:25Z</time></trkpt><trkpt lat="40.031282611893474" lon="9.637007917855847"><ele>103.0</ele><time>2026-03-22T10:18:26Z</time></trkpt><trkpt lat="40.03140227105779" lon="9.637040940533572"><ele>104.0</ele><time>2026-03-22T10:18:27Z</time></trkpt><trkpt lat="40.03152570799146" lon="9.637057032564028"><ele>102.0</ele><time>2026-03-22T10:18:28Z</time></trkpt><trkpt lat="40.031648761061284" lon="9.637033089264056"><ele>100.0</ele><time>2026-03-22T10:18:29Z</time></trkpt><trkpt lat="40.03175155873235" lon="9.636995865524716"><ele>98.0</ele><time>2026-03-22T10:18:30Z</time></trkpt><trkpt lat="40.031857026744774" lon="9.63691832096041"><ele>96.0</ele><time>2026-03-22T10:18:31Z</time></trkpt><trkpt lat="40.03197499563569" lon="9.636856184845465"><ele>101.33333333333334</ele><time>2026-03-22T10:18:32Z</time></trkpt><trkpt lat="40.03210106269936" lon="9.636750934206024"><ele>106.66666666666667</ele><time>2026-03-22T10:18:33Z</time></trkpt><trkpt lat="40.0322349223358" lon="9.636661652584545"><ele>112.0</ele><time>2026-03-22T10:18:34Z</time></trkpt><trkpt lat="40.03239196251498" lon="9.636581625815058"><ele>110.25</ele><time>2026-03-22T10:18:35Z</time></trkpt><trkpt lat="40.0325143381899" lon="9.636478531702355"><ele>108.5</ele><time>2026-03-22T10:18:36Z</time></trkpt><trkpt lat="40.03262685806685" lon="9.636428804986958"><ele>106.75</ele><time>2026-03-22T10:18:37Z</time></trkpt><trkpt lat="40.0327137947105" lon="9.636407832751813"><ele>105.0</ele><time>2026-03-22T10:18:38Z</time></trkpt><trkpt lat="40.032808741628564" lon="9.636343842335519"><ele>105.0</ele><time>2026-03-22T10:18:39Z</time></trkpt><trkpt lat="40.03290980929342" lon="9.636349899791519"><ele>105.0</ele><time>2026-03-22T10:18:40Z</time></trkpt><trkpt lat="40.03302171796041" lon="9.636369169653035"><ele>105.0</ele><time>2026-03-22T10:18:41Z</time></trkpt><trkpt lat="40.03312845613498" lon="9.636383402632267"><ele>105.0</ele><time>2026-03-22T10:18:42Z</time></trkpt><trkpt lat="40.03324056198509" lon="9.63639876334893"><ele>105.0</ele><time>2026-03-22T10:18:43Z</time></trkpt><trkpt lat="40.03346820849525" lon="9.636362907539807"><ele>105.25</ele><time>2026-03-22T10:18:44Z</time></trkpt><trkpt lat="40.03360672528436" lon="9.636360101783401"><ele>105.5</ele><time>2026-03-22T10:18:45Z</time></trkpt><trkpt lat="40.0337444784925" lon="9.636345665354163"><ele>105.75</ele><time>2026-03-22T10:18:46Z</time></trkpt><trkpt lat="40.033881666061035" lon="9.636327242083002"><ele>106.0</ele><time>2026-03-22T10:18:47Z</time></trkpt><trkpt lat="40.03398624263624" lon="9.636367793962062"><ele>106.0</ele><time>2026-03-22T10:18:48Z</time></trkpt><trkpt lat="40.03404610342182" lon="9.636420677720366"><ele>106.0</ele><time>2026-03-22T10:18:49Z</time></trkpt><trkpt lat="40.03412894356836" lon="9.636445189398202"><ele>106.0</ele><time>2026-03-22T10:18:50Z</time></trkpt><trkpt lat="40.03420126639118" lon="9.63655147854453"><ele>106.0</ele><time>2026-03-22T10:18:51Z</time></trkpt><trkpt lat="40.034296310087065" lon="9.636652794976898"><ele>106.0</ele><time>2026-03-22T10:18:52Z</time></trkpt><trkpt lat="40.034396444606756" lon="9.63673682471609"><ele>107.0</ele><time>2026-03-22T10:18:53Z</time></trkpt><trkpt lat="40.034486081580894" lon="9.636869044461154"><ele>108.0</ele><time>2026-03-22T10:18:54Z</time></trkpt><trkpt lat="40.03460372754341" lon="9.636957216099189"><ele>109.0</ele><time>2026-03-22T10:18:55Z</time></trkpt><trkpt lat="40.03471840804531" lon="9.637041912903685"><ele>110.0</ele><time>2026-03-22T10:18:56Z</time></trkpt><trkpt lat="40.034800820437965" lon="9.637151177854191"><ele>113.5</ele><time>2026-03-22T10:18:57Z</time></trkpt><trkpt lat="40.0348961844411" lon="9.637265440773453"><ele>117.0</ele><time>2026-03-22T10:18:58Z</time></trkpt><trkpt lat="40.03499335715548" lon="9.637361964922263"><ele>120.5</ele><time>2026-03-22T10:18:59Z</time></trkpt><trkpt lat="40.035095438303216" lon="9.637430260873916"><ele>124.0</ele><time>2026-03-22T10:19:00Z</time></trkpt><trkpt lat="40.03518449612618" lon="9.63752025475325"><ele>124.66666666666667</ele><time>2026-03-22T10:19:01Z</time></trkpt><trkpt lat="40.03525308946802" lon="9.63758246951929"><ele>125.33333333333334</ele><time>2026-03-22T10:19:02Z</time></trkpt><trkpt lat="40.03533072962603" lon="9.637607635991355"><ele>126.0</ele><time>2026-03-22T10:19:04Z</time></trkpt><trkpt lat="40.03540543559352" lon="9.637546407189706"><ele>126.66666666666666</ele><time>2026-03-22T10:19:07Z</time></trkpt><trkpt lat="40.03545852782842" lon="9.637489611489753"><ele>127.33333333333333</ele><time>2026-03-22T10:19:08Z</time></trkpt><trkpt lat="40.035534297905464" lon="9.637421206281994"><ele>128.0</ele><time>2026-03-22T10:19:09Z</time></trkpt><trkpt lat="40.03564061690209" lon="9.637356429977213"><ele>127.99999999999999</ele><time>2026-03-22T10:19:10Z</time></trkpt><trkpt lat="40.035724907856036" lon="9.637359472400714"><ele>128.0</ele><time>2026-03-22T10:19:11Z</time></trkpt><trkpt lat="40.035794610010676" lon="9.637381904708642"><ele>128.0</ele><time>2026-03-22T10:19:12Z</time></trkpt><trkpt lat="40.03586448036305" lon="9.637435827827568"><ele>128.0</ele><time>2026-03-22T10:19:13Z</time></trkpt><trkpt lat="40.03593468349966" lon="9.637495815772176"><ele>127.99999999999999</ele><time>2026-03-22T10:19:14Z</time></trkpt><trkpt lat="40.03600734527308" lon="9.637552438703924"><ele>128.0</ele><time>2026-03-22T10:19:15Z</time></trkpt><trkpt lat="40.036097512256006" lon="9.637603033289654"><ele>131.0</ele><time>2026-03-22T10:19:16Z</time></trkpt><trkpt lat="40.036196231415104" lon="9.637667800575745"><ele>134.0</ele><time>2026-03-22T10:19:17Z</time></trkpt><trkpt lat="40.036303762468656" lon="9.637744790692988"><ele>137.0</ele><time>2026-03-22T10:19:18Z</time></trkpt><trkpt lat="40.036408249868224" lon="9.63782833825378"><ele>140.0</ele><time>2026-03-22T10:19:19Z</time></trkpt><trkpt lat="40.03650847214689" lon="9.637913082407888"><ele>141.6</ele><time>2026-03-22T10:19:20Z</time></trkpt><trkpt lat="40.03659103747894" lon="9.638000260495035"><ele>143.2</ele><time>2026-03-22T10:19:21Z</time></trkpt><trkpt lat="40.036626625616854" lon="9.638127966103855"><ele>144.8</ele><time>2026-03-22T10:19:22Z</time></trkpt><trkpt lat="40.03667324041741" lon="9.638241332347619"><ele>146.4</ele><time>2026-03-22T10:19:23Z</time></trkpt><trkpt lat="40.03671317548779" lon="9.638322954189904"><ele>148.0</ele><time>2026-03-22T10:19:24Z</time></trkpt><trkpt lat="40.03678511172228" lon="9.638413710271866"><ele>148.4</ele><time>2026-03-22T10:19:26Z</time></trkpt><trkpt lat="40.03686732695145" lon="9.638415779669103"><ele>148.8</ele><time>2026-03-22T10:19:27Z</time></trkpt><trkpt lat="40.03696714817362" lon="9.638408024603205"><ele>149.2</ele><time>2026-03-22T10:19:28Z</time></trkpt><trkpt lat="40.03706833349705" lon="9.638385290198999"><ele>149.6</ele><time>2026-03-22T10:19:29Z</time></trkpt><trkpt lat="40.03717422230771" lon="9.638395266561929"><ele>150.0</ele><time>2026-03-22T10:19:30Z</time></trkpt><trkpt lat="40.037274350987644" lon="9.638415291061305"><ele>150.0</ele><time>2026-03-22T10:19:31Z</time></trkpt><trkpt lat="40.03737057729379" lon="9.638465178435998"><ele>150.0</ele><time>2026-03-22T10:19:32Z</time></trkpt><trkpt lat="40.03747218143271" lon="9.63851420016022"><ele>150.0</ele><time>2026-03-22T10:19:33Z</time></trkpt><trkpt lat="40.03755767545078" lon="9.638557342633687"><ele>150.0</ele><time>2026-03-22T10:19:34Z</time></trkpt><trkpt lat="40.037621271975816" lon="9.638590056118478"><ele>150.0</ele><time>2026-03-22T10:19:35Z</time></trkpt><trkpt lat="40.037726341266605" lon="9.638642923693313"><ele>148.83333333333334</ele><time>2026-03-22T10:19:37Z</time></trkpt><trkpt lat="40.03779734089517" lon="9.638678360686958"><ele>147.66666666666666</ele><time>2026-03-22T10:19:38Z</time></trkpt><trkpt lat="40.037859740037305" lon="9.638711634625475"><ele>146.5</ele><time>2026-03-22T10:19:39Z</time></trkpt><trkpt lat="40.037927028367974" lon="9.63875015947508"><ele>145.33333333333331</ele><time>2026-03-22T10:19:40Z</time></trkpt><trkpt lat="40.03803902129077" lon="9.638832105744157"><ele>144.16666666666666</ele><time>2026-03-22T10:19:42Z</time></trkpt><trkpt lat="40.038099195022866" lon="9.63889674522337"><ele>143.0</ele><time>2026-03-22T10:19:43Z</time></trkpt><trkpt lat="40.038173101119725" lon="9.638981494574079"><ele>143.0</ele><time>2026-03-22T10:19:44Z</time></trkpt><trkpt lat="40.03823262038142" lon="9.639057921124307"><ele>143.0</ele><time>2026-03-22T10:19:45Z</time></trkpt><trkpt lat="40.038278575382535" lon="9.639120725054157"><ele>143.0</ele><time>2026-03-22T10:19:46Z</time></trkpt><trkpt lat="40.038335067796886" lon="9.639209555732277"><ele>143.0</ele><time>2026-03-22T10:19:48Z</time></trkpt><trkpt lat="40.03833725368357" lon="9.639316192460596"><ele>143.0</ele><time>2026-03-22T10:19:50Z</time></trkpt><trkpt lat="40.038389032976326" lon="9.639453317521875"><ele>143.0</ele><time>2026-03-22T10:19:52Z</time></trkpt><trkpt lat="40.03844987053649" lon="9.639533529481348"><ele>142.16666666666666</ele><time>2026-03-22T10:19:53Z</time></trkpt><trkpt lat="40.03851558869487" lon="9.639607554888622"><ele>141.33333333333331</ele><time>2026-03-22T10:19:54Z</time></trkpt><trkpt lat="40.03856740019351" lon="9.639665702093051"><ele>140.5</ele><time>2026-03-22T10:19:55Z</time></trkpt><trkpt lat="40.03864491445389" lon="9.639757651282116"><ele>139.66666666666666</ele><time>2026-03-22T10:19:57Z</time></trkpt><trkpt lat="40.038643222852734" lon="9.639875865270234"><ele>138.83333333333334</ele><time>2026-03-22T10:19:59Z</time></trkpt><trkpt lat="40.03862680532766" lon="9.64000020636963"><ele>138.0</ele><time>2026-03-22T10:20:01Z</time></trkpt><trkpt lat="40.03856301672975" lon="9.64011372371751"><ele>138.0</ele><time>2026-03-22T10:20:03Z</time></trkpt><trkpt lat="40.03847850477784" lon="9.640191219850008"><ele>138.0</ele><time>2026-03-22T10:20:05Z</time></trkpt><trkpt lat="40.038401845941" lon="9.640151388959483"><ele>138.0</ele><time>2026-03-22T10:20:06Z</time></trkpt><trkpt lat="40.03832006553891" lon="9.64008652563583"><ele>138.0</ele><time>2026-03-22T10:20:08Z</time></trkpt><trkpt lat="40.03822683100698" lon="9.640107094040408"><ele>138.0</ele><time>2026-03-22T10:20:10Z</time></trkpt><trkpt lat="40.03815170057943" lon="9.64009901141484"><ele>136.66666666666666</ele><time>2026-03-22T10:20:12Z</time></trkpt><trkpt lat="40.038081222298246" lon="9.640069125211031"><ele>135.33333333333334</ele><time>2026-03-22T10:20:14Z</time></trkpt><trkpt lat="40.03802173026879" lon="9.639974109177162"><ele>134.0</ele><time>2026-03-22T10:20:17Z</time></trkpt><trkpt lat="40.038005831999335" lon="9.639876884797157"><ele>132.66666666666669</ele><time>2026-03-22T10:20:20Z</time></trkpt><trkpt lat="40.03795350424468" lon="9.639821256941394"><ele>131.33333333333334</ele><time>2026-03-22T10:20:22Z</time></trkpt><trkpt lat="40.03787239903619" lon="9.639769994659513"><ele>130.0</ele><time>2026-03-22T10:20:24Z</time></trkpt><trkpt lat="40.037797115490015" lon="9.639720065703235"><ele>130.0</ele><time>2026-03-22T10:20:27Z</time></trkpt><trkpt lat="40.03773956769777" lon="9.639675141532987"><ele>130.0</ele><time>2026-03-22T10:20:34Z</time></trkpt></trkseg></trk></gpx>